PWSweather.com
Personal Weather Stations
Station Observations
KEVSFASTZ
Meadow Lake, Boynton Beach, FL 33436

Meadow LakeBoynton Beach, FL 33436

Lat: 26.561295, Lon: -80.095896

Elevation: 36

Station Type: WS-2902

Latest ConditionsUpdated 11:38:00 PM EDT Sunday, May 19, 2019
Currently Today's Max Today's Min Today's Average
Temperature 78.8°F26.0°C 84.0°F28.9°C 75.2°F24.0°C 80.0°F26.7°C
Dew Point 66.9°F19.4°C 71.2°F21.8°C 66.9°F19.4°C 68.9°F20.5°C
Winds 3.1 mph E5.0 kmh E 15.4 mph -24.8 kmh - - 3.8 mph 6.1 kmh
Wind Gusts 4.5 mph7.2 kmh 22.8 mph36.7 kmh - -
Humidity 67% 78% 63% 69%
Pressure 30.03 in1016.9 mb 30.04 in1017.3 mb 29.97 in1014.9 mb -
Hour Temp Dew Point Humidity Winds Wind Gusts Pressure Precip Precip Rate Daily Precip Total
11:38 PM 78.8°F26.0°C 66.9°F19.4°C 67% 3.1 mph E5.0 kmh E 4.5 mph7.2 kmh 30.03 in1016.9 mb 0.00 in0.0 mm 0.00 in0.0 mm 0.00 in0.0 mm
11:36 PM 78.8°F26.0°C 66.9°F19.4°C 67% 3.8 mph E6.1 kmh E 4.5 mph7.2 kmh 30.03 in1016.9 mb 0.00 in0.0 mm 0.00 in0.0 mm 0.00 in0.0 mm
11:35 PM 79.0°F26.1°C 67.5°F19.7°C 68% 3.6 mph E5.8 kmh E 4.5 mph7.2 kmh 30.03 in1016.9 mb 0.00 in0.0 mm 0.00 in0.0 mm 0.00 in0.0 mm
11:34 PM 79.0°F26.1°C 67.1°F19.5°C 67% 4.0 mph E6.4 kmh E 4.5 mph7.2 kmh 30.03 in1016.9 mb 0.00 in0.0 mm 0.00 in0.0 mm 0.00 in0.0 mm
11:33 PM 79.0°F26.1°C 67.5°F19.7°C 68% 2.9 mph SE4.7 kmh SE 4.5 mph7.2 kmh 30.03 in1016.9 mb 0.00 in0.0 mm 0.00 in0.0 mm 0.00 in0.0 mm
11:32 PM 79.0°F26.1°C 67.5°F19.7°C 68% 3.4 mph SE5.5 kmh SE 3.4 mph5.5 kmh 30.02 in1016.6 mb 0.00 in0.0 mm 0.00 in0.0 mm 0.00 in0.0 mm
11:31 PM 79.0°F26.1°C 67.5°F19.7°C 68% 4.5 mph ESE7.2 kmh ESE 5.8 mph9.3 kmh 30.03 in1016.9 mb 0.00 in0.0 mm 0.00 in0.0 mm 0.00 in0.0 mm
11:30 PM 79.0°F26.1°C 67.5°F19.7°C 68% 2.2 mph E3.5 kmh E 2.2 mph3.5 kmh 30.03 in1016.9 mb 0.00 in0.0 mm 0.00 in0.0 mm 0.00 in0.0 mm
11:29 PM 79.0°F26.1°C 67.5°F19.7°C 68% 2.2 mph ESE3.5 kmh ESE 2.2 mph3.5 kmh 30.03 in1016.9 mb 0.00 in0.0 mm 0.00 in0.0 mm 0.00 in0.0 mm
11:28 PM 79.0°F26.1°C 67.5°F19.7°C 68% 3.1 mph E5.0 kmh E 3.4 mph5.5 kmh 30.03 in1016.9 mb 0.00 in0.0 mm 0.00 in0.0 mm 0.00 in0.0 mm
11:27 PM 79.0°F26.1°C 67.5°F19.7°C 68% 2.9 mph E4.7 kmh E 3.4 mph5.5 kmh 30.03 in1016.9 mb 0.00 in0.0 mm 0.00 in0.0 mm 0.00 in0.0 mm
11:26 PM 79.0°F26.1°C 67.5°F19.7°C 68% 5.1 mph E8.2 kmh E 6.9 mph11.1 kmh 30.03 in1016.9 mb 0.00 in0.0 mm 0.00 in0.0 mm 0.00 in0.0 mm
11:25 PM 78.8°F26.0°C 67.3°F19.6°C 68% 2.0 mph ENE3.2 kmh ENE 3.4 mph5.5 kmh 30.03 in1016.9 mb 0.00 in0.0 mm 0.00 in0.0 mm 0.00 in0.0 mm
11:24 PM 78.8°F26.0°C 67.3°F19.6°C 68% 2.5 mph ESE4.0 kmh ESE 3.4 mph5.5 kmh 30.03 in1016.9 mb 0.00 in0.0 mm 0.00 in0.0 mm 0.00 in0.0 mm
11:23 PM 78.8°F26.0°C 67.3°F19.6°C 68% 2.9 mph E4.7 kmh E 3.4 mph5.5 kmh 30.03 in1016.9 mb 0.00 in0.0 mm 0.00 in0.0 mm 0.00 in0.0 mm
11:22 PM 78.8°F26.0°C 67.3°F19.6°C 68% 1.3 mph E2.1 kmh E 2.2 mph3.5 kmh 30.03 in1016.9 mb 0.00 in0.0 mm 0.00 in0.0 mm 0.00 in0.0 mm
11:21 PM 79.0°F26.1°C 67.5°F19.7°C 68% 2.9 mph E4.7 kmh E 3.4 mph5.5 kmh 30.04 in1017.3 mb 0.00 in0.0 mm 0.00 in0.0 mm 0.00 in0.0 mm
11:20 PM 79.0°F26.1°C 67.5°F19.7°C 68% 0.7 mph E1.1 kmh E 2.2 mph3.5 kmh 30.03 in1016.9 mb 0.00 in0.0 mm 0.00 in0.0 mm 0.00 in0.0 mm
11:19 PM 79.0°F26.1°C 67.5°F19.7°C 68% 2.9 mph SE4.7 kmh SE 3.4 mph5.5 kmh 30.03 in1016.9 mb 0.00 in0.0 mm 0.00 in0.0 mm 0.00 in0.0 mm
11:18 PM 79.0°F26.1°C 67.5°F19.7°C 68% 3.1 mph ESE5.0 kmh ESE 3.4 mph5.5 kmh 30.03 in1016.9 mb 0.00 in0.0 mm 0.00 in0.0 mm 0.00 in0.0 mm
11:17 PM 79.0°F26.1°C 67.5°F19.7°C 68% 2.2 mph E3.5 kmh E 2.2 mph3.5 kmh 30.03 in1016.9 mb 0.00 in0.0 mm 0.00 in0.0 mm 0.00 in0.0 mm
11:16 PM 79.0°F26.1°C 67.5°F19.7°C 68% 2.2 mph ENE3.5 kmh ENE 2.2 mph3.5 kmh 30.02 in1016.6 mb 0.00 in0.0 mm 0.00 in0.0 mm 0.00 in0.0 mm
11:15 PM 79.0°F26.1°C 67.5°F19.7°C 68% 3.8 mph ESE6.1 kmh ESE 4.5 mph7.2 kmh 30.03 in1016.9 mb 0.00 in0.0 mm 0.00 in0.0 mm 0.00 in0.0 mm
11:14 PM 79.0°F26.1°C 67.5°F19.7°C 68% 3.4 mph ESE5.5 kmh ESE 4.5 mph7.2 kmh 30.03 in1016.9 mb 0.00 in0.0 mm 0.00 in0.0 mm 0.00 in0.0 mm
11:13 PM 79.0°F26.1°C 67.5°F19.7°C 68% 2.9 mph E4.7 kmh E 3.4 mph5.5 kmh 30.03 in1016.9 mb 0.00 in0.0 mm 0.00 in0.0 mm 0.00 in0.0 mm
11:12 PM 79.0°F26.1°C 67.1°F19.5°C 67% 2.2 mph E3.5 kmh E 3.4 mph5.5 kmh 30.03 in1016.9 mb 0.00 in0.0 mm 0.00 in0.0 mm 0.00 in0.0 mm
11:11 PM 78.8°F26.0°C 67.3°F19.6°C 68% 3.8 mph E6.1 kmh E 4.5 mph7.2 kmh 30.03 in1016.9 mb 0.00 in0.0 mm 0.00 in0.0 mm 0.00 in0.0 mm
11:10 PM 78.8°F26.0°C 67.3°F19.6°C 68% 0.2 mph E0.3 kmh E 2.2 mph3.5 kmh 30.03 in1016.9 mb 0.00 in0.0 mm 0.00 in0.0 mm 0.00 in0.0 mm
11:09 PM 78.8°F26.0°C 67.3°F19.6°C 68% 2.5 mph E4.0 kmh E 3.4 mph5.5 kmh 30.03 in1016.9 mb 0.00 in0.0 mm 0.00 in0.0 mm 0.00 in0.0 mm
11:08 PM 78.8°F26.0°C 67.3°F19.6°C 68% 1.1 mph E1.8 kmh E 2.2 mph3.5 kmh 30.02 in1016.6 mb 0.00 in0.0 mm 0.00 in0.0 mm 0.00 in0.0 mm
11:07 PM 79.0°F26.1°C 67.5°F19.7°C 68% 3.4 mph E5.5 kmh E 4.5 mph7.2 kmh 30.03 in1016.9 mb 0.00 in0.0 mm 0.00 in0.0 mm 0.00 in0.0 mm
11:06 PM 79.0°F26.1°C 67.5°F19.7°C 68% 3.6 mph SE5.8 kmh SE 4.5 mph7.2 kmh 30.03 in1016.9 mb 0.00 in0.0 mm 0.00 in0.0 mm 0.00 in0.0 mm
11:05 PM 79.0°F26.1°C 67.5°F19.7°C 68% 1.1 mph ESE1.8 kmh ESE 2.2 mph3.5 kmh 30.03 in1016.9 mb 0.00 in0.0 mm 0.00 in0.0 mm 0.00 in0.0 mm
11:04 PM 78.8°F26.0°C 67.3°F19.6°C 68% 3.1 mph SE5.0 kmh SE 3.4 mph5.5 kmh 30.03 in1016.9 mb 0.00 in0.0 mm 0.00 in0.0 mm 0.00 in0.0 mm
11:03 PM 78.8°F26.0°C 67.3°F19.6°C 68% 2.2 mph E3.5 kmh E 3.4 mph5.5 kmh 30.03 in1016.9 mb 0.00 in0.0 mm 0.00 in0.0 mm 0.00 in0.0 mm
11:02 PM 78.8°F26.0°C 67.3°F19.6°C 68% 0.2 mph E0.3 kmh E 1.1 mph1.8 kmh 30.03 in1016.9 mb 0.00 in0.0 mm 0.00 in0.0 mm 0.00 in0.0 mm
11:01 PM 78.8°F26.0°C 67.3°F19.6°C 68% 1.3 mph E2.1 kmh E 3.4 mph5.5 kmh 30.03 in1016.9 mb 0.00 in0.0 mm 0.00 in0.0 mm 0.00 in0.0 mm
11:00 PM 79.0°F26.1°C 67.5°F19.7°C 68% Calm Calm -- 30.03 in1016.9 mb 0.00 in0.0 mm 0.00 in0.0 mm 0.00 in0.0 mm
10:59 PM 79.0°F26.1°C 67.5°F19.7°C 68% Calm Calm -- 30.03 in1016.9 mb 0.00 in0.0 mm 0.00 in0.0 mm 0.00 in0.0 mm
10:58 PM 79.0°F26.1°C 67.5°F19.7°C 68% 0.7 mph E1.1 kmh E 1.1 mph1.8 kmh 30.03 in1016.9 mb 0.00 in0.0 mm 0.00 in0.0 mm 0.00 in0.0 mm
10:57 PM 79.0°F26.1°C 67.5°F19.7°C 68% 1.8 mph SE2.9 kmh SE 2.2 mph3.5 kmh 30.03 in1016.9 mb 0.00 in0.0 mm 0.00 in0.0 mm 0.00 in0.0 mm
10:56 PM 79.0°F26.1°C 67.5°F19.7°C 68% Calm Calm -- 30.03 in1016.9 mb 0.00 in0.0 mm 0.00 in0.0 mm 0.00 in0.0 mm
10:55 PM 79.0°F26.1°C 67.5°F19.7°C 68% Calm Calm -- 30.03 in1016.9 mb 0.00 in0.0 mm 0.00 in0.0 mm 0.00 in0.0 mm
10:54 PM 79.0°F26.1°C 67.5°F19.7°C 68% Calm Calm -- 30.04 in1017.3 mb 0.00 in0.0 mm 0.00 in0.0 mm 0.00 in0.0 mm
10:52 PM 79.0°F26.1°C 67.5°F19.7°C 68% 1.1 mph E1.8 kmh E 2.2 mph3.5 kmh 30.03 in1016.9 mb 0.00 in0.0 mm 0.00 in0.0 mm 0.00 in0.0 mm
10:51 PM 79.0°F26.1°C 67.5°F19.7°C 68% 2.2 mph E3.5 kmh E 3.4 mph5.5 kmh 30.04 in1017.3 mb 0.00 in0.0 mm 0.00 in0.0 mm 0.00 in0.0 mm
10:50 PM 79.0°F26.1°C 67.5°F19.7°C 68% 1.1 mph ESE1.8 kmh ESE 2.2 mph3.5 kmh 30.03 in1016.9 mb 0.00 in0.0 mm 0.00 in0.0 mm 0.00 in0.0 mm
10:49 PM 79.2°F26.2°C 67.7°F19.8°C 68% 2.9 mph E4.7 kmh E 3.4 mph5.5 kmh 30.03 in1016.9 mb 0.00 in0.0 mm 0.00 in0.0 mm 0.00 in0.0 mm
10:48 PM 79.2°F26.2°C 67.7°F19.8°C 68% Calm Calm -- 30.03 in1016.9 mb 0.00 in0.0 mm 0.00 in0.0 mm 0.00 in0.0 mm
10:47 PM 79.2°F26.2°C 67.7°F19.8°C 68% Calm Calm -- 30.03 in1016.9 mb 0.00 in0.0 mm 0.00 in0.0 mm 0.00 in0.0 mm
10:46 PM 79.2°F26.2°C 67.7°F19.8°C 68% Calm Calm -- 30.03 in1016.9 mb 0.00 in0.0 mm 0.00 in0.0 mm 0.00 in0.0 mm
10:45 PM 79.2°F26.2°C 67.7°F19.8°C 68% 0.2 mph E0.3 kmh E 1.1 mph1.8 kmh 30.03 in1016.9 mb 0.00 in0.0 mm 0.00 in0.0 mm 0.00 in0.0 mm
10:44 PM 79.2°F26.2°C 67.7°F19.8°C 68% 3.4 mph E5.5 kmh E 4.5 mph7.2 kmh 30.03 in1016.9 mb 0.00 in0.0 mm 0.00 in0.0 mm 0.00 in0.0 mm
10:43 PM 79.2°F26.2°C 67.7°F19.8°C 68% 3.4 mph ESE5.5 kmh ESE 3.4 mph5.5 kmh 30.03 in1016.9 mb 0.00 in0.0 mm 0.00 in0.0 mm 0.00 in0.0 mm
10:42 PM 79.2°F26.2°C 67.7°F19.8°C 68% 2.9 mph E4.7 kmh E 3.4 mph5.5 kmh 30.03 in1016.9 mb 0.00 in0.0 mm 0.00 in0.0 mm 0.00 in0.0 mm
10:41 PM 79.2°F26.2°C 67.7°F19.8°C 68% 4.5 mph E7.2 kmh E 5.8 mph9.3 kmh 30.03 in1016.9 mb 0.00 in0.0 mm 0.00 in0.0 mm 0.00 in0.0 mm
10:40 PM 79.2°F26.2°C 67.7°F19.8°C 68% 4.0 mph ESE6.4 kmh ESE 4.5 mph7.2 kmh 30.02 in1016.6 mb 0.00 in0.0 mm 0.00 in0.0 mm 0.00 in0.0 mm
10:39 PM 79.2°F26.2°C 67.7°F19.8°C 68% 1.3 mph E2.1 kmh E 2.2 mph3.5 kmh 30.04 in1017.3 mb 0.00 in0.0 mm 0.00 in0.0 mm 0.00 in0.0 mm
10:38 PM 79.2°F26.2°C 67.7°F19.8°C 68% 0.4 mph E0.6 kmh E 1.1 mph1.8 kmh 30.03 in1016.9 mb 0.00 in0.0 mm 0.00 in0.0 mm 0.00 in0.0 mm
10:37 PM 79.0°F26.1°C 67.5°F19.7°C 68% 1.1 mph E1.8 kmh E 3.4 mph5.5 kmh 30.03 in1016.9 mb 0.00 in0.0 mm 0.00 in0.0 mm 0.00 in0.0 mm
10:36 PM 79.0°F26.1°C 67.5°F19.7°C 68% 2.9 mph SE4.7 kmh SE 4.5 mph7.2 kmh 30.03 in1016.9 mb 0.00 in0.0 mm 0.00 in0.0 mm 0.00 in0.0 mm
10:35 PM 79.0°F26.1°C 67.5°F19.7°C 68% 2.7 mph E4.3 kmh E 3.4 mph5.5 kmh 30.03 in1016.9 mb 0.00 in0.0 mm 0.00 in0.0 mm 0.00 in0.0 mm
10:34 PM 79.0°F26.1°C 67.5°F19.7°C 68% 2.7 mph E4.3 kmh E 3.4 mph5.5 kmh 30.02 in1016.6 mb 0.00 in0.0 mm 0.00 in0.0 mm 0.00 in0.0 mm
10:33 PM 79.0°F26.1°C 67.5°F19.7°C 68% 3.4 mph E5.5 kmh E 3.4 mph5.5 kmh 30.03 in1016.9 mb 0.00 in0.0 mm 0.00 in0.0 mm 0.00 in0.0 mm
10:32 PM 79.0°F26.1°C 67.5°F19.7°C 68% 3.6 mph ESE5.8 kmh ESE 4.5 mph7.2 kmh 30.03 in1016.9 mb 0.00 in0.0 mm 0.00 in0.0 mm 0.00 in0.0 mm
10:31 PM 79.0°F26.1°C 67.5°F19.7°C 68% 0.9 mph E1.4 kmh E 2.2 mph3.5 kmh 30.03 in1016.9 mb 0.00 in0.0 mm 0.00 in0.0 mm 0.00 in0.0 mm
10:30 PM 79.0°F26.1°C 67.5°F19.7°C 68% 1.1 mph E1.8 kmh E 1.1 mph1.8 kmh 30.03 in1016.9 mb 0.00 in0.0 mm 0.00 in0.0 mm 0.00 in0.0 mm
10:29 PM 79.0°F26.1°C 67.9°F19.9°C 69% 3.1 mph E5.0 kmh E 4.5 mph7.2 kmh 30.03 in1016.9 mb 0.00 in0.0 mm 0.00 in0.0 mm 0.00 in0.0 mm
10:28 PM 79.0°F26.1°C 67.9°F19.9°C 69% 1.3 mph NE2.1 kmh NE 2.2 mph3.5 kmh 30.03 in1016.9 mb 0.00 in0.0 mm 0.00 in0.0 mm 0.00 in0.0 mm
10:27 PM 79.2°F26.2°C 68.1°F20.1°C 69% 4.3 mph ESE6.9 kmh ESE 5.8 mph9.3 kmh 30.03 in1016.9 mb 0.00 in0.0 mm 0.00 in0.0 mm 0.00 in0.0 mm
10:26 PM 79.2°F26.2°C 68.1°F20.1°C 69% 2.5 mph E4.0 kmh E 4.5 mph7.2 kmh 30.03 in1016.9 mb 0.00 in0.0 mm 0.00 in0.0 mm 0.00 in0.0 mm
10:25 PM 79.3°F26.3°C 68.6°F20.3°C 70% 0.7 mph E1.1 kmh E 3.4 mph5.5 kmh 30.03 in1016.9 mb 0.00 in0.0 mm 0.00 in0.0 mm 0.00 in0.0 mm
10:24 PM 79.3°F26.3°C 68.6°F20.3°C 70% 3.1 mph SE5.0 kmh SE 3.4 mph5.5 kmh 30.03 in1016.9 mb 0.00 in0.0 mm 0.00 in0.0 mm 0.00 in0.0 mm
10:23 PM 79.3°F26.3°C 68.6°F20.3°C 70% 0.4 mph SE0.6 kmh SE 2.2 mph3.5 kmh 30.03 in1016.9 mb 0.00 in0.0 mm 0.00 in0.0 mm 0.00 in0.0 mm
10:22 PM 79.3°F26.3°C 68.6°F20.3°C 70% 1.8 mph E2.9 kmh E 3.4 mph5.5 kmh 30.03 in1016.9 mb 0.00 in0.0 mm 0.00 in0.0 mm 0.00 in0.0 mm
10:21 PM 79.3°F26.3°C 68.6°F20.3°C 70% Calm Calm -- 30.03 in1016.9 mb 0.00 in0.0 mm 0.00 in0.0 mm 0.00 in0.0 mm
10:20 PM 79.3°F26.3°C 68.2°F20.1°C 69% 2.2 mph SE3.5 kmh SE 3.4 mph5.5 kmh 30.03 in1016.9 mb 0.00 in0.0 mm 0.00 in0.0 mm 0.00 in0.0 mm
10:19 PM 79.2°F26.2°C 68.1°F20.1°C 69% 3.4 mph ESE5.5 kmh ESE 3.4 mph5.5 kmh 30.03 in1016.9 mb 0.00 in0.0 mm 0.00 in0.0 mm 0.00 in0.0 mm
10:18 PM 79.2°F26.2°C 68.1°F20.1°C 69% 3.6 mph E5.8 kmh E 4.5 mph7.2 kmh 30.02 in1016.6 mb 0.00 in0.0 mm 0.00 in0.0 mm 0.00 in0.0 mm
10:17 PM 79.2°F26.2°C 68.1°F20.1°C 69% 5.4 mph E8.7 kmh E 5.8 mph9.3 kmh 30.03 in1016.9 mb 0.00 in0.0 mm 0.00 in0.0 mm 0.00 in0.0 mm
10:16 PM 79.2°F26.2°C 68.6°F20.3°C 70% 2.7 mph E4.3 kmh E 3.4 mph5.5 kmh 30.03 in1016.9 mb 0.00 in0.0 mm 0.00 in0.0 mm 0.00 in0.0 mm
10:15 PM 79.2°F26.2°C 68.6°F20.3°C 70% 3.4 mph E5.5 kmh E 4.5 mph7.2 kmh 30.02 in1016.6 mb 0.00 in0.0 mm 0.00 in0.0 mm 0.00 in0.0 mm
10:14 PM 79.2°F26.2°C 68.6°F20.3°C 70% 2.5 mph ESE4.0 kmh ESE 3.4 mph5.5 kmh 30.03 in1016.9 mb 0.00 in0.0 mm 0.00 in0.0 mm 0.00 in0.0 mm
10:13 PM 79.2°F26.2°C 68.6°F20.3°C 70% 6.0 mph ESE9.7 kmh ESE 6.9 mph11.1 kmh 30.03 in1016.9 mb 0.00 in0.0 mm 0.00 in0.0 mm 0.00 in0.0 mm
10:12 PM 79.2°F26.2°C 68.6°F20.3°C 70% 5.4 mph ESE8.7 kmh ESE 5.8 mph9.3 kmh 30.03 in1016.9 mb 0.00 in0.0 mm 0.00 in0.0 mm 0.00 in0.0 mm
10:11 PM 79.3°F26.3°C 68.6°F20.3°C 70% 4.3 mph E6.9 kmh E 4.5 mph7.2 kmh 30.02 in1016.6 mb 0.00 in0.0 mm 0.00 in0.0 mm 0.00 in0.0 mm
10:10 PM 79.2°F26.2°C 68.6°F20.3°C 70% 0.7 mph E1.1 kmh E 2.2 mph3.5 kmh 30.02 in1016.6 mb 0.00 in0.0 mm 0.00 in0.0 mm 0.00 in0.0 mm
10:08 PM 79.2°F26.2°C 68.1°F20.1°C 69% 1.1 mph ENE1.8 kmh ENE 2.2 mph3.5 kmh 30.03 in1016.9 mb 0.00 in0.0 mm 0.00 in0.0 mm 0.00 in0.0 mm
10:07 PM 79.2°F26.2°C 68.6°F20.3°C 70% 3.4 mph SE5.5 kmh SE 3.4 mph5.5 kmh 30.02 in1016.6 mb 0.00 in0.0 mm 0.00 in0.0 mm 0.00 in0.0 mm
10:06 PM 79.2°F26.2°C 68.6°F20.3°C 70% 1.8 mph E2.9 kmh E 3.4 mph5.5 kmh 30.03 in1016.9 mb 0.00 in0.0 mm 0.00 in0.0 mm 0.00 in0.0 mm
10:05 PM 79.2°F26.2°C 68.1°F20.1°C 69% 4.0 mph ENE6.4 kmh ENE 5.8 mph9.3 kmh 30.02 in1016.6 mb 0.00 in0.0 mm 0.00 in0.0 mm 0.00 in0.0 mm
10:04 PM 79.2°F26.2°C 68.6°F20.3°C 70% 1.1 mph E1.8 kmh E 3.4 mph5.5 kmh 30.03 in1016.9 mb 0.00 in0.0 mm 0.00 in0.0 mm 0.00 in0.0 mm
10:03 PM 79.2°F26.2°C 68.6°F20.3°C 70% 0.7 mph NE1.1 kmh NE 1.1 mph1.8 kmh 30.03 in1016.9 mb 0.00 in0.0 mm 0.00 in0.0 mm 0.00 in0.0 mm
10:02 PM 79.2°F26.2°C 68.6°F20.3°C 70% 2.5 mph E4.0 kmh E 3.4 mph5.5 kmh 30.02 in1016.6 mb 0.00 in0.0 mm 0.00 in0.0 mm 0.00 in0.0 mm
10:01 PM 79.3°F26.3°C 68.6°F20.3°C 70% Calm Calm -- 30.02 in1016.6 mb 0.00 in0.0 mm 0.00 in0.0 mm 0.00 in0.0 mm
10:00 PM 79.3°F26.3°C 68.6°F20.3°C 70% Calm Calm -- 30.02 in1016.6 mb 0.00 in0.0 mm 0.00 in0.0 mm 0.00 in0.0 mm
09:59 PM 79.3°F26.3°C 68.6°F20.3°C 70% Calm Calm -- 30.02 in1016.6 mb 0.00 in0.0 mm 0.00 in0.0 mm 0.00 in0.0 mm
09:58 PM 79.3°F26.3°C 68.6°F20.3°C 70% Calm Calm -- 30.02 in1016.6 mb 0.00 in0.0 mm 0.00 in0.0 mm 0.00 in0.0 mm
09:57 PM 79.5°F26.4°C 68.8°F20.4°C 70% Calm Calm -- 30.02 in1016.6 mb 0.00 in0.0 mm 0.00 in0.0 mm 0.00 in0.0 mm
09:56 PM 79.5°F26.4°C 68.8°F20.4°C 70% 0.9 mph E1.4 kmh E 1.1 mph1.8 kmh 30.03 in1016.9 mb 0.00 in0.0 mm 0.00 in0.0 mm 0.00 in0.0 mm
09:55 PM 79.5°F26.4°C 68.8°F20.4°C 70% Calm Calm -- 30.03 in1016.9 mb 0.00 in0.0 mm 0.00 in0.0 mm 0.00 in0.0 mm
09:54 PM 79.5°F26.4°C 68.8°F20.4°C 70% 1.8 mph E2.9 kmh E 2.2 mph3.5 kmh 30.02 in1016.6 mb 0.00 in0.0 mm 0.00 in0.0 mm 0.00 in0.0 mm
09:53 PM 79.5°F26.4°C 68.4°F20.2°C 69% 3.1 mph E5.0 kmh E 3.4 mph5.5 kmh 30.02 in1016.6 mb 0.00 in0.0 mm 0.00 in0.0 mm 0.00 in0.0 mm
09:52 PM 79.5°F26.4°C 68.4°F20.2°C 69% 4.9 mph SE7.9 kmh SE 5.8 mph9.3 kmh 30.02 in1016.6 mb 0.00 in0.0 mm 0.00 in0.0 mm 0.00 in0.0 mm
09:51 PM 79.5°F26.4°C 68.4°F20.2°C 69% 5.8 mph E9.3 kmh E 6.9 mph11.1 kmh 30.02 in1016.6 mb 0.00 in0.0 mm 0.00 in0.0 mm 0.00 in0.0 mm
09:50 PM 79.5°F26.4°C 68.4°F20.2°C 69% 3.1 mph SE5.0 kmh SE 3.4 mph5.5 kmh 30.02 in1016.6 mb 0.00 in0.0 mm 0.00 in0.0 mm 0.00 in0.0 mm
09:49 PM 79.5°F26.4°C 68.4°F20.2°C 69% 4.9 mph E7.9 kmh E 5.8 mph9.3 kmh 30.02 in1016.6 mb 0.00 in0.0 mm 0.00 in0.0 mm 0.00 in0.0 mm
09:48 PM 79.5°F26.4°C 68.4°F20.2°C 69% 2.7 mph ESE4.3 kmh ESE 3.4 mph5.5 kmh 30.02 in1016.6 mb 0.00 in0.0 mm 0.00 in0.0 mm 0.00 in0.0 mm
09:47 PM 79.3°F26.3°C 68.2°F20.1°C 69% 1.8 mph ESE2.9 kmh ESE 2.2 mph3.5 kmh 30.02 in1016.6 mb 0.00 in0.0 mm 0.00 in0.0 mm 0.00 in0.0 mm
09:46 PM 79.3°F26.3°C 68.2°F20.1°C 69% 4.9 mph ESE7.9 kmh ESE 5.8 mph9.3 kmh 30.02 in1016.6 mb 0.00 in0.0 mm 0.00 in0.0 mm 0.00 in0.0 mm
09:45 PM 79.3°F26.3°C 68.2°F20.1°C 69% 2.9 mph ESE4.7 kmh ESE 4.5 mph7.2 kmh 30.02 in1016.6 mb 0.00 in0.0 mm 0.00 in0.0 mm 0.00 in0.0 mm
09:44 PM 79.5°F26.4°C 68.4°F20.2°C 69% 3.6 mph E5.8 kmh E 4.5 mph7.2 kmh 30.02 in1016.6 mb 0.00 in0.0 mm 0.00 in0.0 mm 0.00 in0.0 mm
09:43 PM 79.3°F26.3°C 68.2°F20.1°C 69% 3.8 mph E6.1 kmh E 5.8 mph9.3 kmh 30.02 in1016.6 mb 0.00 in0.0 mm 0.00 in0.0 mm 0.00 in0.0 mm
09:42 PM 79.5°F26.4°C 68.4°F20.2°C 69% 6.0 mph ESE9.7 kmh ESE 6.9 mph11.1 kmh 30.01 in1016.3 mb 0.00 in0.0 mm 0.00 in0.0 mm 0.00 in0.0 mm
09:41 PM 79.5°F26.4°C 68.8°F20.4°C 70% 3.4 mph E5.5 kmh E 3.4 mph5.5 kmh 30.02 in1016.6 mb 0.00 in0.0 mm 0.00 in0.0 mm 0.00 in0.0 mm
09:40 PM 79.5°F26.4°C 68.4°F20.2°C 69% 6.5 mph E10.5 kmh E 8.1 mph13.0 kmh 30.02 in1016.6 mb 0.00 in0.0 mm 0.00 in0.0 mm 0.00 in0.0 mm
09:39 PM 79.5°F26.4°C 68.8°F20.4°C 70% 3.6 mph ESE5.8 kmh ESE 4.5 mph7.2 kmh 30.02 in1016.6 mb 0.00 in0.0 mm 0.00 in0.0 mm 0.00 in0.0 mm
09:38 PM 79.5°F26.4°C 68.4°F20.2°C 69% 6.0 mph SE9.7 kmh SE 8.1 mph13.0 kmh 30.02 in1016.6 mb 0.00 in0.0 mm 0.00 in0.0 mm 0.00 in0.0 mm
09:37 PM 79.5°F26.4°C 68.8°F20.4°C 70% 1.3 mph E2.1 kmh E 5.8 mph9.3 kmh 30.01 in1016.3 mb 0.00 in0.0 mm 0.00 in0.0 mm 0.00 in0.0 mm
09:36 PM 79.5°F26.4°C 68.8°F20.4°C 70% 2.7 mph ESE4.3 kmh ESE 3.4 mph5.5 kmh 30.01 in1016.3 mb 0.00 in0.0 mm 0.00 in0.0 mm 0.00 in0.0 mm
09:35 PM 79.7°F26.5°C 68.6°F20.3°C 69% 10.1 mph E16.3 kmh E 12.5 mph20.1 kmh 30.01 in1016.3 mb 0.00 in0.0 mm 0.00 in0.0 mm 0.00 in0.0 mm
09:34 PM 79.7°F26.5°C 69.0°F20.6°C 70% 3.4 mph E5.5 kmh E 4.5 mph7.2 kmh 30.01 in1016.3 mb 0.00 in0.0 mm 0.00 in0.0 mm 0.00 in0.0 mm
09:33 PM 79.7°F26.5°C 69.0°F20.6°C 70% 5.4 mph E8.7 kmh E 5.8 mph9.3 kmh 30.01 in1016.3 mb 0.00 in0.0 mm 0.00 in0.0 mm 0.00 in0.0 mm
09:32 PM 79.9°F26.6°C 69.2°F20.7°C 70% 5.8 mph E9.3 kmh E 6.9 mph11.1 kmh 30.01 in1016.3 mb 0.00 in0.0 mm 0.00 in0.0 mm 0.00 in0.0 mm
09:31 PM 79.9°F26.6°C 69.2°F20.7°C 70% 1.3 mph NE2.1 kmh NE 3.4 mph5.5 kmh 30.01 in1016.3 mb 0.00 in0.0 mm 0.00 in0.0 mm 0.00 in0.0 mm
09:30 PM 79.9°F26.6°C 69.2°F20.7°C 70% 4.0 mph E6.4 kmh E 4.5 mph7.2 kmh 30.01 in1016.3 mb 0.00 in0.0 mm 0.00 in0.0 mm 0.00 in0.0 mm
09:29 PM 79.9°F26.6°C 69.2°F20.7°C 70% 4.5 mph E7.2 kmh E 5.8 mph9.3 kmh 30.01 in1016.3 mb 0.00 in0.0 mm 0.00 in0.0 mm 0.00 in0.0 mm
09:28 PM 79.7°F26.5°C 69.0°F20.6°C 70% 9.2 mph E14.8 kmh E 10.3 mph16.6 kmh 30.01 in1016.3 mb 0.00 in0.0 mm 0.00 in0.0 mm 0.00 in0.0 mm
09:27 PM 79.7°F26.5°C 69.0°F20.6°C 70% 3.6 mph NNE5.8 kmh NNE 4.5 mph7.2 kmh 30.01 in1016.3 mb 0.00 in0.0 mm 0.00 in0.0 mm 0.00 in0.0 mm
09:26 PM 79.7°F26.5°C 68.6°F20.3°C 69% 5.4 mph E8.7 kmh E 6.9 mph11.1 kmh 30.01 in1016.3 mb 0.00 in0.0 mm 0.00 in0.0 mm 0.00 in0.0 mm
09:25 PM 79.7°F26.5°C 68.6°F20.3°C 69% 4.3 mph E6.9 kmh E 4.5 mph7.2 kmh 30.01 in1016.3 mb 0.00 in0.0 mm 0.00 in0.0 mm 0.00 in0.0 mm
09:24 PM 79.7°F26.5°C 68.6°F20.3°C 69% 3.8 mph ESE6.1 kmh ESE 5.8 mph9.3 kmh 30.00 in1015.9 mb 0.00 in0.0 mm 0.00 in0.0 mm 0.00 in0.0 mm
09:23 PM 79.7°F26.5°C 68.6°F20.3°C 69% 0.7 mph E1.1 kmh E 2.2 mph3.5 kmh 30.00 in1015.9 mb 0.00 in0.0 mm 0.00 in0.0 mm 0.00 in0.0 mm
09:22 PM 79.7°F26.5°C 68.6°F20.3°C 69% 1.3 mph NE2.1 kmh NE 3.4 mph5.5 kmh 30.01 in1016.3 mb 0.00 in0.0 mm 0.00 in0.0 mm 0.00 in0.0 mm
09:21 PM 79.7°F26.5°C 68.6°F20.3°C 69% 3.6 mph ENE5.8 kmh ENE 6.9 mph11.1 kmh 30.01 in1016.3 mb 0.00 in0.0 mm 0.00 in0.0 mm 0.00 in0.0 mm
09:20 PM 79.7°F26.5°C 68.6°F20.3°C 69% 4.9 mph ENE7.9 kmh ENE 6.9 mph11.1 kmh 30.01 in1016.3 mb 0.00 in0.0 mm 0.00 in0.0 mm 0.00 in0.0 mm
09:19 PM 79.7°F26.5°C 68.6°F20.3°C 69% 3.4 mph E5.5 kmh E 5.8 mph9.3 kmh 30.00 in1015.9 mb 0.00 in0.0 mm 0.00 in0.0 mm 0.00 in0.0 mm
09:17 PM 79.7°F26.5°C 68.6°F20.3°C 69% 2.9 mph E4.7 kmh E 4.5 mph7.2 kmh 30.01 in1016.3 mb 0.00 in0.0 mm 0.00 in0.0 mm 0.00 in0.0 mm
09:16 PM 79.7°F26.5°C 68.6°F20.3°C 69% 4.5 mph E7.2 kmh E 5.8 mph9.3 kmh 30.00 in1015.9 mb 0.00 in0.0 mm 0.00 in0.0 mm 0.00 in0.0 mm
09:15 PM 79.7°F26.5°C 68.6°F20.3°C 69% 4.9 mph ESE7.9 kmh ESE 5.8 mph9.3 kmh 30.00 in1015.9 mb 0.00 in0.0 mm 0.00 in0.0 mm 0.00 in0.0 mm
09:14 PM 79.7°F26.5°C 68.6°F20.3°C 69% 7.2 mph E11.6 kmh E 8.1 mph13.0 kmh 30.01 in1016.3 mb 0.00 in0.0 mm 0.00 in0.0 mm 0.00 in0.0 mm
09:13 PM 79.7°F26.5°C 68.6°F20.3°C 69% 2.7 mph E4.3 kmh E 4.5 mph7.2 kmh 30.01 in1016.3 mb 0.00 in0.0 mm 0.00 in0.0 mm 0.00 in0.0 mm
09:12 PM 79.9°F26.6°C 68.8°F20.4°C 69% 5.6 mph ESE9.0 kmh ESE 6.9 mph11.1 kmh 30.01 in1016.3 mb 0.00 in0.0 mm 0.00 in0.0 mm 0.00 in0.0 mm
09:11 PM 79.7°F26.5°C 68.6°F20.3°C 69% 4.9 mph E7.9 kmh E 5.8 mph9.3 kmh 30.00 in1015.9 mb 0.00 in0.0 mm 0.00 in0.0 mm 0.00 in0.0 mm
09:10 PM 79.7°F26.5°C 68.6°F20.3°C 69% 5.1 mph E8.2 kmh E 6.9 mph11.1 kmh 30.00 in1015.9 mb 0.00 in0.0 mm 0.00 in0.0 mm 0.00 in0.0 mm
09:09 PM 79.9°F26.6°C 69.2°F20.7°C 70% 7.2 mph ESE11.6 kmh ESE 8.1 mph13.0 kmh 30.00 in1015.9 mb 0.00 in0.0 mm 0.00 in0.0 mm 0.00 in0.0 mm
09:08 PM 79.9°F26.6°C 68.8°F20.4°C 69% 7.2 mph E11.6 kmh E 10.3 mph16.6 kmh 30.00 in1015.9 mb 0.00 in0.0 mm 0.00 in0.0 mm 0.00 in0.0 mm
09:07 PM 79.9°F26.6°C 69.2°F20.7°C 70% 4.0 mph ENE6.4 kmh ENE 4.5 mph7.2 kmh 30.01 in1016.3 mb 0.00 in0.0 mm 0.00 in0.0 mm 0.00 in0.0 mm
09:06 PM 79.9°F26.6°C 69.2°F20.7°C 70% 3.6 mph NE5.8 kmh NE 6.9 mph11.1 kmh 30.00 in1015.9 mb 0.00 in0.0 mm 0.00 in0.0 mm 0.00 in0.0 mm
09:05 PM 79.9°F26.6°C 69.2°F20.7°C 70% 6.5 mph E10.5 kmh E 9.2 mph14.8 kmh 30.00 in1015.9 mb 0.00 in0.0 mm 0.00 in0.0 mm 0.00 in0.0 mm
09:04 PM 79.9°F26.6°C 69.2°F20.7°C 70% 2.0 mph E3.2 kmh E 3.4 mph5.5 kmh 30.01 in1016.3 mb 0.00 in0.0 mm 0.00 in0.0 mm 0.00 in0.0 mm
09:03 PM 79.9°F26.6°C 69.2°F20.7°C 70% 3.8 mph ESE6.1 kmh ESE 4.5 mph7.2 kmh 30.00 in1015.9 mb 0.00 in0.0 mm 0.00 in0.0 mm 0.00 in0.0 mm
09:02 PM 79.9°F26.6°C 69.2°F20.7°C 70% 2.9 mph E4.7 kmh E 4.5 mph7.2 kmh 30.01 in1016.3 mb 0.00 in0.0 mm 0.00 in0.0 mm 0.00 in0.0 mm
09:01 PM 79.9°F26.6°C 69.2°F20.7°C 70% 3.1 mph ENE5.0 kmh ENE 4.5 mph7.2 kmh 30.00 in1015.9 mb 0.00 in0.0 mm 0.00 in0.0 mm 0.00 in0.0 mm
09:00 PM 79.9°F26.6°C 69.2°F20.7°C 70% 2.5 mph E4.0 kmh E 4.5 mph7.2 kmh 30.00 in1015.9 mb 0.00 in0.0 mm 0.00 in0.0 mm 0.00 in0.0 mm
08:59 PM 79.9°F26.6°C 69.2°F20.7°C 70% 1.3 mph NE2.1 kmh NE 2.2 mph3.5 kmh 30.00 in1015.9 mb 0.00 in0.0 mm 0.00 in0.0 mm 0.00 in0.0 mm
08:58 PM 79.9°F26.6°C 69.2°F20.7°C 70% 0.9 mph NE1.4 kmh NE 2.2 mph3.5 kmh 30.00 in1015.9 mb 0.00 in0.0 mm 0.00 in0.0 mm 0.00 in0.0 mm
08:57 PM 79.9°F26.6°C 69.2°F20.7°C 70% 4.9 mph E7.9 kmh E 5.8 mph9.3 kmh 30.00 in1015.9 mb 0.00 in0.0 mm 0.00 in0.0 mm 0.00 in0.0 mm
08:56 PM 79.9°F26.6°C 69.2°F20.7°C 70% 4.9 mph E7.9 kmh E 5.8 mph9.3 kmh 30.01 in1016.3 mb 0.00 in0.0 mm 0.00 in0.0 mm 0.00 in0.0 mm
08:55 PM 79.9°F26.6°C 68.8°F20.4°C 69% 4.9 mph ENE7.9 kmh ENE 6.9 mph11.1 kmh 30.00 in1015.9 mb 0.00 in0.0 mm 0.00 in0.0 mm 0.00 in0.0 mm
08:54 PM 79.9°F26.6°C 69.2°F20.7°C 70% 4.0 mph ESE6.4 kmh ESE 4.5 mph7.2 kmh 30.00 in1015.9 mb 0.00 in0.0 mm 0.00 in0.0 mm 0.00 in0.0 mm
08:53 PM 79.9°F26.6°C 69.2°F20.7°C 70% 2.7 mph E4.3 kmh E 3.4 mph5.5 kmh 30.00 in1015.9 mb 0.00 in0.0 mm 0.00 in0.0 mm 0.00 in0.0 mm
08:51 PM 79.9°F26.6°C 68.8°F20.4°C 69% 2.7 mph ENE4.3 kmh ENE 5.8 mph9.3 kmh 30.00 in1015.9 mb 0.00 in0.0 mm 0.00 in0.0 mm 0.00 in0.0 mm
08:50 PM 79.9°F26.6°C 69.2°F20.7°C 70% 3.4 mph E5.5 kmh E 4.5 mph7.2 kmh 30.01 in1016.3 mb 0.00 in0.0 mm 0.00 in0.0 mm 0.00 in0.0 mm
08:49 PM 79.7°F26.5°C 69.0°F20.6°C 70% 3.6 mph ENE5.8 kmh ENE 6.9 mph11.1 kmh 30.00 in1015.9 mb 0.00 in0.0 mm 0.00 in0.0 mm 0.00 in0.0 mm
08:48 PM 79.7°F26.5°C 68.6°F20.3°C 69% 4.7 mph E7.6 kmh E 5.8 mph9.3 kmh 30.00 in1015.9 mb 0.00 in0.0 mm 0.00 in0.0 mm 0.00 in0.0 mm
08:47 PM 79.7°F26.5°C 68.6°F20.3°C 69% 2.5 mph E4.0 kmh E 3.4 mph5.5 kmh 30.00 in1015.9 mb 0.00 in0.0 mm 0.00 in0.0 mm 0.00 in0.0 mm
08:46 PM 79.7°F26.5°C 69.0°F20.6°C 70% 3.4 mph NE5.5 kmh NE 4.5 mph7.2 kmh 30.00 in1015.9 mb 0.00 in0.0 mm 0.00 in0.0 mm 0.00 in0.0 mm
08:45 PM 79.7°F26.5°C 68.6°F20.3°C 69% 0.9 mph ENE1.4 kmh ENE 2.2 mph3.5 kmh 30.00 in1015.9 mb 0.00 in0.0 mm 0.00 in0.0 mm 0.00 in0.0 mm
08:44 PM 79.7°F26.5°C 68.6°F20.3°C 69% 4.3 mph ESE6.9 kmh ESE 4.5 mph7.2 kmh 30.01 in1016.3 mb 0.00 in0.0 mm 0.00 in0.0 mm 0.00 in0.0 mm
08:43 PM 79.7°F26.5°C 68.6°F20.3°C 69% 4.0 mph E6.4 kmh E 6.9 mph11.1 kmh 30.00 in1015.9 mb 0.00 in0.0 mm 0.00 in0.0 mm 0.00 in0.0 mm
08:42 PM 79.7°F26.5°C 68.6°F20.3°C 69% 5.1 mph ESE8.2 kmh ESE 6.9 mph11.1 kmh 29.99 in1015.6 mb 0.00 in0.0 mm 0.00 in0.0 mm 0.00 in0.0 mm
08:41 PM 79.7°F26.5°C 68.6°F20.3°C 69% 5.4 mph E8.7 kmh E 5.8 mph9.3 kmh 30.00 in1015.9 mb 0.00 in0.0 mm 0.00 in0.0 mm 0.00 in0.0 mm
08:40 PM 79.7°F26.5°C 68.6°F20.3°C 69% 4.3 mph ESE6.9 kmh ESE 4.5 mph7.2 kmh 29.99 in1015.6 mb 0.00 in0.0 mm 0.00 in0.0 mm 0.00 in0.0 mm
08:39 PM 79.7°F26.5°C 69.0°F20.6°C 70% 5.4 mph E8.7 kmh E 5.8 mph9.3 kmh 30.00 in1015.9 mb 0.00 in0.0 mm 0.00 in0.0 mm 0.00 in0.0 mm
08:38 PM 79.7°F26.5°C 69.0°F20.6°C 70% 5.8 mph SE9.3 kmh SE 6.9 mph11.1 kmh 30.00 in1015.9 mb 0.00 in0.0 mm 0.00 in0.0 mm 0.00 in0.0 mm
08:37 PM 79.7°F26.5°C 69.0°F20.6°C 70% 4.9 mph ESE7.9 kmh ESE 5.8 mph9.3 kmh 30.01 in1016.3 mb 0.00 in0.0 mm 0.00 in0.0 mm 0.00 in0.0 mm
08:36 PM 79.9°F26.6°C 69.2°F20.7°C 70% 5.4 mph E8.7 kmh E 5.8 mph9.3 kmh 29.99 in1015.6 mb 0.00 in0.0 mm 0.00 in0.0 mm 0.00 in0.0 mm
08:35 PM 79.9°F26.6°C 69.2°F20.7°C 70% 2.9 mph E4.7 kmh E 4.5 mph7.2 kmh 30.00 in1015.9 mb 0.00 in0.0 mm 0.00 in0.0 mm 0.00 in0.0 mm
08:34 PM 79.9°F26.6°C 69.2°F20.7°C 70% 4.7 mph NE7.6 kmh NE 6.9 mph11.1 kmh 30.00 in1015.9 mb 0.00 in0.0 mm 0.00 in0.0 mm 0.00 in0.0 mm
08:33 PM 79.9°F26.6°C 69.2°F20.7°C 70% 2.7 mph NE4.3 kmh NE 5.8 mph9.3 kmh 30.00 in1015.9 mb 0.00 in0.0 mm 0.00 in0.0 mm 0.00 in0.0 mm
08:32 PM 79.9°F26.6°C 69.2°F20.7°C 70% 1.6 mph NE2.6 kmh NE 2.2 mph3.5 kmh 30.00 in1015.9 mb 0.00 in0.0 mm 0.00 in0.0 mm 0.00 in0.0 mm
08:31 PM 79.9°F26.6°C 69.6°F20.9°C 71% 3.4 mph ESE5.5 kmh ESE 4.5 mph7.2 kmh 30.00 in1015.9 mb 0.00 in0.0 mm 0.00 in0.0 mm 0.00 in0.0 mm
08:30 PM 79.9°F26.6°C 69.2°F20.7°C 70% 4.9 mph ESE7.9 kmh ESE 5.8 mph9.3 kmh 30.00 in1015.9 mb 0.00 in0.0 mm 0.00 in0.0 mm 0.00 in0.0 mm
08:29 PM 79.9°F26.6°C 69.2°F20.7°C 70% 4.5 mph NE7.2 kmh NE 5.8 mph9.3 kmh 30.00 in1015.9 mb 0.00 in0.0 mm 0.00 in0.0 mm 0.00 in0.0 mm
08:28 PM 79.9°F26.6°C 69.2°F20.7°C 70% 1.6 mph NE2.6 kmh NE 3.4 mph5.5 kmh 29.99 in1015.6 mb 0.00 in0.0 mm 0.00 in0.0 mm 0.00 in0.0 mm
08:27 PM 79.9°F26.6°C 69.2°F20.7°C 70% 2.2 mph E3.5 kmh E 4.5 mph7.2 kmh 30.00 in1015.9 mb 0.00 in0.0 mm 0.00 in0.0 mm 0.00 in0.0 mm
08:26 PM 79.9°F26.6°C 69.2°F20.7°C 70% 3.4 mph ENE5.5 kmh ENE 5.8 mph9.3 kmh 29.99 in1015.6 mb 0.00 in0.0 mm 0.00 in0.0 mm 0.00 in0.0 mm
08:25 PM 79.9°F26.6°C 69.2°F20.7°C 70% 3.1 mph ENE5.0 kmh ENE 4.5 mph7.2 kmh 30.00 in1015.9 mb 0.00 in0.0 mm 0.00 in0.0 mm 0.00 in0.0 mm
08:24 PM 79.9°F26.6°C 69.2°F20.7°C 70% 4.5 mph E7.2 kmh E 6.9 mph11.1 kmh 30.00 in1015.9 mb 0.00 in0.0 mm 0.00 in0.0 mm 0.00 in0.0 mm
08:23 PM 79.7°F26.5°C 69.0°F20.6°C 70% 2.0 mph E3.2 kmh E 3.4 mph5.5 kmh 29.99 in1015.6 mb 0.00 in0.0 mm 0.00 in0.0 mm 0.00 in0.0 mm
08:22 PM 79.7°F26.5°C 69.0°F20.6°C 70% 5.8 mph E9.3 kmh E 9.2 mph14.8 kmh 29.99 in1015.6 mb 0.00 in0.0 mm 0.00 in0.0 mm 0.00 in0.0 mm
08:21 PM 79.7°F26.5°C 69.0°F20.6°C 70% 4.7 mph E7.6 kmh E 8.1 mph13.0 kmh 29.99 in1015.6 mb 0.00 in0.0 mm 0.00 in0.0 mm 0.00 in0.0 mm
08:20 PM 79.9°F26.6°C 69.2°F20.7°C 70% 2.9 mph ENE4.7 kmh ENE 3.4 mph5.5 kmh 29.99 in1015.6 mb 0.00 in0.0 mm 0.00 in0.0 mm 0.00 in0.0 mm
08:19 PM 79.9°F26.6°C 69.2°F20.7°C 70% 2.5 mph E4.0 kmh E 4.5 mph7.2 kmh 30.00 in1015.9 mb 0.00 in0.0 mm 0.00 in0.0 mm 0.00 in0.0 mm
08:18 PM 79.9°F26.6°C 69.2°F20.7°C 70% 3.8 mph E6.1 kmh E 4.5 mph7.2 kmh 29.99 in1015.6 mb 0.00 in0.0 mm 0.00 in0.0 mm 0.00 in0.0 mm
08:17 PM 79.9°F26.6°C 68.8°F20.4°C 69% 4.3 mph E6.9 kmh E 5.8 mph9.3 kmh 29.99 in1015.6 mb 0.00 in0.0 mm 0.00 in0.0 mm 0.00 in0.0 mm
08:16 PM 79.7°F26.5°C 68.6°F20.3°C 69% 3.4 mph E5.5 kmh E 4.5 mph7.2 kmh 29.99 in1015.6 mb 0.00 in0.0 mm 0.00 in0.0 mm 0.00 in0.0 mm
08:15 PM 79.7°F26.5°C 69.0°F20.6°C 70% 0.2 mph E0.3 kmh E 1.1 mph1.8 kmh 29.99 in1015.6 mb 0.00 in0.0 mm 0.00 in0.0 mm 0.00 in0.0 mm
08:14 PM 79.7°F26.5°C 68.6°F20.3°C 69% 2.2 mph E3.5 kmh E 2.2 mph3.5 kmh 29.99 in1015.6 mb 0.00 in0.0 mm 0.00 in0.0 mm 0.00 in0.0 mm
08:13 PM 79.7°F26.5°C 68.6°F20.3°C 69% 3.1 mph E5.0 kmh E 3.4 mph5.5 kmh 29.99 in1015.6 mb 0.00 in0.0 mm 0.00 in0.0 mm 0.00 in0.0 mm
08:12 PM 79.7°F26.5°C 68.6°F20.3°C 69% 6.9 mph ESE11.1 kmh ESE 8.1 mph13.0 kmh 29.99 in1015.6 mb 0.00 in0.0 mm 0.00 in0.0 mm 0.00 in0.0 mm
08:11 PM 79.7°F26.5°C 68.6°F20.3°C 69% 6.0 mph E9.7 kmh E 6.9 mph11.1 kmh 29.99 in1015.6 mb 0.00 in0.0 mm 0.00 in0.0 mm 0.00 in0.0 mm
08:10 PM 79.7°F26.5°C 68.6°F20.3°C 69% 6.0 mph ESE9.7 kmh ESE 8.1 mph13.0 kmh 29.99 in1015.6 mb 0.00 in0.0 mm 0.00 in0.0 mm 0.00 in0.0 mm
08:09 PM 79.9°F26.6°C 69.2°F20.7°C 70% 6.0 mph E9.7 kmh E 6.9 mph11.1 kmh 30.00 in1015.9 mb 0.00 in0.0 mm 0.00 in0.0 mm 0.00 in0.0 mm
08:08 PM 79.9°F26.6°C 69.2°F20.7°C 70% 6.0 mph SE9.7 kmh SE 6.9 mph11.1 kmh 29.99 in1015.6 mb 0.00 in0.0 mm 0.00 in0.0 mm 0.00 in0.0 mm
08:07 PM 80.1°F26.7°C 69.4°F20.8°C 70% 3.4 mph ESE5.5 kmh ESE 5.8 mph9.3 kmh 29.99 in1015.6 mb 0.00 in0.0 mm 0.00 in0.0 mm 0.00 in0.0 mm
08:06 PM 80.1°F26.7°C 69.8°F21.0°C 71% 2.2 mph E3.5 kmh E 4.5 mph7.2 kmh 29.98 in1015.2 mb 0.00 in0.0 mm 0.00 in0.0 mm 0.00 in0.0 mm
08:05 PM 80.1°F26.7°C 69.4°F20.8°C 70% 4.3 mph NE6.9 kmh NE 8.1 mph13.0 kmh 29.99 in1015.6 mb 0.00 in0.0 mm 0.00 in0.0 mm 0.00 in0.0 mm
08:04 PM 80.1°F26.7°C 69.8°F21.0°C 71% 0.7 mph NE1.1 kmh NE 3.4 mph5.5 kmh 29.99 in1015.6 mb 0.00 in0.0 mm 0.00 in0.0 mm 0.00 in0.0 mm
08:03 PM 80.1°F26.7°C 69.4°F20.8°C 70% 0.9 mph E1.4 kmh E 3.4 mph5.5 kmh 29.99 in1015.6 mb 0.00 in0.0 mm 0.00 in0.0 mm 0.00 in0.0 mm
08:02 PM 80.1°F26.7°C 69.8°F21.0°C 71% 3.1 mph E5.0 kmh E 3.4 mph5.5 kmh 29.99 in1015.6 mb 0.00 in0.0 mm 0.00 in0.0 mm 0.00 in0.0 mm
08:01 PM 80.1°F26.7°C 69.4°F20.8°C 70% 4.9 mph E7.9 kmh E 5.8 mph9.3 kmh 29.98 in1015.2 mb 0.00 in0.0 mm 0.00 in0.0 mm 0.00 in0.0 mm
08:00 PM 80.2°F26.8°C 69.5°F20.8°C 70% 2.5 mph E4.0 kmh E 5.8 mph9.3 kmh 29.99 in1015.6 mb 0.00 in0.0 mm 0.00 in0.0 mm 0.00 in0.0 mm
07:59 PM 80.2°F26.8°C 69.5°F20.8°C 70% 2.9 mph E4.7 kmh E 3.4 mph5.5 kmh 29.98 in1015.2 mb 0.00 in0.0 mm 0.00 in0.0 mm 0.00 in0.0 mm
07:58 PM 80.2°F26.8°C 69.9°F21.1°C 71% 1.8 mph ENE2.9 kmh ENE 3.4 mph5.5 kmh 29.99 in1015.6 mb 0.00 in0.0 mm 0.00 in0.0 mm 0.00 in0.0 mm
07:57 PM 80.2°F26.8°C 69.5°F20.8°C 70% 3.4 mph SE5.5 kmh SE 4.5 mph7.2 kmh 29.98 in1015.2 mb 0.00 in0.0 mm 0.00 in0.0 mm 0.00 in0.0 mm
07:56 PM 80.4°F26.9°C 69.7°F20.9°C 70% 3.8 mph ESE6.1 kmh ESE 4.5 mph7.2 kmh 29.98 in1015.2 mb 0.00 in0.0 mm 0.00 in0.0 mm 0.00 in0.0 mm
07:55 PM 80.4°F26.9°C 69.7°F20.9°C 70% 5.6 mph E9.0 kmh E 8.1 mph13.0 kmh 29.99 in1015.6 mb 0.00 in0.0 mm 0.00 in0.0 mm 0.00 in0.0 mm
07:54 PM 80.4°F26.9°C 69.7°F20.9°C 70% 2.9 mph ENE4.7 kmh ENE 5.8 mph9.3 kmh 29.98 in1015.2 mb 0.00 in0.0 mm 0.00 in0.0 mm 0.00 in0.0 mm
07:53 PM 80.4°F26.9°C 69.7°F20.9°C 70% 2.2 mph E3.5 kmh E 4.5 mph7.2 kmh 29.99 in1015.6 mb 0.00 in0.0 mm 0.00 in0.0 mm 0.00 in0.0 mm
07:52 PM 80.4°F26.9°C 69.7°F20.9°C 70% 2.5 mph E4.0 kmh E 3.4 mph5.5 kmh 29.98 in1015.2 mb 0.00 in0.0 mm 0.00 in0.0 mm 0.00 in0.0 mm
07:51 PM 80.4°F26.9°C 69.7°F20.9°C 70% 2.9 mph E4.7 kmh E 3.4 mph5.5 kmh 29.99 in1015.6 mb 0.00 in0.0 mm 0.00 in0.0 mm 0.00 in0.0 mm
07:50 PM 80.4°F26.9°C 69.7°F20.9°C 70% 2.5 mph NE4.0 kmh NE 4.5 mph7.2 kmh 29.99 in1015.6 mb 0.00 in0.0 mm 0.00 in0.0 mm 0.00 in0.0 mm
07:49 PM 80.4°F26.9°C 69.7°F20.9°C 70% 3.8 mph ESE6.1 kmh ESE 4.5 mph7.2 kmh 29.98 in1015.2 mb 0.00 in0.0 mm 0.00 in0.0 mm 0.00 in0.0 mm
07:48 PM 80.4°F26.9°C 69.7°F20.9°C 70% 5.6 mph SE9.0 kmh SE 5.8 mph9.3 kmh 29.99 in1015.6 mb 0.00 in0.0 mm 0.00 in0.0 mm 0.00 in0.0 mm
07:47 PM 80.4°F26.9°C 69.7°F20.9°C 70% 3.6 mph ESE5.8 kmh ESE 4.5 mph7.2 kmh 29.98 in1015.2 mb 0.00 in0.0 mm 0.00 in0.0 mm 0.00 in0.0 mm
07:46 PM 80.4°F26.9°C 69.7°F20.9°C 70% 1.8 mph ENE2.9 kmh ENE 3.4 mph5.5 kmh 29.99 in1015.6 mb 0.00 in0.0 mm 0.00 in0.0 mm 0.00 in0.0 mm
07:45 PM 80.4°F26.9°C 69.7°F20.9°C 70% 1.3 mph E2.1 kmh E 3.4 mph5.5 kmh 29.99 in1015.6 mb 0.00 in0.0 mm 0.00 in0.0 mm 0.00 in0.0 mm
07:44 PM 80.4°F26.9°C 69.3°F20.7°C 69% 1.8 mph ENE2.9 kmh ENE 3.4 mph5.5 kmh 29.98 in1015.2 mb 0.00 in0.0 mm 0.00 in0.0 mm 0.00 in0.0 mm
07:43 PM 80.6°F27.0°C 69.9°F21.1°C 70% 4.7 mph ENE7.6 kmh ENE 5.8 mph9.3 kmh 29.98 in1015.2 mb 0.00 in0.0 mm 0.00 in0.0 mm 0.00 in0.0 mm
07:42 PM 80.6°F27.0°C 69.9°F21.1°C 70% 2.9 mph ENE4.7 kmh ENE 4.5 mph7.2 kmh 29.98 in1015.2 mb 0.00 in0.0 mm 0.00 in0.0 mm 0.00 in0.0 mm
07:41 PM 80.6°F27.0°C 69.9°F21.1°C 70% 5.8 mph E9.3 kmh E 8.1 mph13.0 kmh 29.99 in1015.6 mb 0.00 in0.0 mm 0.00 in0.0 mm 0.00 in0.0 mm
07:40 PM 80.6°F27.0°C 69.9°F21.1°C 70% 2.2 mph NE3.5 kmh NE 3.4 mph5.5 kmh 29.99 in1015.6 mb 0.00 in0.0 mm 0.00 in0.0 mm 0.00 in0.0 mm
07:39 PM 80.6°F27.0°C 69.5°F20.8°C 69% 5.4 mph E8.7 kmh E 8.1 mph13.0 kmh 29.98 in1015.2 mb 0.00 in0.0 mm 0.00 in0.0 mm 0.00 in0.0 mm
07:38 PM 80.6°F27.0°C 69.5°F20.8°C 69% 5.1 mph E8.2 kmh E 5.8 mph9.3 kmh 29.98 in1015.2 mb 0.00 in0.0 mm 0.00 in0.0 mm 0.00 in0.0 mm
07:37 PM 80.6°F27.0°C 69.5°F20.8°C 69% 6.9 mph E11.1 kmh E 6.9 mph11.1 kmh 29.98 in1015.2 mb 0.00 in0.0 mm 0.00 in0.0 mm 0.00 in0.0 mm
07:36 PM 80.6°F27.0°C 69.5°F20.8°C 69% 5.6 mph E9.0 kmh E 6.9 mph11.1 kmh 29.99 in1015.6 mb 0.00 in0.0 mm 0.00 in0.0 mm 0.00 in0.0 mm
07:35 PM 80.6°F27.0°C 69.5°F20.8°C 69% 6.0 mph SE9.7 kmh SE 6.9 mph11.1 kmh 29.99 in1015.6 mb 0.00 in0.0 mm 0.00 in0.0 mm 0.00 in0.0 mm
07:34 PM 80.6°F27.0°C 69.5°F20.8°C 69% 2.5 mph ENE4.0 kmh ENE 3.4 mph5.5 kmh 29.99 in1015.6 mb 0.00 in0.0 mm 0.00 in0.0 mm 0.00 in0.0 mm
07:33 PM 80.6°F27.0°C 69.5°F20.8°C 69% 2.5 mph ENE4.0 kmh ENE 3.4 mph5.5 kmh 29.98 in1015.2 mb 0.00 in0.0 mm 0.00 in0.0 mm 0.00 in0.0 mm
07:32 PM 80.6°F27.0°C 69.5°F20.8°C 69% 1.1 mph NE1.8 kmh NE 1.1 mph1.8 kmh 29.98 in1015.2 mb 0.00 in0.0 mm 0.00 in0.0 mm 0.00 in0.0 mm
07:31 PM 80.6°F27.0°C 69.5°F20.8°C 69% 4.9 mph ESE7.9 kmh ESE 6.9 mph11.1 kmh 29.98 in1015.2 mb 0.00 in0.0 mm 0.00 in0.0 mm 0.00 in0.0 mm
07:30 PM 80.6°F27.0°C 69.5°F20.8°C 69% 4.7 mph ESE7.6 kmh ESE 5.8 mph9.3 kmh 29.98 in1015.2 mb 0.00 in0.0 mm 0.00 in0.0 mm 0.00 in0.0 mm
07:29 PM 80.6°F27.0°C 69.5°F20.8°C 69% 3.8 mph ESE6.1 kmh ESE 4.5 mph7.2 kmh 29.98 in1015.2 mb 0.00 in0.0 mm 0.00 in0.0 mm 0.00 in0.0 mm
07:28 PM 80.6°F27.0°C 69.5°F20.8°C 69% 0.7 mph E1.1 kmh E 3.4 mph5.5 kmh 29.98 in1015.2 mb 0.00 in0.0 mm 0.00 in0.0 mm 0.00 in0.0 mm
07:27 PM 80.6°F27.0°C 69.5°F20.8°C 69% 0.7 mph ENE1.1 kmh ENE 1.1 mph1.8 kmh 29.98 in1015.2 mb 0.00 in0.0 mm 0.00 in0.0 mm 0.00 in0.0 mm
07:26 PM 80.6°F27.0°C 69.0°F20.6°C 68% 6.5 mph E10.5 kmh E 8.1 mph13.0 kmh 29.99 in1015.6 mb 0.00 in0.0 mm 0.00 in0.0 mm 0.00 in0.0 mm
07:25 PM 80.6°F27.0°C 69.5°F20.8°C 69% 4.0 mph ESE6.4 kmh ESE 5.8 mph9.3 kmh 29.98 in1015.2 mb 0.00 in0.0 mm 0.00 in0.0 mm 0.00 in0.0 mm
07:24 PM 80.6°F27.0°C 69.0°F20.6°C 68% 7.8 mph ESE12.6 kmh ESE 9.2 mph14.8 kmh 29.98 in1015.2 mb 0.00 in0.0 mm 0.00 in0.0 mm 0.00 in0.0 mm
07:23 PM 80.6°F27.0°C 69.0°F20.6°C 68% 7.4 mph ESE11.9 kmh ESE 8.1 mph13.0 kmh 29.99 in1015.6 mb 0.00 in0.0 mm 0.00 in0.0 mm 0.00 in0.0 mm
07:22 PM 80.6°F27.0°C 69.0°F20.6°C 68% 4.7 mph ESE7.6 kmh ESE 5.8 mph9.3 kmh 29.98 in1015.2 mb 0.00 in0.0 mm 0.00 in0.0 mm 0.00 in0.0 mm
07:21 PM 80.6°F27.0°C 69.5°F20.8°C 69% 3.6 mph E5.8 kmh E 8.1 mph13.0 kmh 29.97 in1014.9 mb 0.00 in0.0 mm 0.00 in0.0 mm 0.00 in0.0 mm
07:20 PM 80.6°F27.0°C 69.0°F20.6°C 68% 5.8 mph ENE9.3 kmh ENE 6.9 mph11.1 kmh 29.98 in1015.2 mb 0.00 in0.0 mm 0.00 in0.0 mm 0.00 in0.0 mm
07:19 PM 80.8°F27.1°C 69.2°F20.7°C 68% 3.8 mph NE6.1 kmh NE 6.9 mph11.1 kmh 29.98 in1015.2 mb 0.00 in0.0 mm 0.00 in0.0 mm 0.00 in0.0 mm
07:18 PM 80.8°F27.1°C 69.2°F20.7°C 68% 3.8 mph E6.1 kmh E 5.8 mph9.3 kmh 29.98 in1015.2 mb 0.00 in0.0 mm 0.00 in0.0 mm 0.00 in0.0 mm
07:17 PM 80.8°F27.1°C 69.2°F20.7°C 68% 5.4 mph ESE8.7 kmh ESE 6.9 mph11.1 kmh 29.98 in1015.2 mb 0.00 in0.0 mm 0.00 in0.0 mm 0.00 in0.0 mm
07:16 PM 80.8°F27.1°C 69.2°F20.7°C 68% 4.5 mph E7.2 kmh E 5.8 mph9.3 kmh 29.98 in1015.2 mb 0.00 in0.0 mm 0.00 in0.0 mm 0.00 in0.0 mm
07:13 PM 81.0°F27.2°C 69.4°F20.8°C 68% 6.3 mph SE10.1 kmh SE 6.9 mph11.1 kmh 29.98 in1015.2 mb 0.00 in0.0 mm 0.00 in0.0 mm 0.00 in0.0 mm
07:12 PM 81.0°F27.2°C 69.8°F21.0°C 69% 4.7 mph E7.6 kmh E 5.8 mph9.3 kmh 29.98 in1015.2 mb 0.00 in0.0 mm 0.00 in0.0 mm 0.00 in0.0 mm
07:11 PM 81.0°F27.2°C 69.4°F20.8°C 68% 5.4 mph E8.7 kmh E 6.9 mph11.1 kmh 29.98 in1015.2 mb 0.00 in0.0 mm 0.00 in0.0 mm 0.00 in0.0 mm
07:10 PM 81.0°F27.2°C 69.4°F20.8°C 68% 6.0 mph SE9.7 kmh SE 8.1 mph13.0 kmh 29.98 in1015.2 mb 0.00 in0.0 mm 0.00 in0.0 mm 0.00 in0.0 mm
07:09 PM 81.0°F27.2°C 69.4°F20.8°C 68% 8.5 mph SE13.7 kmh SE 9.2 mph14.8 kmh 29.98 in1015.2 mb 0.00 in0.0 mm 0.00 in0.0 mm 0.00 in0.0 mm
07:08 PM 81.0°F27.2°C 69.4°F20.8°C 68% 3.8 mph E6.1 kmh E 6.9 mph11.1 kmh 29.97 in1014.9 mb 0.00 in0.0 mm 0.00 in0.0 mm 0.00 in0.0 mm
07:07 PM 81.0°F27.2°C 69.0°F20.6°C 67% 5.4 mph E8.7 kmh E 6.9 mph11.1 kmh 29.98 in1015.2 mb 0.00 in0.0 mm 0.00 in0.0 mm 0.00 in0.0 mm
07:06 PM 81.0°F27.2°C 69.0°F20.6°C 67% 4.5 mph SE7.2 kmh SE 5.8 mph9.3 kmh 29.97 in1014.9 mb 0.00 in0.0 mm 0.00 in0.0 mm 0.00 in0.0 mm
07:05 PM 80.8°F27.1°C 68.8°F20.4°C 67% 4.5 mph E7.2 kmh E 5.8 mph9.3 kmh 29.98 in1015.2 mb 0.00 in0.0 mm 0.00 in0.0 mm 0.00 in0.0 mm
07:04 PM 80.8°F27.1°C 68.8°F20.4°C 67% 3.4 mph NE5.5 kmh NE 5.8 mph9.3 kmh 29.98 in1015.2 mb 0.00 in0.0 mm 0.00 in0.0 mm 0.00 in0.0 mm
07:03 PM 80.8°F27.1°C 69.2°F20.7°C 68% 1.8 mph E2.9 kmh E 4.5 mph7.2 kmh 29.98 in1015.2 mb 0.00 in0.0 mm 0.00 in0.0 mm 0.00 in0.0 mm
07:02 PM 80.8°F27.1°C 69.2°F20.7°C 68% 2.9 mph E4.7 kmh E 4.5 mph7.2 kmh 29.97 in1014.9 mb 0.00 in0.0 mm 0.00 in0.0 mm 0.00 in0.0 mm
07:01 PM 80.8°F27.1°C 69.2°F20.7°C 68% 4.3 mph E6.9 kmh E 5.8 mph9.3 kmh 29.98 in1015.2 mb 0.00 in0.0 mm 0.00 in0.0 mm 0.00 in0.0 mm
07:00 PM 80.8°F27.1°C 69.2°F20.7°C 68% 5.4 mph E8.7 kmh E 8.1 mph13.0 kmh 29.98 in1015.2 mb 0.00 in0.0 mm 0.00 in0.0 mm 0.00 in0.0 mm
06:59 PM 81.0°F27.2°C 69.4°F20.8°C 68% 1.6 mph ENE2.6 kmh ENE 3.4 mph5.5 kmh 29.98 in1015.2 mb 0.00 in0.0 mm 0.00 in0.0 mm 0.00 in0.0 mm
06:58 PM 81.0°F27.2°C 69.4°F20.8°C 68% 3.4 mph E5.5 kmh E 5.8 mph9.3 kmh 29.98 in1015.2 mb 0.00 in0.0 mm 0.00 in0.0 mm 0.00 in0.0 mm
06:57 PM 81.0°F27.2°C 69.4°F20.8°C 68% 6.7 mph E10.8 kmh E 9.2 mph14.8 kmh 29.98 in1015.2 mb 0.00 in0.0 mm 0.00 in0.0 mm 0.00 in0.0 mm
06:56 PM 81.0°F27.2°C 69.4°F20.8°C 68% 3.4 mph SE5.5 kmh SE 4.5 mph7.2 kmh 29.98 in1015.2 mb 0.00 in0.0 mm 0.00 in0.0 mm 0.00 in0.0 mm
06:55 PM 81.0°F27.2°C 69.4°F20.8°C 68% 6.0 mph SSE9.7 kmh SSE 6.9 mph11.1 kmh 29.97 in1014.9 mb 0.00 in0.0 mm 0.00 in0.0 mm 0.00 in0.0 mm
06:54 PM 80.8°F27.1°C 69.2°F20.7°C 68% 5.8 mph E9.3 kmh E 6.9 mph11.1 kmh 29.98 in1015.2 mb 0.00 in0.0 mm 0.00 in0.0 mm 0.00 in0.0 mm
06:53 PM 80.8°F27.1°C 69.2°F20.7°C 68% 7.2 mph E11.6 kmh E 9.2 mph14.8 kmh 29.99 in1015.6 mb 0.00 in0.0 mm 0.00 in0.0 mm 0.00 in0.0 mm
06:52 PM 80.8°F27.1°C 69.2°F20.7°C 68% 7.2 mph E11.6 kmh E 10.3 mph16.6 kmh 29.98 in1015.2 mb 0.00 in0.0 mm 0.00 in0.0 mm 0.00 in0.0 mm
06:51 PM 81.0°F27.2°C 69.4°F20.8°C 68% 6.0 mph E9.7 kmh E 8.1 mph13.0 kmh 29.98 in1015.2 mb 0.00 in0.0 mm 0.00 in0.0 mm 0.00 in0.0 mm
06:50 PM 81.0°F27.2°C 69.4°F20.8°C 68% 4.3 mph NE6.9 kmh NE 6.9 mph11.1 kmh 29.98 in1015.2 mb 0.00 in0.0 mm 0.00 in0.0 mm 0.00 in0.0 mm
06:49 PM 81.1°F27.3°C 69.5°F20.8°C 68% 3.1 mph E5.0 kmh E 6.9 mph11.1 kmh 29.97 in1014.9 mb 0.00 in0.0 mm 0.00 in0.0 mm 0.00 in0.0 mm
06:48 PM 81.1°F27.3°C 69.5°F20.8°C 68% 5.4 mph E8.7 kmh E 5.8 mph9.3 kmh 29.98 in1015.2 mb 0.00 in0.0 mm 0.00 in0.0 mm 0.00 in0.0 mm
06:47 PM 81.3°F27.4°C 69.7°F20.9°C 68% 3.4 mph E5.5 kmh E 5.8 mph9.3 kmh 29.97 in1014.9 mb 0.00 in0.0 mm 0.00 in0.0 mm 0.00 in0.0 mm
06:46 PM 81.5°F27.5°C 69.9°F21.1°C 68% 8.1 mph E13.0 kmh E 9.2 mph14.8 kmh 29.98 in1015.2 mb 0.00 in0.0 mm 0.00 in0.0 mm 0.00 in0.0 mm
06:45 PM 81.5°F27.5°C 69.9°F21.1°C 68% 5.8 mph E9.3 kmh E 8.1 mph13.0 kmh 29.97 in1014.9 mb 0.00 in0.0 mm 0.00 in0.0 mm 0.00 in0.0 mm
06:44 PM 81.5°F27.5°C 70.3°F21.3°C 69% 3.4 mph ENE5.5 kmh ENE 4.5 mph7.2 kmh 29.98 in1015.2 mb 0.00 in0.0 mm 0.00 in0.0 mm 0.00 in0.0 mm
06:43 PM 81.5°F27.5°C 70.3°F21.3°C 69% 3.1 mph E5.0 kmh E 4.5 mph7.2 kmh 29.98 in1015.2 mb 0.00 in0.0 mm 0.00 in0.0 mm 0.00 in0.0 mm
06:42 PM 81.5°F27.5°C 70.3°F21.3°C 69% 5.1 mph ENE8.2 kmh ENE 9.2 mph14.8 kmh 29.98 in1015.2 mb 0.00 in0.0 mm 0.00 in0.0 mm 0.00 in0.0 mm
06:41 PM 81.5°F27.5°C 70.3°F21.3°C 69% 3.6 mph NE5.8 kmh NE 5.8 mph9.3 kmh 29.97 in1014.9 mb 0.00 in0.0 mm 0.00 in0.0 mm 0.00 in0.0 mm
06:40 PM 81.3°F27.4°C 70.1°F21.2°C 69% 6.0 mph E9.7 kmh E 6.9 mph11.1 kmh 29.98 in1015.2 mb 0.00 in0.0 mm 0.00 in0.0 mm 0.00 in0.0 mm
06:39 PM 81.3°F27.4°C 69.7°F20.9°C 68% 6.0 mph ENE9.7 kmh ENE 8.1 mph13.0 kmh 29.98 in1015.2 mb 0.00 in0.0 mm 0.00 in0.0 mm 0.00 in0.0 mm
06:38 PM 81.3°F27.4°C 69.3°F20.7°C 67% 8.9 mph ESE14.3 kmh ESE 9.2 mph14.8 kmh 29.98 in1015.2 mb 0.00 in0.0 mm 0.00 in0.0 mm 0.00 in0.0 mm
06:37 PM 81.3°F27.4°C 69.3°F20.7°C 67% 4.0 mph NE6.4 kmh NE 5.8 mph9.3 kmh 29.98 in1015.2 mb 0.00 in0.0 mm 0.00 in0.0 mm 0.00 in0.0 mm
06:36 PM 81.5°F27.5°C 69.0°F20.6°C 66% 2.5 mph NNE4.0 kmh NNE 5.8 mph9.3 kmh 29.97 in1014.9 mb 0.00 in0.0 mm 0.00 in0.0 mm 0.00 in0.0 mm
06:35 PM 81.5°F27.5°C 69.5°F20.8°C 67% 5.8 mph E9.3 kmh E 8.1 mph13.0 kmh 29.98 in1015.2 mb 0.00 in0.0 mm 0.00 in0.0 mm 0.00 in0.0 mm
06:34 PM 81.5°F27.5°C 69.5°F20.8°C 67% 6.3 mph ESE10.1 kmh ESE 8.1 mph13.0 kmh 29.98 in1015.2 mb 0.00 in0.0 mm 0.00 in0.0 mm 0.00 in0.0 mm
06:33 PM 81.5°F27.5°C 69.5°F20.8°C 67% Calm Calm -- 29.98 in1015.2 mb 0.00 in0.0 mm 0.00 in0.0 mm 0.00 in0.0 mm
06:32 PM 81.5°F27.5°C 69.0°F20.6°C 66% 5.8 mph E9.3 kmh E 8.1 mph13.0 kmh 29.98 in1015.2 mb 0.00 in0.0 mm 0.00 in0.0 mm 0.00 in0.0 mm
06:31 PM 81.5°F27.5°C 69.5°F20.8°C 67% 6.0 mph ESE9.7 kmh ESE 6.9 mph11.1 kmh 29.99 in1015.6 mb 0.00 in0.0 mm 0.00 in0.0 mm 0.00 in0.0 mm
06:30 PM 81.5°F27.5°C 69.5°F20.8°C 67% 5.1 mph ESE8.2 kmh ESE 6.9 mph11.1 kmh 29.98 in1015.2 mb 0.00 in0.0 mm 0.00 in0.0 mm 0.00 in0.0 mm
06:29 PM 81.5°F27.5°C 69.0°F20.6°C 66% 4.5 mph ESE7.2 kmh ESE 5.8 mph9.3 kmh 29.98 in1015.2 mb 0.00 in0.0 mm 0.00 in0.0 mm 0.00 in0.0 mm
06:28 PM 81.3°F27.4°C 68.8°F20.4°C 66% 7.2 mph E11.6 kmh E 9.2 mph14.8 kmh 29.98 in1015.2 mb 0.00 in0.0 mm 0.00 in0.0 mm 0.00 in0.0 mm
06:27 PM 81.3°F27.4°C 68.8°F20.4°C 66% 3.8 mph ESE6.1 kmh ESE 5.8 mph9.3 kmh 29.98 in1015.2 mb 0.00 in0.0 mm 0.00 in0.0 mm 0.00 in0.0 mm
06:26 PM 81.3°F27.4°C 68.8°F20.4°C 66% 5.1 mph E8.2 kmh E 6.9 mph11.1 kmh 29.97 in1014.9 mb 0.00 in0.0 mm 0.00 in0.0 mm 0.00 in0.0 mm
06:25 PM 81.5°F27.5°C 68.6°F20.3°C 65% 9.6 mph ESE15.4 kmh ESE 11.4 mph18.3 kmh 29.98 in1015.2 mb 0.00 in0.0 mm 0.00 in0.0 mm 0.00 in0.0 mm
06:24 PM 81.5°F27.5°C 69.0°F20.6°C 66% 5.1 mph SE8.2 kmh SE 8.1 mph13.0 kmh 29.98 in1015.2 mb 0.00 in0.0 mm 0.00 in0.0 mm 0.00 in0.0 mm
06:23 PM 81.3°F27.4°C 68.8°F20.4°C 66% 4.0 mph E6.4 kmh E 5.8 mph9.3 kmh 29.98 in1015.2 mb 0.00 in0.0 mm 0.00 in0.0 mm 0.00 in0.0 mm
06:22 PM 81.3°F27.4°C 68.8°F20.4°C 66% 3.8 mph NE6.1 kmh NE 8.1 mph13.0 kmh 29.98 in1015.2 mb 0.00 in0.0 mm 0.00 in0.0 mm 0.00 in0.0 mm
06:21 PM 81.3°F27.4°C 68.8°F20.4°C 66% 3.8 mph E6.1 kmh E 5.8 mph9.3 kmh 29.98 in1015.2 mb 0.00 in0.0 mm 0.00 in0.0 mm 0.00 in0.0 mm
06:20 PM 81.1°F27.3°C 68.2°F20.1°C 65% 8.9 mph E14.3 kmh E 10.3 mph16.6 kmh 29.97 in1014.9 mb 0.00 in0.0 mm 0.00 in0.0 mm 0.00 in0.0 mm
06:19 PM 81.1°F27.3°C 68.2°F20.1°C 65% 7.4 mph ESE11.9 kmh ESE 11.4 mph18.3 kmh 29.98 in1015.2 mb 0.00 in0.0 mm 0.00 in0.0 mm 0.00 in0.0 mm
06:18 PM 81.1°F27.3°C 68.2°F20.1°C 65% 3.4 mph E5.5 kmh E 4.5 mph7.2 kmh 29.98 in1015.2 mb 0.00 in0.0 mm 0.00 in0.0 mm 0.00 in0.0 mm
06:17 PM 81.1°F27.3°C 68.2°F20.1°C 65% 1.8 mph E2.9 kmh E 3.4 mph5.5 kmh 29.98 in1015.2 mb 0.00 in0.0 mm 0.00 in0.0 mm 0.00 in0.0 mm
06:16 PM 81.1°F27.3°C 68.6°F20.3°C 66% 10.5 mph E16.9 kmh E 11.4 mph18.3 kmh 29.98 in1015.2 mb 0.00 in0.0 mm 0.00 in0.0 mm 0.00 in0.0 mm
06:15 PM 81.1°F27.3°C 68.6°F20.3°C 66% 7.2 mph SE11.6 kmh SE 8.1 mph13.0 kmh 29.98 in1015.2 mb 0.00 in0.0 mm 0.00 in0.0 mm 0.00 in0.0 mm
06:14 PM 81.1°F27.3°C 68.6°F20.3°C 66% 8.1 mph SE13.0 kmh SE 10.3 mph16.6 kmh 29.98 in1015.2 mb 0.00 in0.0 mm 0.00 in0.0 mm 0.00 in0.0 mm
06:13 PM 81.1°F27.3°C 68.6°F20.3°C 66% 7.6 mph E12.2 kmh E 10.3 mph16.6 kmh 29.98 in1015.2 mb 0.00 in0.0 mm 0.00 in0.0 mm 0.00 in0.0 mm
06:12 PM 81.1°F27.3°C 68.6°F20.3°C 66% 4.5 mph E7.2 kmh E 6.9 mph11.1 kmh 29.98 in1015.2 mb 0.00 in0.0 mm 0.00 in0.0 mm 0.00 in0.0 mm
06:11 PM 81.3°F27.4°C 68.8°F20.4°C 66% 8.9 mph ESE14.3 kmh ESE 10.3 mph16.6 kmh 29.98 in1015.2 mb 0.00 in0.0 mm 0.00 in0.0 mm 0.00 in0.0 mm
06:10 PM 81.3°F27.4°C 68.8°F20.4°C 66% 7.4 mph E11.9 kmh E 9.2 mph14.8 kmh 29.98 in1015.2 mb 0.00 in0.0 mm 0.00 in0.0 mm 0.00 in0.0 mm
06:09 PM 81.3°F27.4°C 68.8°F20.4°C 66% 8.7 mph E14.0 kmh E 10.3 mph16.6 kmh 29.98 in1015.2 mb 0.00 in0.0 mm 0.00 in0.0 mm 0.00 in0.0 mm
06:08 PM 81.3°F27.4°C 68.8°F20.4°C 66% 3.4 mph ENE5.5 kmh ENE 5.8 mph9.3 kmh 29.98 in1015.2 mb 0.00 in0.0 mm 0.00 in0.0 mm 0.00 in0.0 mm
06:07 PM 81.3°F27.4°C 69.3°F20.7°C 67% 1.1 mph E1.8 kmh E 2.2 mph3.5 kmh 29.98 in1015.2 mb 0.00 in0.0 mm 0.00 in0.0 mm 0.00 in0.0 mm
06:06 PM 81.1°F27.3°C 68.6°F20.3°C 66% 4.9 mph ENE7.9 kmh ENE 6.9 mph11.1 kmh 29.97 in1014.9 mb 0.00 in0.0 mm 0.00 in0.0 mm 0.00 in0.0 mm
06:05 PM 81.1°F27.3°C 69.1°F20.6°C 67% 2.9 mph ENE4.7 kmh ENE 5.8 mph9.3 kmh 29.98 in1015.2 mb 0.00 in0.0 mm 0.00 in0.0 mm 0.00 in0.0 mm
06:04 PM 81.0°F27.2°C 69.0°F20.6°C 67% 4.9 mph E7.9 kmh E 5.8 mph9.3 kmh 29.98 in1015.2 mb 0.00 in0.0 mm 0.00 in0.0 mm 0.00 in0.0 mm
06:03 PM 81.0°F27.2°C 69.0°F20.6°C 67% 2.2 mph ENE3.5 kmh ENE 3.4 mph5.5 kmh 29.98 in1015.2 mb 0.00 in0.0 mm 0.00 in0.0 mm 0.00 in0.0 mm
06:02 PM 81.0°F27.2°C 69.0°F20.6°C 67% 6.0 mph E9.7 kmh E 8.1 mph13.0 kmh 29.98 in1015.2 mb 0.00 in0.0 mm 0.00 in0.0 mm 0.00 in0.0 mm
06:01 PM 81.0°F27.2°C 69.0°F20.6°C 67% 9.6 mph ESE15.4 kmh ESE 12.5 mph20.1 kmh 29.98 in1015.2 mb 0.00 in0.0 mm 0.00 in0.0 mm 0.00 in0.0 mm
06:00 PM 81.1°F27.3°C 69.1°F20.6°C 67% 6.9 mph E11.1 kmh E 11.4 mph18.3 kmh 29.98 in1015.2 mb 0.00 in0.0 mm 0.00 in0.0 mm 0.00 in0.0 mm
05:59 PM 81.3°F27.4°C 69.7°F20.9°C 68% 7.8 mph SE12.6 kmh SE 9.2 mph14.8 kmh 29.98 in1015.2 mb 0.00 in0.0 mm 0.00 in0.0 mm 0.00 in0.0 mm
05:58 PM 81.3°F27.4°C 69.7°F20.9°C 68% 14.3 mph ESE23.0 kmh ESE 18.3 mph29.5 kmh 29.99 in1015.6 mb 0.00 in0.0 mm 0.00 in0.0 mm 0.00 in0.0 mm
05:57 PM 81.5°F27.5°C 69.9°F21.1°C 68% 6.7 mph E10.8 kmh E 8.1 mph13.0 kmh 29.98 in1015.2 mb 0.00 in0.0 mm 0.00 in0.0 mm 0.00 in0.0 mm
05:56 PM 81.5°F27.5°C 69.5°F20.8°C 67% 11.4 mph E18.3 kmh E 12.5 mph20.1 kmh 29.98 in1015.2 mb 0.00 in0.0 mm 0.00 in0.0 mm 0.00 in0.0 mm
05:55 PM 81.5°F27.5°C 69.9°F21.1°C 68% 9.2 mph ENE14.8 kmh ENE 11.4 mph18.3 kmh 29.98 in1015.2 mb 0.00 in0.0 mm 0.00 in0.0 mm 0.00 in0.0 mm
05:54 PM 81.5°F27.5°C 69.9°F21.1°C 68% 2.9 mph ENE4.7 kmh ENE 4.5 mph7.2 kmh 29.97 in1014.9 mb 0.00 in0.0 mm 0.00 in0.0 mm 0.00 in0.0 mm
05:53 PM 81.5°F27.5°C 69.9°F21.1°C 68% 3.6 mph E5.8 kmh E 8.1 mph13.0 kmh 29.98 in1015.2 mb 0.00 in0.0 mm 0.00 in0.0 mm 0.00 in0.0 mm
05:52 PM 81.3°F27.4°C 69.7°F20.9°C 68% 8.7 mph E14.0 kmh E 10.3 mph16.6 kmh 29.98 in1015.2 mb 0.00 in0.0 mm 0.00 in0.0 mm 0.00 in0.0 mm
05:51 PM 81.3°F27.4°C 69.7°F20.9°C 68% 10.1 mph SE16.3 kmh SE 11.4 mph18.3 kmh 29.98 in1015.2 mb 0.00 in0.0 mm 0.00 in0.0 mm 0.00 in0.0 mm
05:50 PM 81.3°F27.4°C 69.7°F20.9°C 68% 10.7 mph ESE17.2 kmh ESE 13.6 mph21.9 kmh 29.98 in1015.2 mb 0.00 in0.0 mm 0.00 in0.0 mm 0.00 in0.0 mm
05:49 PM 81.3°F27.4°C 69.7°F20.9°C 68% 13.6 mph ESE21.9 kmh ESE 22.8 mph36.7 kmh 29.98 in1015.2 mb 0.00 in0.0 mm 0.00 in0.0 mm 0.00 in0.0 mm
05:48 PM 81.1°F27.3°C 69.5°F20.8°C 68% 6.7 mph SE10.8 kmh SE 8.1 mph13.0 kmh 29.99 in1015.6 mb 0.00 in0.0 mm 0.00 in0.0 mm 0.00 in0.0 mm
05:47 PM 81.1°F27.3°C 69.5°F20.8°C 68% 8.5 mph ESE13.7 kmh ESE 10.3 mph16.6 kmh 29.99 in1015.6 mb 0.00 in0.0 mm 0.00 in0.0 mm 0.00 in0.0 mm
05:46 PM 81.1°F27.3°C 69.5°F20.8°C 68% 11.2 mph SE18.0 kmh SE 12.5 mph20.1 kmh 29.99 in1015.6 mb 0.00 in0.0 mm 0.00 in0.0 mm 0.00 in0.0 mm
05:45 PM 81.3°F27.4°C 69.7°F20.9°C 68% 9.8 mph E15.8 kmh E 12.5 mph20.1 kmh 29.98 in1015.2 mb 0.00 in0.0 mm 0.00 in0.0 mm 0.00 in0.0 mm
05:44 PM 81.3°F27.4°C 69.3°F20.7°C 67% 7.6 mph E12.2 kmh E 8.1 mph13.0 kmh 29.98 in1015.2 mb 0.00 in0.0 mm 0.00 in0.0 mm 0.00 in0.0 mm
05:43 PM 81.3°F27.4°C 70.1°F21.2°C 69% 5.1 mph SE8.2 kmh SE 6.9 mph11.1 kmh 29.99 in1015.6 mb 0.00 in0.0 mm 0.00 in0.0 mm 0.00 in0.0 mm
05:42 PM 81.3°F27.4°C 69.7°F20.9°C 68% 5.1 mph E8.2 kmh E 6.9 mph11.1 kmh 29.99 in1015.6 mb 0.00 in0.0 mm 0.00 in0.0 mm 0.00 in0.0 mm
05:41 PM 81.3°F27.4°C 69.7°F20.9°C 68% 9.6 mph E15.4 kmh E 12.5 mph20.1 kmh 29.99 in1015.6 mb 0.00 in0.0 mm 0.00 in0.0 mm 0.00 in0.0 mm
05:40 PM 81.3°F27.4°C 69.7°F20.9°C 68% 4.3 mph ENE6.9 kmh ENE 5.8 mph9.3 kmh 29.99 in1015.6 mb 0.00 in0.0 mm 0.00 in0.0 mm 0.00 in0.0 mm
05:39 PM 81.3°F27.4°C 69.7°F20.9°C 68% 6.3 mph SE10.1 kmh SE 9.2 mph14.8 kmh 29.99 in1015.6 mb 0.00 in0.0 mm 0.00 in0.0 mm 0.00 in0.0 mm
05:38 PM 81.3°F27.4°C 69.7°F20.9°C 68% 2.7 mph E4.3 kmh E 6.9 mph11.1 kmh 29.98 in1015.2 mb 0.00 in0.0 mm 0.00 in0.0 mm 0.00 in0.0 mm
05:37 PM 81.3°F27.4°C 69.7°F20.9°C 68% 10.1 mph E16.3 kmh E 12.5 mph20.1 kmh 29.98 in1015.2 mb 0.00 in0.0 mm 0.00 in0.0 mm 0.00 in0.0 mm
05:36 PM 81.3°F27.4°C 69.7°F20.9°C 68% 5.8 mph E9.3 kmh E 8.1 mph13.0 kmh 29.98 in1015.2 mb 0.00 in0.0 mm 0.00 in0.0 mm 0.00 in0.0 mm
05:35 PM 81.3°F27.4°C 69.7°F20.9°C 68% 6.0 mph E9.7 kmh E 8.1 mph13.0 kmh 29.99 in1015.6 mb 0.00 in0.0 mm 0.00 in0.0 mm 0.00 in0.0 mm
05:34 PM 81.5°F27.5°C 69.9°F21.1°C 68% 10.5 mph ESE16.9 kmh ESE 11.4 mph18.3 kmh 29.98 in1015.2 mb 0.00 in0.0 mm 0.00 in0.0 mm 0.00 in0.0 mm
05:33 PM 81.5°F27.5°C 70.3°F21.3°C 69% 5.6 mph E9.0 kmh E 6.9 mph11.1 kmh 29.99 in1015.6 mb 0.00 in0.0 mm 0.00 in0.0 mm 0.00 in0.0 mm
05:32 PM 81.3°F27.4°C 70.1°F21.2°C 69% 2.9 mph E4.7 kmh E 5.8 mph9.3 kmh 29.99 in1015.6 mb 0.00 in0.0 mm 0.00 in0.0 mm 0.00 in0.0 mm
05:31 PM 81.3°F27.4°C 70.1°F21.2°C 69% 7.6 mph ESE12.2 kmh ESE 8.1 mph13.0 kmh 29.99 in1015.6 mb 0.00 in0.0 mm 0.00 in0.0 mm 0.00 in0.0 mm
05:30 PM 81.3°F27.4°C 70.1°F21.2°C 69% 5.1 mph E8.2 kmh E 6.9 mph11.1 kmh 29.98 in1015.2 mb 0.00 in0.0 mm 0.00 in0.0 mm 0.00 in0.0 mm
05:29 PM 81.3°F27.4°C 70.1°F21.2°C 69% 8.9 mph ESE14.3 kmh ESE 10.3 mph16.6 kmh 29.98 in1015.2 mb 0.00 in0.0 mm 0.00 in0.0 mm 0.00 in0.0 mm
05:28 PM 81.3°F27.4°C 70.1°F21.2°C 69% 5.4 mph E8.7 kmh E 8.1 mph13.0 kmh 29.99 in1015.6 mb 0.00 in0.0 mm 0.00 in0.0 mm 0.00 in0.0 mm
05:27 PM 81.3°F27.4°C 69.7°F20.9°C 68% 9.6 mph SE15.4 kmh SE 12.5 mph20.1 kmh 29.99 in1015.6 mb 0.00 in0.0 mm 0.00 in0.0 mm 0.00 in0.0 mm
05:26 PM 81.5°F27.5°C 70.3°F21.3°C 69% 5.4 mph NE8.7 kmh NE 6.9 mph11.1 kmh 29.99 in1015.6 mb 0.00 in0.0 mm 0.00 in0.0 mm 0.00 in0.0 mm
05:25 PM 81.5°F27.5°C 70.3°F21.3°C 69% 4.5 mph ENE7.2 kmh ENE 6.9 mph11.1 kmh 29.99 in1015.6 mb 0.00 in0.0 mm 0.00 in0.0 mm 0.00 in0.0 mm
05:24 PM 81.5°F27.5°C 70.3°F21.3°C 69% 5.8 mph E9.3 kmh E 6.9 mph11.1 kmh 29.98 in1015.2 mb 0.00 in0.0 mm 0.00 in0.0 mm 0.00 in0.0 mm
05:23 PM 81.7°F27.6°C 70.5°F21.4°C 69% 5.6 mph ENE9.0 kmh ENE 10.3 mph16.6 kmh 29.99 in1015.6 mb 0.00 in0.0 mm 0.00 in0.0 mm 0.00 in0.0 mm
05:22 PM 81.7°F27.6°C 70.1°F21.2°C 68% 3.4 mph E5.5 kmh E 8.1 mph13.0 kmh 29.99 in1015.6 mb 0.00 in0.0 mm 0.00 in0.0 mm 0.00 in0.0 mm
05:21 PM 81.9°F27.7°C 70.7°F21.5°C 69% 5.8 mph E9.3 kmh E 8.1 mph13.0 kmh 29.99 in1015.6 mb 0.00 in0.0 mm 0.00 in0.0 mm 0.00 in0.0 mm
05:20 PM 81.9°F27.7°C 70.7°F21.5°C 69% 7.4 mph E11.9 kmh E 9.2 mph14.8 kmh 29.99 in1015.6 mb 0.00 in0.0 mm 0.00 in0.0 mm 0.00 in0.0 mm
05:19 PM 82.0°F27.8°C 70.4°F21.3°C 68% 8.9 mph E14.3 kmh E 10.3 mph16.6 kmh 29.98 in1015.2 mb 0.00 in0.0 mm 0.00 in0.0 mm 0.00 in0.0 mm
05:18 PM 82.0°F27.8°C 70.8°F21.6°C 69% 8.3 mph E13.4 kmh E 9.2 mph14.8 kmh 29.98 in1015.2 mb 0.00 in0.0 mm 0.00 in0.0 mm 0.00 in0.0 mm
05:17 PM 82.0°F27.8°C 70.4°F21.3°C 68% 8.7 mph ESE14.0 kmh ESE 10.3 mph16.6 kmh 29.99 in1015.6 mb 0.00 in0.0 mm 0.00 in0.0 mm 0.00 in0.0 mm
05:16 PM 81.9°F27.7°C 70.3°F21.3°C 68% 8.5 mph E13.7 kmh E 10.3 mph16.6 kmh 29.99 in1015.6 mb 0.00 in0.0 mm 0.00 in0.0 mm 0.00 in0.0 mm
05:15 PM 81.7°F27.6°C 70.1°F21.2°C 68% 9.8 mph ESE15.8 kmh ESE 11.4 mph18.3 kmh 29.99 in1015.6 mb 0.00 in0.0 mm 0.00 in0.0 mm 0.00 in0.0 mm
05:14 PM 81.7°F27.6°C 70.1°F21.2°C 68% 5.1 mph E8.2 kmh E 5.8 mph9.3 kmh 29.99 in1015.6 mb 0.00 in0.0 mm 0.00 in0.0 mm 0.00 in0.0 mm
05:13 PM 81.7°F27.6°C 70.1°F21.2°C 68% 8.1 mph E13.0 kmh E 9.2 mph14.8 kmh 29.99 in1015.6 mb 0.00 in0.0 mm 0.00 in0.0 mm 0.00 in0.0 mm
05:12 PM 81.5°F27.5°C 69.9°F21.1°C 68% 6.9 mph ESE11.1 kmh ESE 9.2 mph14.8 kmh 29.99 in1015.6 mb 0.00 in0.0 mm 0.00 in0.0 mm 0.00 in0.0 mm
05:11 PM 81.5°F27.5°C 69.9°F21.1°C 68% 4.0 mph ENE6.4 kmh ENE 6.9 mph11.1 kmh 29.99 in1015.6 mb 0.00 in0.0 mm 0.00 in0.0 mm 0.00 in0.0 mm
05:10 PM 81.5°F27.5°C 69.9°F21.1°C 68% 5.8 mph ENE9.3 kmh ENE 11.4 mph18.3 kmh 29.99 in1015.6 mb 0.00 in0.0 mm 0.00 in0.0 mm 0.00 in0.0 mm
05:09 PM 81.7°F27.6°C 69.7°F20.9°C 67% 9.6 mph ESE15.4 kmh ESE 12.5 mph20.1 kmh 29.99 in1015.6 mb 0.00 in0.0 mm 0.00 in0.0 mm 0.00 in0.0 mm
05:08 PM 81.9°F27.7°C 70.3°F21.3°C 68% 5.4 mph NE8.7 kmh NE 8.1 mph13.0 kmh 29.99 in1015.6 mb 0.00 in0.0 mm 0.00 in0.0 mm 0.00 in0.0 mm
05:07 PM 82.0°F27.8°C 70.4°F21.3°C 68% 7.2 mph E11.6 kmh E 12.5 mph20.1 kmh 29.99 in1015.6 mb 0.00 in0.0 mm 0.00 in0.0 mm 0.00 in0.0 mm
05:06 PM 82.0°F27.8°C 69.9°F21.1°C 67% 6.9 mph ENE11.1 kmh ENE 12.5 mph20.1 kmh 29.99 in1015.6 mb 0.00 in0.0 mm 0.00 in0.0 mm 0.00 in0.0 mm
05:05 PM 82.0°F27.8°C 69.9°F21.1°C 67% 7.2 mph E11.6 kmh E 14.8 mph23.8 kmh 29.99 in1015.6 mb 0.00 in0.0 mm 0.00 in0.0 mm 0.00 in0.0 mm
05:04 PM 82.0°F27.8°C 69.5°F20.8°C 66% 8.5 mph NE13.7 kmh NE 13.6 mph21.9 kmh 29.99 in1015.6 mb 0.00 in0.0 mm 0.00 in0.0 mm 0.00 in0.0 mm
05:03 PM 82.0°F27.8°C 69.9°F21.1°C 67% 9.6 mph E15.4 kmh E 12.5 mph20.1 kmh 30.00 in1015.9 mb 0.00 in0.0 mm 0.00 in0.0 mm 0.00 in0.0 mm
05:02 PM 82.0°F27.8°C 69.9°F21.1°C 67% 11.2 mph E18.0 kmh E 13.6 mph21.9 kmh 29.99 in1015.6 mb 0.00 in0.0 mm 0.00 in0.0 mm 0.00 in0.0 mm
05:01 PM 81.9°F27.7°C 69.8°F21.0°C 67% 7.6 mph E12.2 kmh E 12.5 mph20.1 kmh 29.99 in1015.6 mb 0.00 in0.0 mm 0.00 in0.0 mm 0.00 in0.0 mm
05:00 PM 81.7°F27.6°C 69.2°F20.7°C 66% 6.5 mph ESE10.5 kmh ESE 11.4 mph18.3 kmh 29.99 in1015.6 mb 0.00 in0.0 mm 0.00 in0.0 mm 0.00 in0.0 mm
04:59 PM 81.5°F27.5°C 69.5°F20.8°C 67% 4.5 mph E7.2 kmh E 5.8 mph9.3 kmh 29.99 in1015.6 mb 0.00 in0.0 mm 0.00 in0.0 mm 0.00 in0.0 mm
04:58 PM 81.5°F27.5°C 69.5°F20.8°C 67% 3.8 mph SE6.1 kmh SE 5.8 mph9.3 kmh 29.99 in1015.6 mb 0.00 in0.0 mm 0.00 in0.0 mm 0.00 in0.0 mm
04:57 PM 81.3°F27.4°C 69.7°F20.9°C 68% 7.4 mph ESE11.9 kmh ESE 9.2 mph14.8 kmh 29.99 in1015.6 mb 0.00 in0.0 mm 0.00 in0.0 mm 0.00 in0.0 mm
04:56 PM 81.1°F27.3°C 69.5°F20.8°C 68% 6.0 mph E9.7 kmh E 6.9 mph11.1 kmh 29.99 in1015.6 mb 0.00 in0.0 mm 0.00 in0.0 mm 0.00 in0.0 mm
04:55 PM 81.1°F27.3°C 69.5°F20.8°C 68% 4.9 mph E7.9 kmh E 5.8 mph9.3 kmh 29.99 in1015.6 mb 0.00 in0.0 mm 0.00 in0.0 mm 0.00 in0.0 mm
04:54 PM 81.1°F27.3°C 69.5°F20.8°C 68% 9.8 mph E15.8 kmh E 11.4 mph18.3 kmh 29.99 in1015.6 mb 0.00 in0.0 mm 0.00 in0.0 mm 0.00 in0.0 mm
04:53 PM 81.3°F27.4°C 69.7°F20.9°C 68% 6.9 mph E11.1 kmh E 11.4 mph18.3 kmh 30.00 in1015.9 mb 0.00 in0.0 mm 0.00 in0.0 mm 0.00 in0.0 mm
04:52 PM 81.5°F27.5°C 69.9°F21.1°C 68% 8.3 mph NE13.4 kmh NE 11.4 mph18.3 kmh 29.99 in1015.6 mb 0.00 in0.0 mm 0.00 in0.0 mm 0.00 in0.0 mm
04:51 PM 81.5°F27.5°C 69.9°F21.1°C 68% 6.0 mph E9.7 kmh E 10.3 mph16.6 kmh 29.99 in1015.6 mb 0.00 in0.0 mm 0.00 in0.0 mm 0.00 in0.0 mm
04:50 PM 81.5°F27.5°C 69.9°F21.1°C 68% 8.3 mph NE13.4 kmh NE 11.4 mph18.3 kmh 30.00 in1015.9 mb 0.00 in0.0 mm 0.00 in0.0 mm 0.00 in0.0 mm
04:49 PM 81.5°F27.5°C 69.9°F21.1°C 68% 11.6 mph ENE18.7 kmh ENE 12.5 mph20.1 kmh 29.99 in1015.6 mb 0.00 in0.0 mm 0.00 in0.0 mm 0.00 in0.0 mm
04:48 PM 81.5°F27.5°C 70.3°F21.3°C 69% 3.4 mph E5.5 kmh E 4.5 mph7.2 kmh 29.99 in1015.6 mb 0.00 in0.0 mm 0.00 in0.0 mm 0.00 in0.0 mm
04:47 PM 81.5°F27.5°C 70.3°F21.3°C 69% 4.5 mph E7.2 kmh E 8.1 mph13.0 kmh 30.00 in1015.9 mb 0.00 in0.0 mm 0.00 in0.0 mm 0.00 in0.0 mm
04:46 PM 81.7°F27.6°C 70.5°F21.4°C 69% 6.9 mph ESE11.1 kmh ESE 9.2 mph14.8 kmh 30.00 in1015.9 mb 0.00 in0.0 mm 0.00 in0.0 mm 0.00 in0.0 mm
04:45 PM 81.9°F27.7°C 70.7°F21.5°C 69% 7.6 mph NE12.2 kmh NE 10.3 mph16.6 kmh 30.00 in1015.9 mb 0.00 in0.0 mm 0.00 in0.0 mm 0.00 in0.0 mm
04:44 PM 81.9°F27.7°C 70.3°F21.3°C 68% 11.2 mph E18.0 kmh E 14.8 mph23.8 kmh 30.00 in1015.9 mb 0.00 in0.0 mm 0.00 in0.0 mm 0.00 in0.0 mm
04:43 PM 82.0°F27.8°C 70.4°F21.3°C 68% 8.3 mph ESE13.4 kmh ESE 10.3 mph16.6 kmh 29.99 in1015.6 mb 0.00 in0.0 mm 0.00 in0.0 mm 0.00 in0.0 mm
04:42 PM 81.9°F27.7°C 70.3°F21.3°C 68% 10.3 mph E16.6 kmh E 12.5 mph20.1 kmh 29.99 in1015.6 mb 0.00 in0.0 mm 0.00 in0.0 mm 0.00 in0.0 mm
04:41 PM 82.0°F27.8°C 70.4°F21.3°C 68% 2.0 mph ENE3.2 kmh ENE 3.4 mph5.5 kmh 29.99 in1015.6 mb 0.00 in0.0 mm 0.00 in0.0 mm 0.00 in0.0 mm
04:40 PM 82.0°F27.8°C 70.4°F21.3°C 68% 6.0 mph ENE9.7 kmh ENE 8.1 mph13.0 kmh 30.00 in1015.9 mb 0.00 in0.0 mm 0.00 in0.0 mm 0.00 in0.0 mm
04:39 PM 82.0°F27.8°C 70.4°F21.3°C 68% 3.1 mph ENE5.0 kmh ENE 4.5 mph7.2 kmh 30.00 in1015.9 mb 0.00 in0.0 mm 0.00 in0.0 mm 0.00 in0.0 mm
04:38 PM 82.0°F27.8°C 70.8°F21.6°C 69% 6.3 mph ESE10.1 kmh ESE 9.2 mph14.8 kmh 30.00 in1015.9 mb 0.00 in0.0 mm 0.00 in0.0 mm 0.00 in0.0 mm
04:37 PM 82.0°F27.8°C 70.4°F21.3°C 68% 4.5 mph E7.2 kmh E 8.1 mph13.0 kmh 29.99 in1015.6 mb 0.00 in0.0 mm 0.00 in0.0 mm 0.00 in0.0 mm
04:36 PM 82.0°F27.8°C 70.8°F21.6°C 69% 6.9 mph E11.1 kmh E 9.2 mph14.8 kmh 30.00 in1015.9 mb 0.00 in0.0 mm 0.00 in0.0 mm 0.00 in0.0 mm
04:35 PM 82.0°F27.8°C 70.8°F21.6°C 69% 3.8 mph E6.1 kmh E 5.8 mph9.3 kmh 29.99 in1015.6 mb 0.00 in0.0 mm 0.00 in0.0 mm 0.00 in0.0 mm
04:34 PM 82.0°F27.8°C 70.4°F21.3°C 68% 4.5 mph ENE7.2 kmh ENE 5.8 mph9.3 kmh 29.99 in1015.6 mb 0.00 in0.0 mm 0.00 in0.0 mm 0.00 in0.0 mm
04:33 PM 82.0°F27.8°C 70.8°F21.6°C 69% 5.8 mph ENE9.3 kmh ENE 9.2 mph14.8 kmh 29.99 in1015.6 mb 0.00 in0.0 mm 0.00 in0.0 mm 0.00 in0.0 mm
04:32 PM 82.0°F27.8°C 70.4°F21.3°C 68% 8.1 mph NE13.0 kmh NE 11.4 mph18.3 kmh 29.99 in1015.6 mb 0.00 in0.0 mm 0.00 in0.0 mm 0.00 in0.0 mm
04:31 PM 82.0°F27.8°C 70.4°F21.3°C 68% 12.8 mph E20.6 kmh E 15.9 mph25.6 kmh 29.99 in1015.6 mb 0.00 in0.0 mm 0.00 in0.0 mm 0.00 in0.0 mm
04:30 PM 82.0°F27.8°C 70.4°F21.3°C 68% 8.3 mph E13.4 kmh E 10.3 mph16.6 kmh 30.00 in1015.9 mb 0.00 in0.0 mm 0.00 in0.0 mm 0.00 in0.0 mm
04:29 PM 82.0°F27.8°C 70.8°F21.6°C 69% 2.2 mph NE3.5 kmh NE 4.5 mph7.2 kmh 29.99 in1015.6 mb 0.00 in0.0 mm 0.00 in0.0 mm 0.00 in0.0 mm
04:28 PM 81.9°F27.7°C 70.7°F21.5°C 69% 4.7 mph E7.6 kmh E 10.3 mph16.6 kmh 29.99 in1015.6 mb 0.00 in0.0 mm 0.00 in0.0 mm 0.00 in0.0 mm
04:27 PM 81.7°F27.6°C 70.5°F21.4°C 69% 6.0 mph SSE9.7 kmh SSE 6.9 mph11.1 kmh 29.99 in1015.6 mb 0.00 in0.0 mm 0.00 in0.0 mm 0.00 in0.0 mm
04:26 PM 81.7°F27.6°C 70.5°F21.4°C 69% 5.8 mph ENE9.3 kmh ENE 8.1 mph13.0 kmh 30.00 in1015.9 mb 0.00 in0.0 mm 0.00 in0.0 mm 0.00 in0.0 mm
04:25 PM 81.9°F27.7°C 70.7°F21.5°C 69% 11.9 mph ESE19.2 kmh ESE 12.5 mph20.1 kmh 29.99 in1015.6 mb 0.00 in0.0 mm 0.00 in0.0 mm 0.00 in0.0 mm
04:24 PM 81.9°F27.7°C 70.7°F21.5°C 69% 11.9 mph E19.2 kmh E 13.6 mph21.9 kmh 29.99 in1015.6 mb 0.00 in0.0 mm 0.00 in0.0 mm 0.00 in0.0 mm
04:23 PM 82.0°F27.8°C 70.8°F21.6°C 69% 11.0 mph E17.7 kmh E 13.6 mph21.9 kmh 29.99 in1015.6 mb 0.00 in0.0 mm 0.00 in0.0 mm 0.00 in0.0 mm
04:22 PM 82.0°F27.8°C 70.8°F21.6°C 69% 10.1 mph E16.3 kmh E 17.2 mph27.7 kmh 29.99 in1015.6 mb 0.00 in0.0 mm 0.00 in0.0 mm 0.00 in0.0 mm
04:21 PM 82.0°F27.8°C 70.8°F21.6°C 69% 12.1 mph SE19.5 kmh SE 13.6 mph21.9 kmh 29.99 in1015.6 mb 0.00 in0.0 mm 0.00 in0.0 mm 0.00 in0.0 mm
04:20 PM 82.2°F27.9°C 71.0°F21.7°C 69% 4.9 mph NE7.9 kmh NE 8.1 mph13.0 kmh 29.99 in1015.6 mb 0.00 in0.0 mm 0.00 in0.0 mm 0.00 in0.0 mm
04:19 PM 82.4°F28.0°C 71.2°F21.8°C 69% 6.5 mph E10.5 kmh E 8.1 mph13.0 kmh 30.00 in1015.9 mb 0.00 in0.0 mm 0.00 in0.0 mm 0.00 in0.0 mm
04:18 PM 82.4°F28.0°C 71.2°F21.8°C 69% 3.1 mph ENE5.0 kmh ENE 4.5 mph7.2 kmh 30.00 in1015.9 mb 0.00 in0.0 mm 0.00 in0.0 mm 0.00 in0.0 mm
04:17 PM 82.6°F28.1°C 70.9°F21.6°C 68% 6.9 mph ENE11.1 kmh ENE 10.3 mph16.6 kmh 29.99 in1015.6 mb 0.00 in0.0 mm 0.00 in0.0 mm 0.00 in0.0 mm
04:16 PM 82.8°F28.2°C 71.1°F21.7°C 68% 10.7 mph NE17.2 kmh NE 20.6 mph33.2 kmh 29.99 in1015.6 mb 0.00 in0.0 mm 0.00 in0.0 mm 0.00 in0.0 mm
04:15 PM 82.8°F28.2°C 70.7°F21.5°C 67% 12.1 mph E19.5 kmh E 14.8 mph23.8 kmh 29.99 in1015.6 mb 0.00 in0.0 mm 0.00 in0.0 mm 0.00 in0.0 mm
04:14 PM 82.6°F28.1°C 70.9°F21.6°C 68% 7.4 mph E11.9 kmh E 9.2 mph14.8 kmh 29.99 in1015.6 mb 0.00 in0.0 mm 0.00 in0.0 mm 0.00 in0.0 mm
04:13 PM 82.6°F28.1°C 70.1°F21.2°C 66% 11.6 mph NE18.7 kmh NE 15.9 mph25.6 kmh 29.99 in1015.6 mb 0.00 in0.0 mm 0.00 in0.0 mm 0.00 in0.0 mm
04:12 PM 82.6°F28.1°C 69.6°F20.9°C 65% 7.4 mph E11.9 kmh E 10.3 mph16.6 kmh 29.99 in1015.6 mb 0.00 in0.0 mm 0.00 in0.0 mm 0.00 in0.0 mm
04:11 PM 82.4°F28.0°C 69.4°F20.8°C 65% 4.0 mph E6.4 kmh E 5.8 mph9.3 kmh 29.99 in1015.6 mb 0.00 in0.0 mm 0.00 in0.0 mm 0.00 in0.0 mm
04:10 PM 82.4°F28.0°C 69.4°F20.8°C 65% 10.1 mph E16.3 kmh E 12.5 mph20.1 kmh 29.99 in1015.6 mb 0.00 in0.0 mm 0.00 in0.0 mm 0.00 in0.0 mm
04:09 PM 82.6°F28.1°C 69.6°F20.9°C 65% 12.3 mph E19.8 kmh E 14.8 mph23.8 kmh 29.99 in1015.6 mb 0.00 in0.0 mm 0.00 in0.0 mm 0.00 in0.0 mm
04:08 PM 82.6°F28.1°C 69.6°F20.9°C 65% 6.9 mph NE11.1 kmh NE 8.1 mph13.0 kmh 29.99 in1015.6 mb 0.00 in0.0 mm 0.00 in0.0 mm 0.00 in0.0 mm
04:07 PM 82.6°F28.1°C 70.1°F21.2°C 66% 3.8 mph ENE6.1 kmh ENE 6.9 mph11.1 kmh 29.99 in1015.6 mb 0.00 in0.0 mm 0.00 in0.0 mm 0.00 in0.0 mm
04:06 PM 82.6°F28.1°C 70.1°F21.2°C 66% 10.5 mph ENE16.9 kmh ENE 13.6 mph21.9 kmh 29.99 in1015.6 mb 0.00 in0.0 mm 0.00 in0.0 mm 0.00 in0.0 mm
04:05 PM 82.6°F28.1°C 69.6°F20.9°C 65% 12.3 mph E19.8 kmh E 15.9 mph25.6 kmh 29.99 in1015.6 mb 0.00 in0.0 mm 0.00 in0.0 mm 0.00 in0.0 mm
04:04 PM 82.6°F28.1°C 69.6°F20.9°C 65% 8.7 mph SE14.0 kmh SE 10.3 mph16.6 kmh 29.99 in1015.6 mb 0.00 in0.0 mm 0.00 in0.0 mm 0.00 in0.0 mm
04:03 PM 82.6°F28.1°C 70.1°F21.2°C 66% 6.5 mph E10.5 kmh E 10.3 mph16.6 kmh 29.99 in1015.6 mb 0.00 in0.0 mm 0.00 in0.0 mm 0.00 in0.0 mm
04:02 PM 82.4°F28.0°C 69.9°F21.1°C 66% 2.5 mph ENE4.0 kmh ENE 4.5 mph7.2 kmh 29.99 in1015.6 mb 0.00 in0.0 mm 0.00 in0.0 mm 0.00 in0.0 mm
04:01 PM 82.4°F28.0°C 69.9°F21.1°C 66% 1.8 mph ENE2.9 kmh ENE 5.8 mph9.3 kmh 29.99 in1015.6 mb 0.00 in0.0 mm 0.00 in0.0 mm 0.00 in0.0 mm
04:00 PM 82.4°F28.0°C 69.9°F21.1°C 66% 6.0 mph E9.7 kmh E 8.1 mph13.0 kmh 29.99 in1015.6 mb 0.00 in0.0 mm 0.00 in0.0 mm 0.00 in0.0 mm
03:59 PM 82.2°F27.9°C 69.7°F20.9°C 66% 9.2 mph ENE14.8 kmh ENE 12.5 mph20.1 kmh 30.00 in1015.9 mb 0.00 in0.0 mm 0.00 in0.0 mm 0.00 in0.0 mm
03:58 PM 82.2°F27.9°C 69.7°F20.9°C 66% 6.0 mph ENE9.7 kmh ENE 8.1 mph13.0 kmh 30.00 in1015.9 mb 0.00 in0.0 mm 0.00 in0.0 mm 0.00 in0.0 mm
03:57 PM 82.2°F27.9°C 70.1°F21.2°C 67% 4.3 mph ENE6.9 kmh ENE 5.8 mph9.3 kmh 30.00 in1015.9 mb 0.00 in0.0 mm 0.00 in0.0 mm 0.00 in0.0 mm
03:56 PM 82.0°F27.8°C 69.5°F20.8°C 66% 4.0 mph E6.4 kmh E 8.1 mph13.0 kmh 30.00 in1015.9 mb 0.00 in0.0 mm 0.00 in0.0 mm 0.00 in0.0 mm
03:55 PM 82.0°F27.8°C 69.9°F21.1°C 67% 5.4 mph NE8.7 kmh NE 9.2 mph14.8 kmh 29.99 in1015.6 mb 0.00 in0.0 mm 0.00 in0.0 mm 0.00 in0.0 mm
03:54 PM 82.2°F27.9°C 70.1°F21.2°C 67% 5.4 mph ENE8.7 kmh ENE 9.2 mph14.8 kmh 29.99 in1015.6 mb 0.00 in0.0 mm 0.00 in0.0 mm 0.00 in0.0 mm
03:53 PM 82.4°F28.0°C 70.3°F21.3°C 67% 5.4 mph NE8.7 kmh NE 8.1 mph13.0 kmh 29.99 in1015.6 mb 0.00 in0.0 mm 0.00 in0.0 mm 0.00 in0.0 mm
03:52 PM 82.6°F28.1°C 70.5°F21.4°C 67% 6.3 mph E10.1 kmh E 6.9 mph11.1 kmh 30.00 in1015.9 mb 0.00 in0.0 mm 0.00 in0.0 mm 0.00 in0.0 mm
03:51 PM 82.6°F28.1°C 70.5°F21.4°C 67% 5.8 mph ENE9.3 kmh ENE 10.3 mph16.6 kmh 29.99 in1015.6 mb 0.00 in0.0 mm 0.00 in0.0 mm 0.00 in0.0 mm
03:50 PM 82.8°F28.2°C 70.3°F21.3°C 66% 7.6 mph ENE12.2 kmh ENE 10.3 mph16.6 kmh 29.99 in1015.6 mb 0.00 in0.0 mm 0.00 in0.0 mm 0.00 in0.0 mm
03:49 PM 82.8°F28.2°C 70.3°F21.3°C 66% 9.2 mph E14.8 kmh E 14.8 mph23.8 kmh 30.00 in1015.9 mb 0.00 in0.0 mm 0.00 in0.0 mm 0.00 in0.0 mm
03:48 PM 82.8°F28.2°C 70.7°F21.5°C 67% 8.5 mph E13.7 kmh E 10.3 mph16.6 kmh 30.00 in1015.9 mb 0.00 in0.0 mm 0.00 in0.0 mm 0.00 in0.0 mm
03:47 PM 82.8°F28.2°C 70.7°F21.5°C 67% 6.9 mph E11.1 kmh E 9.2 mph14.8 kmh 30.00 in1015.9 mb 0.00 in0.0 mm 0.00 in0.0 mm 0.00 in0.0 mm
03:46 PM 82.9°F28.3°C 70.3°F21.3°C 66% 12.1 mph ESE19.5 kmh ESE 12.5 mph20.1 kmh 30.00 in1015.9 mb 0.00 in0.0 mm 0.00 in0.0 mm 0.00 in0.0 mm
03:45 PM 83.1°F28.4°C 70.5°F21.4°C 66% 8.5 mph E13.7 kmh E 10.3 mph16.6 kmh 30.00 in1015.9 mb 0.00 in0.0 mm 0.00 in0.0 mm 0.00 in0.0 mm
03:44 PM 83.1°F28.4°C 70.5°F21.4°C 66% 9.4 mph ENE15.1 kmh ENE 12.5 mph20.1 kmh 30.00 in1015.9 mb 0.00 in0.0 mm 0.00 in0.0 mm 0.00 in0.0 mm
03:43 PM 83.1°F28.4°C 70.5°F21.4°C 66% 7.4 mph E11.9 kmh E 8.1 mph13.0 kmh 30.00 in1015.9 mb 0.00 in0.0 mm 0.00 in0.0 mm 0.00 in0.0 mm
03:42 PM 83.1°F28.4°C 70.1°F21.2°C 65% 6.0 mph E9.7 kmh E 8.1 mph13.0 kmh 30.00 in1015.9 mb 0.00 in0.0 mm 0.00 in0.0 mm 0.00 in0.0 mm
03:41 PM 82.9°F28.3°C 69.9°F21.1°C 65% 3.8 mph ENE6.1 kmh ENE 5.8 mph9.3 kmh 29.99 in1015.6 mb 0.00 in0.0 mm 0.00 in0.0 mm 0.00 in0.0 mm
03:40 PM 82.9°F28.3°C 69.9°F21.1°C 65% 5.4 mph E8.7 kmh E 6.9 mph11.1 kmh 30.00 in1015.9 mb 0.00 in0.0 mm 0.00 in0.0 mm 0.00 in0.0 mm
03:39 PM 82.9°F28.3°C 69.9°F21.1°C 65% 8.9 mph E14.3 kmh E 10.3 mph16.6 kmh 30.00 in1015.9 mb 0.00 in0.0 mm 0.00 in0.0 mm 0.00 in0.0 mm
03:38 PM 82.8°F28.2°C 70.3°F21.3°C 66% 4.7 mph E7.6 kmh E 8.1 mph13.0 kmh 29.99 in1015.6 mb 0.00 in0.0 mm 0.00 in0.0 mm 0.00 in0.0 mm
03:37 PM 82.8°F28.2°C 69.8°F21.0°C 65% 5.8 mph E9.3 kmh E 8.1 mph13.0 kmh 30.00 in1015.9 mb 0.00 in0.0 mm 0.00 in0.0 mm 0.00 in0.0 mm
03:36 PM 82.8°F28.2°C 69.8°F21.0°C 65% 5.4 mph ESE8.7 kmh ESE 8.1 mph13.0 kmh 30.00 in1015.9 mb 0.00 in0.0 mm 0.00 in0.0 mm 0.00 in0.0 mm
03:35 PM 82.8°F28.2°C 69.8°F21.0°C 65% 4.9 mph E7.9 kmh E 6.9 mph11.1 kmh 30.00 in1015.9 mb 0.00 in0.0 mm 0.00 in0.0 mm 0.00 in0.0 mm
03:34 PM 82.8°F28.2°C 69.8°F21.0°C 65% 8.3 mph ESE13.4 kmh ESE 9.2 mph14.8 kmh 30.00 in1015.9 mb 0.00 in0.0 mm 0.00 in0.0 mm 0.00 in0.0 mm
03:33 PM 82.8°F28.2°C 69.4°F20.8°C 64% 9.6 mph E15.4 kmh E 13.6 mph21.9 kmh 30.00 in1015.9 mb 0.00 in0.0 mm 0.00 in0.0 mm 0.00 in0.0 mm
03:32 PM 82.8°F28.2°C 69.4°F20.8°C 64% 11.2 mph SE18.0 kmh SE 13.6 mph21.9 kmh 30.00 in1015.9 mb 0.00 in0.0 mm 0.00 in0.0 mm 0.00 in0.0 mm
03:31 PM 82.8°F28.2°C 69.4°F20.8°C 64% 7.4 mph E11.9 kmh E 9.2 mph14.8 kmh 30.00 in1015.9 mb 0.00 in0.0 mm 0.00 in0.0 mm 0.00 in0.0 mm
03:30 PM 82.6°F28.1°C 69.2°F20.7°C 64% 10.7 mph E17.2 kmh E 12.5 mph20.1 kmh 30.00 in1015.9 mb 0.00 in0.0 mm 0.00 in0.0 mm 0.00 in0.0 mm
03:29 PM 82.6°F28.1°C 69.2°F20.7°C 64% 8.9 mph NE14.3 kmh NE 10.3 mph16.6 kmh 30.01 in1016.3 mb 0.00 in0.0 mm 0.00 in0.0 mm 0.00 in0.0 mm
03:28 PM 82.6°F28.1°C 69.2°F20.7°C 64% 5.8 mph E9.3 kmh E 8.1 mph13.0 kmh 30.00 in1015.9 mb 0.00 in0.0 mm 0.00 in0.0 mm 0.00 in0.0 mm
03:27 PM 82.8°F28.2°C 69.8°F21.0°C 65% 4.9 mph E7.9 kmh E 6.9 mph11.1 kmh 30.00 in1015.9 mb 0.00 in0.0 mm 0.00 in0.0 mm 0.00 in0.0 mm
03:26 PM 82.9°F28.3°C 69.4°F20.8°C 64% 6.9 mph E11.1 kmh E 10.3 mph16.6 kmh 30.00 in1015.9 mb 0.00 in0.0 mm 0.00 in0.0 mm 0.00 in0.0 mm
03:25 PM 83.1°F28.4°C 70.1°F21.2°C 65% 9.6 mph E15.4 kmh E 11.4 mph18.3 kmh 30.01 in1016.3 mb 0.00 in0.0 mm 0.00 in0.0 mm 0.00 in0.0 mm
03:24 PM 83.3°F28.5°C 69.8°F21.0°C 64% 5.4 mph ESE8.7 kmh ESE 9.2 mph14.8 kmh 30.00 in1015.9 mb 0.00 in0.0 mm 0.00 in0.0 mm 0.00 in0.0 mm
03:23 PM 83.3°F28.5°C 69.8°F21.0°C 64% 7.8 mph E12.6 kmh E 10.3 mph16.6 kmh 30.01 in1016.3 mb 0.00 in0.0 mm 0.00 in0.0 mm 0.00 in0.0 mm
03:22 PM 83.1°F28.4°C 70.1°F21.2°C 65% 3.4 mph E5.5 kmh E 5.8 mph9.3 kmh 30.00 in1015.9 mb 0.00 in0.0 mm 0.00 in0.0 mm 0.00 in0.0 mm
03:21 PM 82.9°F28.3°C 70.3°F21.3°C 66% 5.6 mph ESE9.0 kmh ESE 6.9 mph11.1 kmh 30.00 in1015.9 mb 0.00 in0.0 mm 0.00 in0.0 mm 0.00 in0.0 mm
03:20 PM 82.8°F28.2°C 69.8°F21.0°C 65% 3.6 mph NE5.8 kmh NE 4.5 mph7.2 kmh 30.01 in1016.3 mb 0.00 in0.0 mm 0.00 in0.0 mm 0.00 in0.0 mm
03:19 PM 82.6°F28.1°C 70.1°F21.2°C 66% 6.0 mph E9.7 kmh E 9.2 mph14.8 kmh 30.01 in1016.3 mb 0.00 in0.0 mm 0.00 in0.0 mm 0.00 in0.0 mm
03:18 PM 82.6°F28.1°C 70.1°F21.2°C 66% 6.0 mph ENE9.7 kmh ENE 10.3 mph16.6 kmh 30.00 in1015.9 mb 0.00 in0.0 mm 0.00 in0.0 mm 0.00 in0.0 mm
03:17 PM 82.6°F28.1°C 70.1°F21.2°C 66% 8.3 mph NE13.4 kmh NE 11.4 mph18.3 kmh 30.00 in1015.9 mb 0.00 in0.0 mm 0.00 in0.0 mm 0.00 in0.0 mm
03:16 PM 82.4°F28.0°C 69.9°F21.1°C 66% 10.5 mph SE16.9 kmh SE 11.4 mph18.3 kmh 30.01 in1016.3 mb 0.00 in0.0 mm 0.00 in0.0 mm 0.00 in0.0 mm
03:15 PM 82.4°F28.0°C 69.9°F21.1°C 66% 7.6 mph NE12.2 kmh NE 12.5 mph20.1 kmh 30.01 in1016.3 mb 0.00 in0.0 mm 0.00 in0.0 mm 0.00 in0.0 mm
03:14 PM 82.6°F28.1°C 70.1°F21.2°C 66% 6.3 mph E10.1 kmh E 9.2 mph14.8 kmh 30.01 in1016.3 mb 0.00 in0.0 mm 0.00 in0.0 mm 0.00 in0.0 mm
03:13 PM 82.4°F28.0°C 69.9°F21.1°C 66% 6.0 mph NE9.7 kmh NE 8.1 mph13.0 kmh 30.00 in1015.9 mb 0.00 in0.0 mm 0.00 in0.0 mm 0.00 in0.0 mm
03:12 PM 82.4°F28.0°C 69.9°F21.1°C 66% 6.5 mph ENE10.5 kmh ENE 9.2 mph14.8 kmh 30.01 in1016.3 mb 0.00 in0.0 mm 0.00 in0.0 mm 0.00 in0.0 mm
03:11 PM 82.4°F28.0°C 69.9°F21.1°C 66% 15.4 mph E24.8 kmh E 19.5 mph31.4 kmh 30.01 in1016.3 mb 0.00 in0.0 mm 0.00 in0.0 mm 0.00 in0.0 mm
03:10 PM 82.2°F27.9°C 70.1°F21.2°C 67% 9.2 mph E14.8 kmh E 14.8 mph23.8 kmh 30.01 in1016.3 mb 0.00 in0.0 mm 0.00 in0.0 mm 0.00 in0.0 mm
03:09 PM 82.2°F27.9°C 70.1°F21.2°C 67% 6.5 mph ENE10.5 kmh ENE 10.3 mph16.6 kmh 30.01 in1016.3 mb 0.00 in0.0 mm 0.00 in0.0 mm 0.00 in0.0 mm
03:08 PM 82.2°F27.9°C 70.1°F21.2°C 67% 11.4 mph ESE18.3 kmh ESE 13.6 mph21.9 kmh 30.02 in1016.6 mb 0.00 in0.0 mm 0.00 in0.0 mm 0.00 in0.0 mm
03:07 PM 82.2°F27.9°C 70.1°F21.2°C 67% 7.4 mph SE11.9 kmh SE 10.3 mph16.6 kmh 30.01 in1016.3 mb 0.00 in0.0 mm 0.00 in0.0 mm 0.00 in0.0 mm
03:06 PM 82.4°F28.0°C 70.3°F21.3°C 67% 5.8 mph E9.3 kmh E 8.1 mph13.0 kmh 30.01 in1016.3 mb 0.00 in0.0 mm 0.00 in0.0 mm 0.00 in0.0 mm
03:05 PM 82.6°F28.1°C 70.5°F21.4°C 67% 8.1 mph E13.0 kmh E 10.3 mph16.6 kmh 30.01 in1016.3 mb 0.00 in0.0 mm 0.00 in0.0 mm 0.00 in0.0 mm
03:04 PM 82.8°F28.2°C 70.7°F21.5°C 67% 12.3 mph E19.8 kmh E 18.3 mph29.5 kmh 30.01 in1016.3 mb 0.00 in0.0 mm 0.00 in0.0 mm 0.00 in0.0 mm
03:03 PM 82.9°F28.3°C 70.3°F21.3°C 66% 9.4 mph E15.1 kmh E 11.4 mph18.3 kmh 30.01 in1016.3 mb 0.00 in0.0 mm 0.00 in0.0 mm 0.00 in0.0 mm
03:02 PM 82.9°F28.3°C 70.3°F21.3°C 66% 10.1 mph ENE16.3 kmh ENE 12.5 mph20.1 kmh 30.02 in1016.6 mb 0.00 in0.0 mm 0.00 in0.0 mm 0.00 in0.0 mm
03:01 PM 82.9°F28.3°C 70.3°F21.3°C 66% 5.8 mph NE9.3 kmh NE 10.3 mph16.6 kmh 30.02 in1016.6 mb 0.00 in0.0 mm 0.00 in0.0 mm 0.00 in0.0 mm
03:00 PM 82.9°F28.3°C 69.9°F21.1°C 65% 9.2 mph E14.8 kmh E 14.8 mph23.8 kmh 30.01 in1016.3 mb 0.00 in0.0 mm 0.00 in0.0 mm 0.00 in0.0 mm
02:59 PM 82.8°F28.2°C 69.8°F21.0°C 65% 9.2 mph ESE14.8 kmh ESE 11.4 mph18.3 kmh 30.02 in1016.6 mb 0.00 in0.0 mm 0.00 in0.0 mm 0.00 in0.0 mm
02:58 PM 82.6°F28.1°C 70.1°F21.2°C 66% 5.8 mph E9.3 kmh E 10.3 mph16.6 kmh 30.01 in1016.3 mb 0.00 in0.0 mm 0.00 in0.0 mm 0.00 in0.0 mm
02:57 PM 82.6°F28.1°C 69.6°F20.9°C 65% 6.3 mph E10.1 kmh E 8.1 mph13.0 kmh 30.01 in1016.3 mb 0.00 in0.0 mm 0.00 in0.0 mm 0.00 in0.0 mm
02:56 PM 82.6°F28.1°C 70.1°F21.2°C 66% 8.9 mph SE14.3 kmh SE 10.3 mph16.6 kmh 30.02 in1016.6 mb 0.00 in0.0 mm 0.00 in0.0 mm 0.00 in0.0 mm
02:55 PM 82.6°F28.1°C 70.1°F21.2°C 66% 5.6 mph E9.0 kmh E 6.9 mph11.1 kmh 30.02 in1016.6 mb 0.00 in0.0 mm 0.00 in0.0 mm 0.00 in0.0 mm
02:54 PM 82.6°F28.1°C 70.1°F21.2°C 66% 6.3 mph E10.1 kmh E 10.3 mph16.6 kmh 30.02 in1016.6 mb 0.00 in0.0 mm 0.00 in0.0 mm 0.00 in0.0 mm
02:53 PM 82.8°F28.2°C 70.3°F21.3°C 66% 2.5 mph E4.0 kmh E 5.8 mph9.3 kmh 30.01 in1016.3 mb 0.00 in0.0 mm 0.00 in0.0 mm 0.00 in0.0 mm
02:52 PM 82.8°F28.2°C 70.3°F21.3°C 66% 2.0 mph ESE3.2 kmh ESE 4.5 mph7.2 kmh 30.02 in1016.6 mb 0.00 in0.0 mm 0.00 in0.0 mm 0.00 in0.0 mm
02:51 PM 82.6°F28.1°C 70.1°F21.2°C 66% 4.9 mph NE7.9 kmh NE 8.1 mph13.0 kmh 30.02 in1016.6 mb 0.00 in0.0 mm 0.00 in0.0 mm 0.00 in0.0 mm
02:50 PM 82.6°F28.1°C 69.6°F20.9°C 65% 10.5 mph E16.9 kmh E 14.8 mph23.8 kmh 30.02 in1016.6 mb 0.00 in0.0 mm 0.00 in0.0 mm 0.00 in0.0 mm
02:49 PM 82.6°F28.1°C 69.2°F20.7°C 64% 10.7 mph ENE17.2 kmh ENE 14.8 mph23.8 kmh 30.02 in1016.6 mb 0.00 in0.0 mm 0.00 in0.0 mm 0.00 in0.0 mm
02:48 PM 82.6°F28.1°C 69.6°F20.9°C 65% 3.4 mph NE5.5 kmh NE 3.4 mph5.5 kmh 30.01 in1016.3 mb 0.00 in0.0 mm 0.00 in0.0 mm 0.00 in0.0 mm
02:47 PM 82.6°F28.1°C 69.6°F20.9°C 65% 7.6 mph ENE12.2 kmh ENE 10.3 mph16.6 kmh 30.02 in1016.6 mb 0.00 in0.0 mm 0.00 in0.0 mm 0.00 in0.0 mm
02:46 PM 82.8°F28.2°C 69.8°F21.0°C 65% 7.2 mph ENE11.6 kmh ENE 9.2 mph14.8 kmh 30.02 in1016.6 mb 0.00 in0.0 mm 0.00 in0.0 mm 0.00 in0.0 mm
02:45 PM 82.8°F28.2°C 69.8°F21.0°C 65% 8.1 mph ESE13.0 kmh ESE 9.2 mph14.8 kmh 30.02 in1016.6 mb 0.00 in0.0 mm 0.00 in0.0 mm 0.00 in0.0 mm
02:44 PM 82.8°F28.2°C 69.8°F21.0°C 65% 4.9 mph E7.9 kmh E 9.2 mph14.8 kmh 30.02 in1016.6 mb 0.00 in0.0 mm 0.00 in0.0 mm 0.00 in0.0 mm
02:43 PM 82.8°F28.2°C 70.3°F21.3°C 66% 6.5 mph ENE10.5 kmh ENE 9.2 mph14.8 kmh 30.02 in1016.6 mb 0.00 in0.0 mm 0.00 in0.0 mm 0.00 in0.0 mm
02:42 PM 82.8°F28.2°C 69.8°F21.0°C 65% 6.0 mph ENE9.7 kmh ENE 8.1 mph13.0 kmh 30.02 in1016.6 mb 0.00 in0.0 mm 0.00 in0.0 mm 0.00 in0.0 mm
02:41 PM 82.8°F28.2°C 70.3°F21.3°C 66% 11.4 mph E18.3 kmh E 13.6 mph21.9 kmh 30.02 in1016.6 mb 0.00 in0.0 mm 0.00 in0.0 mm 0.00 in0.0 mm
02:40 PM 82.9°F28.3°C 70.3°F21.3°C 66% 5.8 mph NE9.3 kmh NE 8.1 mph13.0 kmh 30.02 in1016.6 mb 0.00 in0.0 mm 0.00 in0.0 mm 0.00 in0.0 mm
02:39 PM 82.9°F28.3°C 70.3°F21.3°C 66% 4.9 mph ENE7.9 kmh ENE 6.9 mph11.1 kmh 30.02 in1016.6 mb 0.00 in0.0 mm 0.00 in0.0 mm 0.00 in0.0 mm
02:38 PM 82.8°F28.2°C 70.3°F21.3°C 66% 4.9 mph ENE7.9 kmh ENE 5.8 mph9.3 kmh 30.02 in1016.6 mb 0.00 in0.0 mm 0.00 in0.0 mm 0.00 in0.0 mm
02:37 PM 82.8°F28.2°C 70.3°F21.3°C 66% 4.5 mph ESE7.2 kmh ESE 5.8 mph9.3 kmh 30.02 in1016.6 mb 0.00 in0.0 mm 0.00 in0.0 mm 0.00 in0.0 mm
02:36 PM 82.8°F28.2°C 69.8°F21.0°C 65% 11.2 mph ESE18.0 kmh ESE 12.5 mph20.1 kmh 30.03 in1016.9 mb 0.00 in0.0 mm 0.00 in0.0 mm 0.00 in0.0 mm
02:35 PM 82.6°F28.1°C 70.1°F21.2°C 66% 4.7 mph NE7.6 kmh NE 8.1 mph13.0 kmh 30.02 in1016.6 mb 0.00 in0.0 mm 0.00 in0.0 mm 0.00 in0.0 mm
02:34 PM 82.6°F28.1°C 70.1°F21.2°C 66% 3.4 mph SE5.5 kmh SE 4.5 mph7.2 kmh 30.02 in1016.6 mb 0.00 in0.0 mm 0.00 in0.0 mm 0.00 in0.0 mm
02:33 PM 82.6°F28.1°C 70.1°F21.2°C 66% 5.8 mph ESE9.3 kmh ESE 9.2 mph14.8 kmh 30.03 in1016.9 mb 0.00 in0.0 mm 0.00 in0.0 mm 0.00 in0.0 mm
02:32 PM 82.6°F28.1°C 70.1°F21.2°C 66% 8.1 mph SE13.0 kmh SE 10.3 mph16.6 kmh 30.02 in1016.6 mb 0.00 in0.0 mm 0.00 in0.0 mm 0.00 in0.0 mm
02:31 PM 82.6°F28.1°C 70.1°F21.2°C 66% 8.5 mph E13.7 kmh E 10.3 mph16.6 kmh 30.03 in1016.9 mb 0.00 in0.0 mm 0.00 in0.0 mm 0.00 in0.0 mm
02:30 PM 82.6°F28.1°C 70.1°F21.2°C 66% 4.5 mph ESE7.2 kmh ESE 6.9 mph11.1 kmh 30.02 in1016.6 mb 0.00 in0.0 mm 0.00 in0.0 mm 0.00 in0.0 mm
02:29 PM 82.6°F28.1°C 70.1°F21.2°C 66% 8.5 mph E13.7 kmh E 10.3 mph16.6 kmh 30.03 in1016.9 mb 0.00 in0.0 mm 0.00 in0.0 mm 0.00 in0.0 mm
02:28 PM 82.8°F28.2°C 69.8°F21.0°C 65% 5.8 mph ENE9.3 kmh ENE 6.9 mph11.1 kmh 30.02 in1016.6 mb 0.00 in0.0 mm 0.00 in0.0 mm 0.00 in0.0 mm
02:27 PM 82.8°F28.2°C 69.8°F21.0°C 65% 11.6 mph ESE18.7 kmh ESE 14.8 mph23.8 kmh 30.03 in1016.9 mb 0.00 in0.0 mm 0.00 in0.0 mm 0.00 in0.0 mm
02:26 PM 82.8°F28.2°C 69.8°F21.0°C 65% 5.4 mph ENE8.7 kmh ENE 6.9 mph11.1 kmh 30.02 in1016.6 mb 0.00 in0.0 mm 0.00 in0.0 mm 0.00 in0.0 mm
02:25 PM 82.6°F28.1°C 69.6°F20.9°C 65% 11.9 mph E19.2 kmh E 13.6 mph21.9 kmh 30.03 in1016.9 mb 0.00 in0.0 mm 0.00 in0.0 mm 0.00 in0.0 mm
02:24 PM 82.4°F28.0°C 69.4°F20.8°C 65% 4.9 mph E7.9 kmh E 6.9 mph11.1 kmh 30.03 in1016.9 mb 0.00 in0.0 mm 0.00 in0.0 mm 0.00 in0.0 mm
02:23 PM 82.4°F28.0°C 69.9°F21.1°C 66% 3.4 mph ESE5.5 kmh ESE 8.1 mph13.0 kmh 30.02 in1016.6 mb 0.00 in0.0 mm 0.00 in0.0 mm 0.00 in0.0 mm
02:22 PM 82.4°F28.0°C 69.9°F21.1°C 66% 5.8 mph E9.3 kmh E 8.1 mph13.0 kmh 30.02 in1016.6 mb 0.00 in0.0 mm 0.00 in0.0 mm 0.00 in0.0 mm
02:21 PM 82.2°F27.9°C 69.7°F20.9°C 66% 2.0 mph NE3.2 kmh NE 3.4 mph5.5 kmh 30.03 in1016.9 mb 0.00 in0.0 mm 0.00 in0.0 mm 0.00 in0.0 mm
02:20 PM 82.2°F27.9°C 69.2°F20.7°C 65% 8.1 mph E13.0 kmh E 9.2 mph14.8 kmh 30.03 in1016.9 mb 0.00 in0.0 mm 0.00 in0.0 mm 0.00 in0.0 mm
02:19 PM 82.2°F27.9°C 69.2°F20.7°C 65% 8.1 mph E13.0 kmh E 11.4 mph18.3 kmh 30.03 in1016.9 mb 0.00 in0.0 mm 0.00 in0.0 mm 0.00 in0.0 mm
02:18 PM 82.2°F27.9°C 69.7°F20.9°C 66% 4.5 mph E7.2 kmh E 6.9 mph11.1 kmh 30.03 in1016.9 mb 0.00 in0.0 mm 0.00 in0.0 mm 0.00 in0.0 mm
02:17 PM 82.2°F27.9°C 69.7°F20.9°C 66% 4.0 mph E6.4 kmh E 6.9 mph11.1 kmh 30.02 in1016.6 mb 0.00 in0.0 mm 0.00 in0.0 mm 0.00 in0.0 mm
02:16 PM 82.2°F27.9°C 69.2°F20.7°C 65% 9.2 mph E14.8 kmh E 11.4 mph18.3 kmh 30.02 in1016.6 mb 0.00 in0.0 mm 0.00 in0.0 mm 0.00 in0.0 mm
02:15 PM 82.2°F27.9°C 69.2°F20.7°C 65% 9.2 mph ENE14.8 kmh ENE 12.5 mph20.1 kmh 30.03 in1016.9 mb 0.00 in0.0 mm 0.00 in0.0 mm 0.00 in0.0 mm
02:14 PM 82.2°F27.9°C 69.2°F20.7°C 65% 12.5 mph ESE20.1 kmh ESE 13.6 mph21.9 kmh 30.03 in1016.9 mb 0.00 in0.0 mm 0.00 in0.0 mm 0.00 in0.0 mm
02:13 PM 82.6°F28.1°C 69.6°F20.9°C 65% 10.5 mph E16.9 kmh E 13.6 mph21.9 kmh 30.02 in1016.6 mb 0.00 in0.0 mm 0.00 in0.0 mm 0.00 in0.0 mm
02:12 PM 82.6°F28.1°C 70.1°F21.2°C 66% 7.6 mph E12.2 kmh E 13.6 mph21.9 kmh 30.03 in1016.9 mb 0.00 in0.0 mm 0.00 in0.0 mm 0.00 in0.0 mm
02:11 PM 82.6°F28.1°C 70.1°F21.2°C 66% 4.9 mph NNE7.9 kmh NNE 9.2 mph14.8 kmh 30.03 in1016.9 mb 0.00 in0.0 mm 0.00 in0.0 mm 0.00 in0.0 mm
02:10 PM 82.6°F28.1°C 69.6°F20.9°C 65% 7.2 mph E11.6 kmh E 9.2 mph14.8 kmh 30.02 in1016.6 mb 0.00 in0.0 mm 0.00 in0.0 mm 0.00 in0.0 mm
02:09 PM 82.8°F28.2°C 69.4°F20.8°C 64% 10.5 mph E16.9 kmh E 11.4 mph18.3 kmh 30.03 in1016.9 mb 0.00 in0.0 mm 0.00 in0.0 mm 0.00 in0.0 mm
02:08 PM 82.8°F28.2°C 69.4°F20.8°C 64% 6.9 mph SE11.1 kmh SE 8.1 mph13.0 kmh 30.03 in1016.9 mb 0.00 in0.0 mm 0.00 in0.0 mm 0.00 in0.0 mm
02:06 PM 82.8°F28.2°C 69.4°F20.8°C 64% 11.4 mph E18.3 kmh E 12.5 mph20.1 kmh 30.03 in1016.9 mb 0.00 in0.0 mm 0.00 in0.0 mm 0.00 in0.0 mm
02:05 PM 82.8°F28.2°C 69.8°F21.0°C 65% 9.2 mph ESE14.8 kmh ESE 10.3 mph16.6 kmh 30.03 in1016.9 mb 0.00 in0.0 mm 0.00 in0.0 mm 0.00 in0.0 mm
02:04 PM 82.8°F28.2°C 69.4°F20.8°C 64% 9.2 mph NE14.8 kmh NE 11.4 mph18.3 kmh 30.02 in1016.6 mb 0.00 in0.0 mm 0.00 in0.0 mm 0.00 in0.0 mm
02:03 PM 82.8°F28.2°C 69.4°F20.8°C 64% 13.0 mph E20.9 kmh E 14.8 mph23.8 kmh 30.03 in1016.9 mb 0.00 in0.0 mm 0.00 in0.0 mm 0.00 in0.0 mm
02:02 PM 82.8°F28.2°C 69.8°F21.0°C 65% 4.5 mph E7.2 kmh E 9.2 mph14.8 kmh 30.03 in1016.9 mb 0.00 in0.0 mm 0.00 in0.0 mm 0.00 in0.0 mm
02:01 PM 82.8°F28.2°C 69.4°F20.8°C 64% 5.1 mph NE8.2 kmh NE 9.2 mph14.8 kmh 30.03 in1016.9 mb 0.00 in0.0 mm 0.00 in0.0 mm 0.00 in0.0 mm
02:00 PM 82.9°F28.3°C 69.9°F21.1°C 65% 6.5 mph ENE10.5 kmh ENE 10.3 mph16.6 kmh 30.02 in1016.6 mb 0.00 in0.0 mm 0.00 in0.0 mm 0.00 in0.0 mm
01:59 PM 82.9°F28.3°C 69.9°F21.1°C 65% 3.4 mph ENE5.5 kmh ENE 5.8 mph9.3 kmh 30.03 in1016.9 mb 0.00 in0.0 mm 0.00 in0.0 mm 0.00 in0.0 mm
01:58 PM 83.1°F28.4°C 70.1°F21.2°C 65% 7.6 mph E12.2 kmh E 9.2 mph14.8 kmh 30.04 in1017.3 mb 0.00 in0.0 mm 0.00 in0.0 mm 0.00 in0.0 mm
01:57 PM 83.1°F28.4°C 70.1°F21.2°C 65% 6.3 mph E10.1 kmh E 11.4 mph18.3 kmh 30.04 in1017.3 mb 0.00 in0.0 mm 0.00 in0.0 mm 0.00 in0.0 mm
01:56 PM 83.1°F28.4°C 70.1°F21.2°C 65% 6.3 mph NE10.1 kmh NE 9.2 mph14.8 kmh 30.03 in1016.9 mb 0.00 in0.0 mm 0.00 in0.0 mm 0.00 in0.0 mm
01:55 PM 83.1°F28.4°C 70.1°F21.2°C 65% 8.1 mph E13.0 kmh E 9.2 mph14.8 kmh 30.04 in1017.3 mb 0.00 in0.0 mm 0.00 in0.0 mm 0.00 in0.0 mm
01:54 PM 82.9°F28.3°C 70.3°F21.3°C 66% 4.3 mph E6.9 kmh E 6.9 mph11.1 kmh 30.04 in1017.3 mb 0.00 in0.0 mm 0.00 in0.0 mm 0.00 in0.0 mm
01:53 PM 82.9°F28.3°C 70.3°F21.3°C 66% 3.4 mph E5.5 kmh E 5.8 mph9.3 kmh 30.04 in1017.3 mb 0.00 in0.0 mm 0.00 in0.0 mm 0.00 in0.0 mm
01:52 PM 82.8°F28.2°C 69.4°F20.8°C 64% 3.8 mph E6.1 kmh E 5.8 mph9.3 kmh 30.04 in1017.3 mb 0.00 in0.0 mm 0.00 in0.0 mm 0.00 in0.0 mm
01:51 PM 82.8°F28.2°C 69.8°F21.0°C 65% 4.9 mph E7.9 kmh E 6.9 mph11.1 kmh 30.03 in1016.9 mb 0.00 in0.0 mm 0.00 in0.0 mm 0.00 in0.0 mm
01:50 PM 82.8°F28.2°C 69.8°F21.0°C 65% 4.0 mph SE6.4 kmh SE 5.8 mph9.3 kmh 30.04 in1017.3 mb 0.00 in0.0 mm 0.00 in0.0 mm 0.00 in0.0 mm
01:49 PM 82.8°F28.2°C 69.4°F20.8°C 64% 6.5 mph ENE10.5 kmh ENE 9.2 mph14.8 kmh 30.03 in1016.9 mb 0.00 in0.0 mm 0.00 in0.0 mm 0.00 in0.0 mm
01:48 PM 82.8°F28.2°C 69.8°F21.0°C 65% 8.7 mph ESE14.0 kmh ESE 11.4 mph18.3 kmh 30.04 in1017.3 mb 0.00 in0.0 mm 0.00 in0.0 mm 0.00 in0.0 mm
01:47 PM 82.8°F28.2°C 69.8°F21.0°C 65% 3.6 mph E5.8 kmh E 6.9 mph11.1 kmh 30.04 in1017.3 mb 0.00 in0.0 mm 0.00 in0.0 mm 0.00 in0.0 mm
01:46 PM 82.8°F28.2°C 69.4°F20.8°C 64% 6.0 mph E9.7 kmh E 10.3 mph16.6 kmh 30.03 in1016.9 mb 0.00 in0.0 mm 0.00 in0.0 mm 0.00 in0.0 mm
01:45 PM 82.8°F28.2°C 69.8°F21.0°C 65% 4.9 mph E7.9 kmh E 8.1 mph13.0 kmh 30.03 in1016.9 mb 0.00 in0.0 mm 0.00 in0.0 mm 0.00 in0.0 mm
01:44 PM 82.8°F28.2°C 69.8°F21.0°C 65% 8.3 mph ESE13.4 kmh ESE 11.4 mph18.3 kmh 30.03 in1016.9 mb 0.00 in0.0 mm 0.00 in0.0 mm 0.00 in0.0 mm
01:43 PM 82.6°F28.1°C 69.6°F20.9°C 65% 9.2 mph SE14.8 kmh SE 11.4 mph18.3 kmh 30.04 in1017.3 mb 0.00 in0.0 mm 0.00 in0.0 mm 0.00 in0.0 mm
01:42 PM 82.6°F28.1°C 69.6°F20.9°C 65% 12.3 mph ESE19.8 kmh ESE 13.6 mph21.9 kmh 30.03 in1016.9 mb 0.00 in0.0 mm 0.00 in0.0 mm 0.00 in0.0 mm
01:41 PM 82.6°F28.1°C 70.1°F21.2°C 66% 2.7 mph NE4.3 kmh NE 4.5 mph7.2 kmh 30.03 in1016.9 mb 0.00 in0.0 mm 0.00 in0.0 mm 0.00 in0.0 mm
01:40 PM 82.4°F28.0°C 69.9°F21.1°C 66% 5.1 mph E8.2 kmh E 5.8 mph9.3 kmh 30.03 in1016.9 mb 0.00 in0.0 mm 0.00 in0.0 mm 0.00 in0.0 mm
01:39 PM 82.6°F28.1°C 70.1°F21.2°C 66% 9.8 mph ESE15.8 kmh ESE 11.4 mph18.3 kmh 30.04 in1017.3 mb 0.00 in0.0 mm 0.00 in0.0 mm 0.00 in0.0 mm
01:38 PM 82.8°F28.2°C 70.3°F21.3°C 66% 6.5 mph ENE10.5 kmh ENE 12.5 mph20.1 kmh 30.04 in1017.3 mb 0.00 in0.0 mm 0.00 in0.0 mm 0.00 in0.0 mm
01:37 PM 83.1°F28.4°C 70.5°F21.4°C 66% 10.1 mph E16.3 kmh E 12.5 mph20.1 kmh 30.04 in1017.3 mb 0.00 in0.0 mm 0.00 in0.0 mm 0.00 in0.0 mm
01:36 PM 83.3°F28.5°C 70.3°F21.3°C 65% 9.8 mph ESE15.8 kmh ESE 14.8 mph23.8 kmh 30.04 in1017.3 mb 0.00 in0.0 mm 0.00 in0.0 mm 0.00 in0.0 mm
01:35 PM 83.7°F28.7°C 70.7°F21.5°C 65% 10.7 mph ESE17.2 kmh ESE 13.6 mph21.9 kmh 30.04 in1017.3 mb 0.00 in0.0 mm 0.00 in0.0 mm 0.00 in0.0 mm
01:34 PM 83.8°F28.8°C 70.3°F21.3°C 64% 12.1 mph ESE19.5 kmh ESE 13.6 mph21.9 kmh 30.04 in1017.3 mb 0.00 in0.0 mm 0.00 in0.0 mm 0.00 in0.0 mm
01:33 PM 84.0°F28.9°C 70.5°F21.4°C 64% 6.0 mph E9.7 kmh E 9.2 mph14.8 kmh 30.04 in1017.3 mb 0.00 in0.0 mm 0.00 in0.0 mm 0.00 in0.0 mm
01:32 PM 83.8°F28.8°C 70.3°F21.3°C 64% 7.2 mph ESE11.6 kmh ESE 10.3 mph16.6 kmh 30.04 in1017.3 mb 0.00 in0.0 mm 0.00 in0.0 mm 0.00 in0.0 mm
01:31 PM 83.7°F28.7°C 69.7°F20.9°C 63% 9.6 mph E15.4 kmh E 11.4 mph18.3 kmh 30.03 in1016.9 mb 0.00 in0.0 mm 0.00 in0.0 mm 0.00 in0.0 mm
01:30 PM 83.5°F28.6°C 70.0°F21.1°C 64% 5.4 mph E8.7 kmh E 5.8 mph9.3 kmh 30.03 in1016.9 mb 0.00 in0.0 mm 0.00 in0.0 mm 0.00 in0.0 mm
01:29 PM 83.3°F28.5°C 69.4°F20.8°C 63% 0.9 mph SE1.4 kmh SE 2.2 mph3.5 kmh 30.03 in1016.9 mb 0.00 in0.0 mm 0.00 in0.0 mm 0.00 in0.0 mm
01:28 PM 83.3°F28.5°C 69.4°F20.8°C 63% 2.5 mph SSE4.0 kmh SSE 3.4 mph5.5 kmh 30.03 in1016.9 mb 0.00 in0.0 mm 0.00 in0.0 mm 0.00 in0.0 mm
01:27 PM 83.3°F28.5°C 69.8°F21.0°C 64% 6.5 mph SE10.5 kmh SE 10.3 mph16.6 kmh 30.04 in1017.3 mb 0.00 in0.0 mm 0.00 in0.0 mm 0.00 in0.0 mm
01:26 PM 83.3°F28.5°C 69.8°F21.0°C 64% 7.8 mph E12.6 kmh E 10.3 mph16.6 kmh 30.04 in1017.3 mb 0.00 in0.0 mm 0.00 in0.0 mm 0.00 in0.0 mm
01:25 PM 83.3°F28.5°C 69.8°F21.0°C 64% 9.6 mph E15.4 kmh E 13.6 mph21.9 kmh 30.04 in1017.3 mb 0.00 in0.0 mm 0.00 in0.0 mm 0.00 in0.0 mm
01:24 PM 83.1°F28.4°C 69.6°F20.9°C 64% 8.1 mph E13.0 kmh E 12.5 mph20.1 kmh 30.03 in1016.9 mb 0.00 in0.0 mm 0.00 in0.0 mm 0.00 in0.0 mm
01:23 PM 83.1°F28.4°C 70.1°F21.2°C 65% 6.3 mph NE10.1 kmh NE 9.2 mph14.8 kmh 30.04 in1017.3 mb 0.00 in0.0 mm 0.00 in0.0 mm 0.00 in0.0 mm
01:22 PM 82.9°F28.3°C 69.9°F21.1°C 65% 4.7 mph E7.6 kmh E 5.8 mph9.3 kmh 30.04 in1017.3 mb 0.00 in0.0 mm 0.00 in0.0 mm 0.00 in0.0 mm
01:21 PM 82.9°F28.3°C 70.3°F21.3°C 66% 6.0 mph E9.7 kmh E 8.1 mph13.0 kmh 30.03 in1016.9 mb 0.00 in0.0 mm 0.00 in0.0 mm 0.00 in0.0 mm
01:20 PM 82.8°F28.2°C 69.8°F21.0°C 65% 7.6 mph E12.2 kmh E 9.2 mph14.8 kmh 30.03 in1016.9 mb 0.00 in0.0 mm 0.00 in0.0 mm 0.00 in0.0 mm
01:19 PM 82.8°F28.2°C 70.3°F21.3°C 66% 4.5 mph ESE7.2 kmh ESE 10.3 mph16.6 kmh 30.03 in1016.9 mb 0.00 in0.0 mm 0.00 in0.0 mm 0.00 in0.0 mm
01:18 PM 82.8°F28.2°C 69.8°F21.0°C 65% 8.5 mph ENE13.7 kmh ENE 12.5 mph20.1 kmh 30.04 in1017.3 mb 0.00 in0.0 mm 0.00 in0.0 mm 0.00 in0.0 mm
01:17 PM 82.6°F28.1°C 70.1°F21.2°C 66% 3.4 mph NE5.5 kmh NE 5.8 mph9.3 kmh 30.03 in1016.9 mb 0.00 in0.0 mm 0.00 in0.0 mm 0.00 in0.0 mm
01:16 PM 82.6°F28.1°C 69.6°F20.9°C 65% 7.8 mph ENE12.6 kmh ENE 9.2 mph14.8 kmh 30.03 in1016.9 mb 0.00 in0.0 mm 0.00 in0.0 mm 0.00 in0.0 mm
01:15 PM 82.4°F28.0°C 69.4°F20.8°C 65% 5.4 mph SE8.7 kmh SE 6.9 mph11.1 kmh 30.03 in1016.9 mb 0.00 in0.0 mm 0.00 in0.0 mm 0.00 in0.0 mm
01:14 PM 82.4°F28.0°C 69.4°F20.8°C 65% 4.3 mph ESE6.9 kmh ESE 8.1 mph13.0 kmh 30.03 in1016.9 mb 0.00 in0.0 mm 0.00 in0.0 mm 0.00 in0.0 mm
01:13 PM 82.4°F28.0°C 69.9°F21.1°C 66% 7.8 mph ENE12.6 kmh ENE 9.2 mph14.8 kmh 30.04 in1017.3 mb 0.00 in0.0 mm 0.00 in0.0 mm 0.00 in0.0 mm
01:12 PM 82.4°F28.0°C 69.9°F21.1°C 66% 3.8 mph E6.1 kmh E 5.8 mph9.3 kmh 30.03 in1016.9 mb 0.00 in0.0 mm 0.00 in0.0 mm 0.00 in0.0 mm
01:11 PM 82.4°F28.0°C 69.9°F21.1°C 66% 3.8 mph NE6.1 kmh NE 6.9 mph11.1 kmh 30.03 in1016.9 mb 0.00 in0.0 mm 0.00 in0.0 mm 0.00 in0.0 mm
01:10 PM 82.4°F28.0°C 69.4°F20.8°C 65% 8.7 mph E14.0 kmh E 13.6 mph21.9 kmh 30.03 in1016.9 mb 0.00 in0.0 mm 0.00 in0.0 mm 0.00 in0.0 mm
01:09 PM 82.2°F27.9°C 69.7°F20.9°C 66% 8.9 mph E14.3 kmh E 9.2 mph14.8 kmh 30.03 in1016.9 mb 0.00 in0.0 mm 0.00 in0.0 mm 0.00 in0.0 mm
01:08 PM 82.2°F27.9°C 69.7°F20.9°C 66% 10.1 mph ENE16.3 kmh ENE 11.4 mph18.3 kmh 30.03 in1016.9 mb 0.00 in0.0 mm 0.00 in0.0 mm 0.00 in0.0 mm
01:07 PM 82.2°F27.9°C 69.7°F20.9°C 66% 6.0 mph ENE9.7 kmh ENE 6.9 mph11.1 kmh 30.03 in1016.9 mb 0.00 in0.0 mm 0.00 in0.0 mm 0.00 in0.0 mm
01:06 PM 82.0°F27.8°C 69.9°F21.1°C 67% 4.0 mph E6.4 kmh E 4.5 mph7.2 kmh 30.03 in1016.9 mb 0.00 in0.0 mm 0.00 in0.0 mm 0.00 in0.0 mm
01:05 PM 82.0°F27.8°C 69.5°F20.8°C 66% 8.1 mph E13.0 kmh E 9.2 mph14.8 kmh 30.04 in1017.3 mb 0.00 in0.0 mm 0.00 in0.0 mm 0.00 in0.0 mm
01:04 PM 82.0°F27.8°C 69.5°F20.8°C 66% 14.3 mph SSE23.0 kmh SSE 20.6 mph33.2 kmh 30.03 in1016.9 mb 0.00 in0.0 mm 0.00 in0.0 mm 0.00 in0.0 mm
01:03 PM 82.0°F27.8°C 69.5°F20.8°C 66% 10.5 mph ESE16.9 kmh ESE 13.6 mph21.9 kmh 30.03 in1016.9 mb 0.00 in0.0 mm 0.00 in0.0 mm 0.00 in0.0 mm
01:02 PM 82.0°F27.8°C 69.5°F20.8°C 66% 8.7 mph E14.0 kmh E 10.3 mph16.6 kmh 30.03 in1016.9 mb 0.00 in0.0 mm 0.00 in0.0 mm 0.00 in0.0 mm
01:01 PM 82.0°F27.8°C 69.5°F20.8°C 66% 2.5 mph NE4.0 kmh NE 4.5 mph7.2 kmh 30.03 in1016.9 mb 0.00 in0.0 mm 0.00 in0.0 mm 0.00 in0.0 mm
01:00 PM 82.0°F27.8°C 69.9°F21.1°C 67% 4.9 mph ESE7.9 kmh ESE 6.9 mph11.1 kmh 30.03 in1016.9 mb 0.00 in0.0 mm 0.00 in0.0 mm 0.00 in0.0 mm
12:59 PM 82.2°F27.9°C 69.7°F20.9°C 66% 7.8 mph E12.6 kmh E 12.5 mph20.1 kmh 30.03 in1016.9 mb 0.00 in0.0 mm 0.00 in0.0 mm 0.00 in0.0 mm
12:58 PM 82.4°F28.0°C 69.9°F21.1°C 66% 10.7 mph E17.2 kmh E 13.6 mph21.9 kmh 30.03 in1016.9 mb 0.00 in0.0 mm 0.00 in0.0 mm 0.00 in0.0 mm
12:57 PM 82.4°F28.0°C 69.9°F21.1°C 66% 7.4 mph E11.9 kmh E 12.5 mph20.1 kmh 30.03 in1016.9 mb 0.00 in0.0 mm 0.00 in0.0 mm 0.00 in0.0 mm
12:56 PM 82.6°F28.1°C 70.1°F21.2°C 66% 9.6 mph ESE15.4 kmh ESE 10.3 mph16.6 kmh 30.03 in1016.9 mb 0.00 in0.0 mm 0.00 in0.0 mm 0.00 in0.0 mm
12:55 PM 82.6°F28.1°C 70.1°F21.2°C 66% 7.6 mph ESE12.2 kmh ESE 9.2 mph14.8 kmh 30.04 in1017.3 mb 0.00 in0.0 mm 0.00 in0.0 mm 0.00 in0.0 mm
12:54 PM 82.6°F28.1°C 70.1°F21.2°C 66% 9.2 mph ESE14.8 kmh ESE 12.5 mph20.1 kmh 30.03 in1016.9 mb 0.00 in0.0 mm 0.00 in0.0 mm 0.00 in0.0 mm
12:53 PM 82.4°F28.0°C 69.4°F20.8°C 65% 7.8 mph E12.6 kmh E 11.4 mph18.3 kmh 30.04 in1017.3 mb 0.00 in0.0 mm 0.00 in0.0 mm 0.00 in0.0 mm
12:52 PM 82.6°F28.1°C 69.6°F20.9°C 65% 6.9 mph E11.1 kmh E 13.6 mph21.9 kmh 30.04 in1017.3 mb 0.00 in0.0 mm 0.00 in0.0 mm 0.00 in0.0 mm
12:51 PM 82.6°F28.1°C 70.1°F21.2°C 66% 4.0 mph ESE6.4 kmh ESE 5.8 mph9.3 kmh 30.04 in1017.3 mb 0.00 in0.0 mm 0.00 in0.0 mm 0.00 in0.0 mm
12:50 PM 82.6°F28.1°C 70.1°F21.2°C 66% 5.1 mph E8.2 kmh E 8.1 mph13.0 kmh 30.03 in1016.9 mb 0.00 in0.0 mm 0.00 in0.0 mm 0.00 in0.0 mm
12:49 PM 82.6°F28.1°C 70.1°F21.2°C 66% 8.1 mph E13.0 kmh E 12.5 mph20.1 kmh 30.03 in1016.9 mb 0.00 in0.0 mm 0.00 in0.0 mm 0.00 in0.0 mm
12:48 PM 82.8°F28.2°C 69.8°F21.0°C 65% 7.4 mph E11.9 kmh E 8.1 mph13.0 kmh 30.04 in1017.3 mb 0.00 in0.0 mm 0.00 in0.0 mm 0.00 in0.0 mm
12:47 PM 82.9°F28.3°C 70.3°F21.3°C 66% 6.9 mph ESE11.1 kmh ESE 8.1 mph13.0 kmh 30.04 in1017.3 mb 0.00 in0.0 mm 0.00 in0.0 mm 0.00 in0.0 mm
12:44 PM 83.3°F28.5°C 70.3°F21.3°C 65% 4.9 mph ENE7.9 kmh ENE 6.9 mph11.1 kmh 30.03 in1016.9 mb 0.00 in0.0 mm 0.00 in0.0 mm 0.00 in0.0 mm
12:43 PM 83.5°F28.6°C 70.0°F21.1°C 64% 10.7 mph E17.2 kmh E 14.8 mph23.8 kmh 30.03 in1016.9 mb 0.00 in0.0 mm 0.00 in0.0 mm 0.00 in0.0 mm
12:42 PM 83.5°F28.6°C 70.0°F21.1°C 64% 1.8 mph E2.9 kmh E 3.4 mph5.5 kmh 30.03 in1016.9 mb 0.00 in0.0 mm 0.00 in0.0 mm 0.00 in0.0 mm
12:41 PM 83.5°F28.6°C 70.5°F21.4°C 65% 1.8 mph NE2.9 kmh NE 4.5 mph7.2 kmh 30.03 in1016.9 mb 0.00 in0.0 mm 0.00 in0.0 mm 0.00 in0.0 mm
12:40 PM 83.3°F28.5°C 69.4°F20.8°C 63% 5.4 mph ENE8.7 kmh ENE 8.1 mph13.0 kmh 30.03 in1016.9 mb 0.00 in0.0 mm 0.00 in0.0 mm 0.00 in0.0 mm
12:39 PM 83.3°F28.5°C 69.4°F20.8°C 63% 4.3 mph NNE6.9 kmh NNE 6.9 mph11.1 kmh 30.04 in1017.3 mb 0.00 in0.0 mm 0.00 in0.0 mm 0.00 in0.0 mm
12:38 PM 82.9°F28.3°C 69.0°F20.6°C 63% 8.5 mph E13.7 kmh E 11.4 mph18.3 kmh 30.03 in1016.9 mb 0.00 in0.0 mm 0.00 in0.0 mm 0.00 in0.0 mm
12:37 PM 82.6°F28.1°C 69.2°F20.7°C 64% 2.2 mph ENE3.5 kmh ENE 3.4 mph5.5 kmh 30.03 in1016.9 mb 0.00 in0.0 mm 0.00 in0.0 mm 0.00 in0.0 mm
12:36 PM 82.6°F28.1°C 69.6°F20.9°C 65% 5.6 mph E9.0 kmh E 6.9 mph11.1 kmh 30.04 in1017.3 mb 0.00 in0.0 mm 0.00 in0.0 mm 0.00 in0.0 mm
12:35 PM 82.6°F28.1°C 69.6°F20.9°C 65% 4.9 mph SE7.9 kmh SE 8.1 mph13.0 kmh 30.03 in1016.9 mb 0.00 in0.0 mm 0.00 in0.0 mm 0.00 in0.0 mm
12:34 PM 82.8°F28.2°C 70.3°F21.3°C 66% 8.5 mph NE13.7 kmh NE 10.3 mph16.6 kmh 30.04 in1017.3 mb 0.00 in0.0 mm 0.00 in0.0 mm 0.00 in0.0 mm
12:33 PM 82.8°F28.2°C 69.8°F21.0°C 65% 5.1 mph E8.2 kmh E 6.9 mph11.1 kmh 30.03 in1016.9 mb 0.00 in0.0 mm 0.00 in0.0 mm 0.00 in0.0 mm
12:32 PM 82.8°F28.2°C 69.4°F20.8°C 64% 8.5 mph E13.7 kmh E 11.4 mph18.3 kmh 30.03 in1016.9 mb 0.00 in0.0 mm 0.00 in0.0 mm 0.00 in0.0 mm
12:31 PM 82.8°F28.2°C 69.4°F20.8°C 64% 4.7 mph E7.6 kmh E 5.8 mph9.3 kmh 30.03 in1016.9 mb 0.00 in0.0 mm 0.00 in0.0 mm 0.00 in0.0 mm
12:30 PM 82.8°F28.2°C 69.4°F20.8°C 64% 2.9 mph ENE4.7 kmh ENE 4.5 mph7.2 kmh 30.04 in1017.3 mb 0.00 in0.0 mm 0.00 in0.0 mm 0.00 in0.0 mm
12:29 PM 82.6°F28.1°C 69.6°F20.9°C 65% 1.6 mph E2.6 kmh E 2.2 mph3.5 kmh 30.03 in1016.9 mb 0.00 in0.0 mm 0.00 in0.0 mm 0.00 in0.0 mm
12:28 PM 82.8°F28.2°C 69.4°F20.8°C 64% 5.8 mph NE9.3 kmh NE 8.1 mph13.0 kmh 30.03 in1016.9 mb 0.00 in0.0 mm 0.00 in0.0 mm 0.00 in0.0 mm
12:27 PM 82.8°F28.2°C 69.4°F20.8°C 64% 9.4 mph ESE15.1 kmh ESE 11.4 mph18.3 kmh 30.03 in1016.9 mb 0.00 in0.0 mm 0.00 in0.0 mm 0.00 in0.0 mm
12:26 PM 82.8°F28.2°C 69.4°F20.8°C 64% 3.8 mph E6.1 kmh E 8.1 mph13.0 kmh 30.03 in1016.9 mb 0.00 in0.0 mm 0.00 in0.0 mm 0.00 in0.0 mm
12:25 PM 82.8°F28.2°C 69.4°F20.8°C 64% 6.5 mph E10.5 kmh E 10.3 mph16.6 kmh 30.04 in1017.3 mb 0.00 in0.0 mm 0.00 in0.0 mm 0.00 in0.0 mm
12:24 PM 82.9°F28.3°C 69.4°F20.8°C 64% 9.8 mph E15.8 kmh E 11.4 mph18.3 kmh 30.03 in1016.9 mb 0.00 in0.0 mm 0.00 in0.0 mm 0.00 in0.0 mm
12:23 PM 82.8°F28.2°C 69.4°F20.8°C 64% 10.5 mph SE16.9 kmh SE 12.5 mph20.1 kmh 30.04 in1017.3 mb 0.00 in0.0 mm 0.00 in0.0 mm 0.00 in0.0 mm
12:22 PM 82.8°F28.2°C 69.8°F21.0°C 65% 8.9 mph ESE14.3 kmh ESE 10.3 mph16.6 kmh 30.04 in1017.3 mb 0.00 in0.0 mm 0.00 in0.0 mm 0.00 in0.0 mm
12:21 PM 82.9°F28.3°C 69.9°F21.1°C 65% 5.6 mph ESE9.0 kmh ESE 10.3 mph16.6 kmh 30.03 in1016.9 mb 0.00 in0.0 mm 0.00 in0.0 mm 0.00 in0.0 mm
12:20 PM 82.9°F28.3°C 69.9°F21.1°C 65% 3.8 mph E6.1 kmh E 8.1 mph13.0 kmh 30.03 in1016.9 mb 0.00 in0.0 mm 0.00 in0.0 mm 0.00 in0.0 mm
12:19 PM 82.8°F28.2°C 69.8°F21.0°C 65% 8.9 mph ESE14.3 kmh ESE 11.4 mph18.3 kmh 30.03 in1016.9 mb 0.00 in0.0 mm 0.00 in0.0 mm 0.00 in0.0 mm
12:18 PM 82.8°F28.2°C 70.3°F21.3°C 66% 6.9 mph SSE11.1 kmh SSE 9.2 mph14.8 kmh 30.03 in1016.9 mb 0.00 in0.0 mm 0.00 in0.0 mm 0.00 in0.0 mm
12:17 PM 82.9°F28.3°C 70.3°F21.3°C 66% 8.1 mph ESE13.0 kmh ESE 11.4 mph18.3 kmh 30.04 in1017.3 mb 0.00 in0.0 mm 0.00 in0.0 mm 0.00 in0.0 mm
12:16 PM 82.8°F28.2°C 70.3°F21.3°C 66% 3.8 mph ENE6.1 kmh ENE 5.8 mph9.3 kmh 30.03 in1016.9 mb 0.00 in0.0 mm 0.00 in0.0 mm 0.00 in0.0 mm
12:15 PM 82.8°F28.2°C 69.8°F21.0°C 65% 4.9 mph E7.9 kmh E 8.1 mph13.0 kmh 30.04 in1017.3 mb 0.00 in0.0 mm 0.00 in0.0 mm 0.00 in0.0 mm
12:14 PM 82.8°F28.2°C 69.8°F21.0°C 65% 1.1 mph SW1.8 kmh SW 2.2 mph3.5 kmh 30.04 in1017.3 mb 0.00 in0.0 mm 0.00 in0.0 mm 0.00 in0.0 mm
12:13 PM 82.8°F28.2°C 69.4°F20.8°C 64% 9.2 mph ENE14.8 kmh ENE 10.3 mph16.6 kmh 30.03 in1016.9 mb 0.00 in0.0 mm 0.00 in0.0 mm 0.00 in0.0 mm
12:12 PM 82.9°F28.3°C 70.3°F21.3°C 66% 2.2 mph SE3.5 kmh SE 3.4 mph5.5 kmh 30.04 in1017.3 mb 0.00 in0.0 mm 0.00 in0.0 mm 0.00 in0.0 mm
12:11 PM 82.9°F28.3°C 69.9°F21.1°C 65% 7.8 mph ESE12.6 kmh ESE 9.2 mph14.8 kmh 30.03 in1016.9 mb 0.00 in0.0 mm 0.00 in0.0 mm 0.00 in0.0 mm
12:10 PM 82.9°F28.3°C 69.9°F21.1°C 65% 4.5 mph E7.2 kmh E 8.1 mph13.0 kmh 30.04 in1017.3 mb 0.00 in0.0 mm 0.00 in0.0 mm 0.00 in0.0 mm
12:09 PM 82.9°F28.3°C 70.3°F21.3°C 66% 4.5 mph E7.2 kmh E 8.1 mph13.0 kmh 30.04 in1017.3 mb 0.00 in0.0 mm 0.00 in0.0 mm 0.00 in0.0 mm
12:08 PM 82.9°F28.3°C 69.9°F21.1°C 65% 5.4 mph NE8.7 kmh NE 8.1 mph13.0 kmh 30.04 in1017.3 mb 0.00 in0.0 mm 0.00 in0.0 mm 0.00 in0.0 mm
12:07 PM 82.8°F28.2°C 70.7°F21.5°C 67% 3.8 mph NE6.1 kmh NE 5.8 mph9.3 kmh 30.03 in1016.9 mb 0.00 in0.0 mm 0.00 in0.0 mm 0.00 in0.0 mm
12:06 PM 82.6°F28.1°C 70.1°F21.2°C 66% 2.2 mph E3.5 kmh E 3.4 mph5.5 kmh 30.04 in1017.3 mb 0.00 in0.0 mm 0.00 in0.0 mm 0.00 in0.0 mm
12:05 PM 82.6°F28.1°C 70.5°F21.4°C 67% 2.9 mph SE4.7 kmh SE 3.4 mph5.5 kmh 30.04 in1017.3 mb 0.00 in0.0 mm 0.00 in0.0 mm 0.00 in0.0 mm
12:04 PM 82.6°F28.1°C 70.5°F21.4°C 67% 5.8 mph E9.3 kmh E 8.1 mph13.0 kmh 30.04 in1017.3 mb 0.00 in0.0 mm 0.00 in0.0 mm 0.00 in0.0 mm
12:03 PM 82.6°F28.1°C 70.5°F21.4°C 67% 3.8 mph SSW6.1 kmh SSW 5.8 mph9.3 kmh 30.04 in1017.3 mb 0.00 in0.0 mm 0.00 in0.0 mm 0.00 in0.0 mm
12:02 PM 82.6°F28.1°C 70.5°F21.4°C 67% 6.5 mph ESE10.5 kmh ESE 13.6 mph21.9 kmh 30.04 in1017.3 mb 0.00 in0.0 mm 0.00 in0.0 mm 0.00 in0.0 mm
12:01 PM 82.4°F28.0°C 70.3°F21.3°C 67% 4.7 mph ENE7.6 kmh ENE 6.9 mph11.1 kmh 30.04 in1017.3 mb 0.00 in0.0 mm 0.00 in0.0 mm 0.00 in0.0 mm
12:00 PM 82.4°F28.0°C 69.9°F21.1°C 66% 4.0 mph NE6.4 kmh NE 6.9 mph11.1 kmh 30.04 in1017.3 mb 0.00 in0.0 mm 0.00 in0.0 mm 0.00 in0.0 mm
11:59 AM 82.6°F28.1°C 70.1°F21.2°C 66% 4.5 mph NE7.2 kmh NE 6.9 mph11.1 kmh 30.04 in1017.3 mb 0.00 in0.0 mm 0.00 in0.0 mm 0.00 in0.0 mm
11:58 AM 82.8°F28.2°C 69.8°F21.0°C 65% 6.9 mph ENE11.1 kmh ENE 10.3 mph16.6 kmh 30.04 in1017.3 mb 0.00 in0.0 mm 0.00 in0.0 mm 0.00 in0.0 mm
11:57 AM 82.9°F28.3°C 70.3°F21.3°C 66% 9.2 mph ESE14.8 kmh ESE 11.4 mph18.3 kmh 30.03 in1016.9 mb 0.00 in0.0 mm 0.00 in0.0 mm 0.00 in0.0 mm
11:56 AM 82.9°F28.3°C 69.9°F21.1°C 65% 10.5 mph E16.9 kmh E 13.6 mph21.9 kmh 30.04 in1017.3 mb 0.00 in0.0 mm 0.00 in0.0 mm 0.00 in0.0 mm
11:55 AM 82.9°F28.3°C 70.3°F21.3°C 66% 5.1 mph S8.2 kmh S 6.9 mph11.1 kmh 30.04 in1017.3 mb 0.00 in0.0 mm 0.00 in0.0 mm 0.00 in0.0 mm
11:54 AM 82.9°F28.3°C 70.3°F21.3°C 66% 5.6 mph SE9.0 kmh SE 8.1 mph13.0 kmh 30.03 in1016.9 mb 0.00 in0.0 mm 0.00 in0.0 mm 0.00 in0.0 mm
11:53 AM 82.8°F28.2°C 70.3°F21.3°C 66% 7.6 mph E12.2 kmh E 9.2 mph14.8 kmh 30.04 in1017.3 mb 0.00 in0.0 mm 0.00 in0.0 mm 0.00 in0.0 mm
11:52 AM 82.6°F28.1°C 70.1°F21.2°C 66% 4.5 mph E7.2 kmh E 6.9 mph11.1 kmh 30.03 in1016.9 mb 0.00 in0.0 mm 0.00 in0.0 mm 0.00 in0.0 mm
11:51 AM 82.4°F28.0°C 69.9°F21.1°C 66% 2.7 mph NE4.3 kmh NE 6.9 mph11.1 kmh 30.04 in1017.3 mb 0.00 in0.0 mm 0.00 in0.0 mm 0.00 in0.0 mm
11:50 AM 82.4°F28.0°C 69.4°F20.8°C 65% 5.8 mph SE9.3 kmh SE 9.2 mph14.8 kmh 30.03 in1016.9 mb 0.00 in0.0 mm 0.00 in0.0 mm 0.00 in0.0 mm
11:49 AM 82.2°F27.9°C 69.7°F20.9°C 66% 7.6 mph SE12.2 kmh SE 10.3 mph16.6 kmh 30.04 in1017.3 mb 0.00 in0.0 mm 0.00 in0.0 mm 0.00 in0.0 mm
11:48 AM 82.4°F28.0°C 69.4°F20.8°C 65% 8.3 mph SE13.4 kmh SE 9.2 mph14.8 kmh 30.04 in1017.3 mb 0.00 in0.0 mm 0.00 in0.0 mm 0.00 in0.0 mm
11:47 AM 82.2°F27.9°C 69.7°F20.9°C 66% 10.1 mph ESE16.3 kmh ESE 12.5 mph20.1 kmh 30.04 in1017.3 mb 0.00 in0.0 mm 0.00 in0.0 mm 0.00 in0.0 mm
11:46 AM 82.4°F28.0°C 69.9°F21.1°C 66% 9.6 mph E15.4 kmh E 11.4 mph18.3 kmh 30.03 in1016.9 mb 0.00 in0.0 mm 0.00 in0.0 mm 0.00 in0.0 mm
11:45 AM 82.4°F28.0°C 69.9°F21.1°C 66% 9.4 mph ESE15.1 kmh ESE 11.4 mph18.3 kmh 30.04 in1017.3 mb 0.00 in0.0 mm 0.00 in0.0 mm 0.00 in0.0 mm
11:44 AM 82.2°F27.9°C 69.7°F20.9°C 66% 4.5 mph NE7.2 kmh NE 5.8 mph9.3 kmh 30.04 in1017.3 mb 0.00 in0.0 mm 0.00 in0.0 mm 0.00 in0.0 mm
11:43 AM 82.4°F28.0°C 69.4°F20.8°C 65% 10.5 mph E16.9 kmh E 12.5 mph20.1 kmh 30.03 in1016.9 mb 0.00 in0.0 mm 0.00 in0.0 mm 0.00 in0.0 mm
11:42 AM 82.4°F28.0°C 69.9°F21.1°C 66% 4.5 mph E7.2 kmh E 6.9 mph11.1 kmh 30.04 in1017.3 mb 0.00 in0.0 mm 0.00 in0.0 mm 0.00 in0.0 mm
11:41 AM 82.6°F28.1°C 70.1°F21.2°C 66% 6.7 mph ENE10.8 kmh ENE 10.3 mph16.6 kmh 30.03 in1016.9 mb 0.00 in0.0 mm 0.00 in0.0 mm 0.00 in0.0 mm
11:40 AM 82.4°F28.0°C 69.4°F20.8°C 65% 5.1 mph ESE8.2 kmh ESE 8.1 mph13.0 kmh 30.04 in1017.3 mb 0.00 in0.0 mm 0.00 in0.0 mm 0.00 in0.0 mm
11:39 AM 82.6°F28.1°C 70.1°F21.2°C 66% 9.2 mph E14.8 kmh E 11.4 mph18.3 kmh 30.04 in1017.3 mb 0.00 in0.0 mm 0.00 in0.0 mm 0.00 in0.0 mm
11:38 AM 82.6°F28.1°C 70.1°F21.2°C 66% 12.3 mph E19.8 kmh E 14.8 mph23.8 kmh 30.04 in1017.3 mb 0.00 in0.0 mm 0.00 in0.0 mm 0.00 in0.0 mm
11:37 AM 82.6°F28.1°C 70.5°F21.4°C 67% 2.2 mph E3.5 kmh E 9.2 mph14.8 kmh 30.04 in1017.3 mb 0.00 in0.0 mm 0.00 in0.0 mm 0.00 in0.0 mm
11:36 AM 82.6°F28.1°C 70.1°F21.2°C 66% 4.0 mph E6.4 kmh E 8.1 mph13.0 kmh 30.04 in1017.3 mb 0.00 in0.0 mm 0.00 in0.0 mm 0.00 in0.0 mm
11:35 AM 82.6°F28.1°C 70.1°F21.2°C 66% 4.5 mph ESE7.2 kmh ESE 6.9 mph11.1 kmh 30.04 in1017.3 mb 0.00 in0.0 mm 0.00 in0.0 mm 0.00 in0.0 mm
11:34 AM 82.6°F28.1°C 69.6°F20.9°C 65% 9.4 mph E15.1 kmh E 10.3 mph16.6 kmh 30.03 in1016.9 mb 0.00 in0.0 mm 0.00 in0.0 mm 0.00 in0.0 mm
11:33 AM 82.6°F28.1°C 69.6°F20.9°C 65% 4.5 mph E7.2 kmh E 6.9 mph11.1 kmh 30.03 in1016.9 mb 0.00 in0.0 mm 0.00 in0.0 mm 0.00 in0.0 mm
11:32 AM 82.4°F28.0°C 69.4°F20.8°C 65% 6.0 mph E9.7 kmh E 6.9 mph11.1 kmh 30.04 in1017.3 mb 0.00 in0.0 mm 0.00 in0.0 mm 0.00 in0.0 mm
11:31 AM 82.4°F28.0°C 69.4°F20.8°C 65% 8.9 mph E14.3 kmh E 10.3 mph16.6 kmh 30.04 in1017.3 mb 0.00 in0.0 mm 0.00 in0.0 mm 0.00 in0.0 mm
11:30 AM 82.4°F28.0°C 69.4°F20.8°C 65% 3.6 mph E5.8 kmh E 6.9 mph11.1 kmh 30.04 in1017.3 mb 0.00 in0.0 mm 0.00 in0.0 mm 0.00 in0.0 mm
11:29 AM 82.4°F28.0°C 69.4°F20.8°C 65% 6.5 mph NE10.5 kmh NE 10.3 mph16.6 kmh 30.03 in1016.9 mb 0.00 in0.0 mm 0.00 in0.0 mm 0.00 in0.0 mm
11:28 AM 82.6°F28.1°C 70.1°F21.2°C 66% 2.9 mph NE4.7 kmh NE 5.8 mph9.3 kmh 30.03 in1016.9 mb 0.00 in0.0 mm 0.00 in0.0 mm 0.00 in0.0 mm
11:27 AM 82.6°F28.1°C 69.6°F20.9°C 65% 10.7 mph E17.2 kmh E 11.4 mph18.3 kmh 30.03 in1016.9 mb 0.00 in0.0 mm 0.00 in0.0 mm 0.00 in0.0 mm
11:26 AM 82.6°F28.1°C 69.6°F20.9°C 65% 9.6 mph SE15.4 kmh SE 12.5 mph20.1 kmh 30.04 in1017.3 mb 0.00 in0.0 mm 0.00 in0.0 mm 0.00 in0.0 mm
11:25 AM 82.4°F28.0°C 69.4°F20.8°C 65% 7.2 mph E11.6 kmh E 9.2 mph14.8 kmh 30.03 in1016.9 mb 0.00 in0.0 mm 0.00 in0.0 mm 0.00 in0.0 mm
11:24 AM 82.4°F28.0°C 69.4°F20.8°C 65% 6.9 mph E11.1 kmh E 8.1 mph13.0 kmh 30.03 in1016.9 mb 0.00 in0.0 mm 0.00 in0.0 mm 0.00 in0.0 mm
11:23 AM 82.4°F28.0°C 69.4°F20.8°C 65% 5.4 mph E8.7 kmh E 8.1 mph13.0 kmh 30.03 in1016.9 mb 0.00 in0.0 mm 0.00 in0.0 mm 0.00 in0.0 mm
11:22 AM 82.6°F28.1°C 69.6°F20.9°C 65% 7.6 mph NE12.2 kmh NE 10.3 mph16.6 kmh 30.03 in1016.9 mb 0.00 in0.0 mm 0.00 in0.0 mm 0.00 in0.0 mm
11:21 AM 82.6°F28.1°C 69.6°F20.9°C 65% 5.8 mph NE9.3 kmh NE 9.2 mph14.8 kmh 30.03 in1016.9 mb 0.00 in0.0 mm 0.00 in0.0 mm 0.00 in0.0 mm
11:20 AM 82.6°F28.1°C 69.6°F20.9°C 65% 8.1 mph ESE13.0 kmh ESE 10.3 mph16.6 kmh 30.03 in1016.9 mb 0.00 in0.0 mm 0.00 in0.0 mm 0.00 in0.0 mm
11:19 AM 82.4°F28.0°C 69.9°F21.1°C 66% 4.7 mph E7.6 kmh E 6.9 mph11.1 kmh 30.03 in1016.9 mb 0.00 in0.0 mm 0.00 in0.0 mm 0.00 in0.0 mm
11:18 AM 82.2°F27.9°C 69.7°F20.9°C 66% 5.8 mph E9.3 kmh E 6.9 mph11.1 kmh 30.03 in1016.9 mb 0.00 in0.0 mm 0.00 in0.0 mm 0.00 in0.0 mm
11:17 AM 82.2°F27.9°C 70.1°F21.2°C 67% 4.5 mph E7.2 kmh E 5.8 mph9.3 kmh 30.03 in1016.9 mb 0.00 in0.0 mm 0.00 in0.0 mm 0.00 in0.0 mm
11:16 AM 82.0°F27.8°C 69.9°F21.1°C 67% 3.4 mph E5.5 kmh E 4.5 mph7.2 kmh 30.03 in1016.9 mb 0.00 in0.0 mm 0.00 in0.0 mm 0.00 in0.0 mm
11:15 AM 82.0°F27.8°C 69.5°F20.8°C 66% 8.9 mph ENE14.3 kmh ENE 11.4 mph18.3 kmh 30.03 in1016.9 mb 0.00 in0.0 mm 0.00 in0.0 mm 0.00 in0.0 mm
11:14 AM 82.0°F27.8°C 69.5°F20.8°C 66% 9.6 mph SE15.4 kmh SE 12.5 mph20.1 kmh 30.03 in1016.9 mb 0.00 in0.0 mm 0.00 in0.0 mm 0.00 in0.0 mm
11:13 AM 82.0°F27.8°C 69.5°F20.8°C 66% 12.1 mph SE19.5 kmh SE 14.8 mph23.8 kmh 30.04 in1017.3 mb 0.00 in0.0 mm 0.00 in0.0 mm 0.00 in0.0 mm
11:12 AM 82.0°F27.8°C 69.5°F20.8°C 66% 7.4 mph NE11.9 kmh NE 9.2 mph14.8 kmh 30.03 in1016.9 mb 0.00 in0.0 mm 0.00 in0.0 mm 0.00 in0.0 mm
11:11 AM 82.0°F27.8°C 69.5°F20.8°C 66% 6.0 mph E9.7 kmh E 11.4 mph18.3 kmh 30.03 in1016.9 mb 0.00 in0.0 mm 0.00 in0.0 mm 0.00 in0.0 mm
11:10 AM 82.2°F27.9°C 69.7°F20.9°C 66% 5.4 mph E8.7 kmh E 8.1 mph13.0 kmh 30.04 in1017.3 mb 0.00 in0.0 mm 0.00 in0.0 mm 0.00 in0.0 mm
11:09 AM 82.4°F28.0°C 70.8°F21.6°C 68% 5.4 mph E8.7 kmh E 8.1 mph13.0 kmh 30.04 in1017.3 mb 0.00 in0.0 mm 0.00 in0.0 mm 0.00 in0.0 mm
11:08 AM 82.4°F28.0°C 70.3°F21.3°C 67% 5.4 mph E8.7 kmh E 6.9 mph11.1 kmh 30.03 in1016.9 mb 0.00 in0.0 mm 0.00 in0.0 mm 0.00 in0.0 mm
11:07 AM 82.4°F28.0°C 69.9°F21.1°C 66% 4.7 mph E7.6 kmh E 6.9 mph11.1 kmh 30.03 in1016.9 mb 0.00 in0.0 mm 0.00 in0.0 mm 0.00 in0.0 mm
11:06 AM 82.6°F28.1°C 70.1°F21.2°C 66% 5.1 mph ENE8.2 kmh ENE 10.3 mph16.6 kmh 30.03 in1016.9 mb 0.00 in0.0 mm 0.00 in0.0 mm 0.00 in0.0 mm
11:05 AM 82.6°F28.1°C 70.1°F21.2°C 66% 6.5 mph ENE10.5 kmh ENE 6.9 mph11.1 kmh 30.03 in1016.9 mb 0.00 in0.0 mm 0.00 in0.0 mm 0.00 in0.0 mm
11:04 AM 82.6°F28.1°C 70.1°F21.2°C 66% 5.6 mph E9.0 kmh E 6.9 mph11.1 kmh 30.03 in1016.9 mb 0.00 in0.0 mm 0.00 in0.0 mm 0.00 in0.0 mm
11:03 AM 82.4°F28.0°C 69.9°F21.1°C 66% 10.1 mph ESE16.3 kmh ESE 11.4 mph18.3 kmh 30.03 in1016.9 mb 0.00 in0.0 mm 0.00 in0.0 mm 0.00 in0.0 mm
11:02 AM 82.4°F28.0°C 69.9°F21.1°C 66% 5.8 mph E9.3 kmh E 8.1 mph13.0 kmh 30.03 in1016.9 mb 0.00 in0.0 mm 0.00 in0.0 mm 0.00 in0.0 mm
11:01 AM 82.4°F28.0°C 69.4°F20.8°C 65% 11.2 mph E18.0 kmh E 12.5 mph20.1 kmh 30.03 in1016.9 mb 0.00 in0.0 mm 0.00 in0.0 mm 0.00 in0.0 mm
11:00 AM 82.2°F27.9°C 69.2°F20.7°C 65% 2.9 mph E4.7 kmh E 4.5 mph7.2 kmh 30.03 in1016.9 mb 0.00 in0.0 mm 0.00 in0.0 mm 0.00 in0.0 mm
10:59 AM 82.2°F27.9°C 69.2°F20.7°C 65% 9.6 mph E15.4 kmh E 10.3 mph16.6 kmh 30.04 in1017.3 mb 0.00 in0.0 mm 0.00 in0.0 mm 0.00 in0.0 mm
10:58 AM 82.2°F27.9°C 69.2°F20.7°C 65% 7.6 mph E12.2 kmh E 9.2 mph14.8 kmh 30.03 in1016.9 mb 0.00 in0.0 mm 0.00 in0.0 mm 0.00 in0.0 mm
10:57 AM 82.2°F27.9°C 69.2°F20.7°C 65% 2.9 mph ENE4.7 kmh ENE 5.8 mph9.3 kmh 30.03 in1016.9 mb 0.00 in0.0 mm 0.00 in0.0 mm 0.00 in0.0 mm
10:56 AM 82.2°F27.9°C 68.8°F20.4°C 64% 6.9 mph E11.1 kmh E 8.1 mph13.0 kmh 30.03 in1016.9 mb 0.00 in0.0 mm 0.00 in0.0 mm 0.00 in0.0 mm
10:55 AM 82.2°F27.9°C 68.8°F20.4°C 64% 5.1 mph E8.2 kmh E 6.9 mph11.1 kmh 30.03 in1016.9 mb 0.00 in0.0 mm 0.00 in0.0 mm 0.00 in0.0 mm
10:54 AM 82.2°F27.9°C 68.8°F20.4°C 64% 8.9 mph ESE14.3 kmh ESE 10.3 mph16.6 kmh 30.03 in1016.9 mb 0.00 in0.0 mm 0.00 in0.0 mm 0.00 in0.0 mm
10:53 AM 82.2°F27.9°C 68.8°F20.4°C 64% 4.3 mph E6.9 kmh E 8.1 mph13.0 kmh 30.03 in1016.9 mb 0.00 in0.0 mm 0.00 in0.0 mm 0.00 in0.0 mm
10:52 AM 82.4°F28.0°C 68.5°F20.3°C 63% 8.9 mph E14.3 kmh E 10.3 mph16.6 kmh 30.04 in1017.3 mb 0.00 in0.0 mm 0.00 in0.0 mm 0.00 in0.0 mm
10:51 AM 82.4°F28.0°C 69.0°F20.6°C 64% 6.5 mph SE10.5 kmh SE 8.1 mph13.0 kmh 30.03 in1016.9 mb 0.00 in0.0 mm 0.00 in0.0 mm 0.00 in0.0 mm
10:50 AM 82.2°F27.9°C 68.8°F20.4°C 64% 4.5 mph E7.2 kmh E 6.9 mph11.1 kmh 30.03 in1016.9 mb 0.00 in0.0 mm 0.00 in0.0 mm 0.00 in0.0 mm
10:49 AM 82.2°F27.9°C 68.8°F20.4°C 64% 7.6 mph E12.2 kmh E 10.3 mph16.6 kmh 30.03 in1016.9 mb 0.00 in0.0 mm 0.00 in0.0 mm 0.00 in0.0 mm
10:48 AM 82.2°F27.9°C 68.8°F20.4°C 64% 6.3 mph E10.1 kmh E 8.1 mph13.0 kmh 30.04 in1017.3 mb 0.00 in0.0 mm 0.00 in0.0 mm 0.00 in0.0 mm
10:47 AM 82.2°F27.9°C 68.8°F20.4°C 64% 9.8 mph E15.8 kmh E 12.5 mph20.1 kmh 30.03 in1016.9 mb 0.00 in0.0 mm 0.00 in0.0 mm 0.00 in0.0 mm
10:46 AM 82.0°F27.8°C 68.6°F20.3°C 64% 6.5 mph E10.5 kmh E 6.9 mph11.1 kmh 30.03 in1016.9 mb 0.00 in0.0 mm 0.00 in0.0 mm 0.00 in0.0 mm
10:45 AM 82.2°F27.9°C 68.8°F20.4°C 64% 11.6 mph ESE18.7 kmh ESE 13.6 mph21.9 kmh 30.03 in1016.9 mb 0.00 in0.0 mm 0.00 in0.0 mm 0.00 in0.0 mm
10:44 AM 82.2°F27.9°C 68.3°F20.2°C 63% 9.8 mph E15.8 kmh E 12.5 mph20.1 kmh 30.03 in1016.9 mb 0.00 in0.0 mm 0.00 in0.0 mm 0.00 in0.0 mm
10:43 AM 82.6°F28.1°C 68.7°F20.4°C 63% 9.4 mph E15.1 kmh E 11.4 mph18.3 kmh 30.03 in1016.9 mb 0.00 in0.0 mm 0.00 in0.0 mm 0.00 in0.0 mm
10:42 AM 82.6°F28.1°C 69.2°F20.7°C 64% 6.0 mph SE9.7 kmh SE 8.1 mph13.0 kmh 30.04 in1017.3 mb 0.00 in0.0 mm 0.00 in0.0 mm 0.00 in0.0 mm
10:41 AM 82.6°F28.1°C 69.2°F20.7°C 64% 5.4 mph E8.7 kmh E 8.1 mph13.0 kmh 30.03 in1016.9 mb 0.00 in0.0 mm 0.00 in0.0 mm 0.00 in0.0 mm
10:40 AM 82.6°F28.1°C 69.2°F20.7°C 64% 3.8 mph E6.1 kmh E 5.8 mph9.3 kmh 30.04 in1017.3 mb 0.00 in0.0 mm 0.00 in0.0 mm 0.00 in0.0 mm
10:39 AM 82.8°F28.2°C 69.4°F20.8°C 64% 8.1 mph E13.0 kmh E 11.4 mph18.3 kmh 30.04 in1017.3 mb 0.00 in0.0 mm 0.00 in0.0 mm 0.00 in0.0 mm
10:38 AM 82.8°F28.2°C 70.3°F21.3°C 66% 1.3 mph E2.1 kmh E 2.2 mph3.5 kmh 30.03 in1016.9 mb 0.00 in0.0 mm 0.00 in0.0 mm 0.00 in0.0 mm
10:37 AM 82.8°F28.2°C 70.3°F21.3°C 66% 4.9 mph E7.9 kmh E 8.1 mph13.0 kmh 30.02 in1016.6 mb 0.00 in0.0 mm 0.00 in0.0 mm 0.00 in0.0 mm
10:36 AM 82.8°F28.2°C 69.8°F21.0°C 65% 3.8 mph NE6.1 kmh NE 5.8 mph9.3 kmh 30.03 in1016.9 mb 0.00 in0.0 mm 0.00 in0.0 mm 0.00 in0.0 mm
10:35 AM 82.6°F28.1°C 69.2°F20.7°C 64% 9.4 mph E15.1 kmh E 11.4 mph18.3 kmh 30.02 in1016.6 mb 0.00 in0.0 mm 0.00 in0.0 mm 0.00 in0.0 mm
10:34 AM 82.4°F28.0°C 69.4°F20.8°C 65% 2.7 mph E4.3 kmh E 6.9 mph11.1 kmh 30.03 in1016.9 mb 0.00 in0.0 mm 0.00 in0.0 mm 0.00 in0.0 mm
10:33 AM 82.2°F27.9°C 69.2°F20.7°C 65% 1.3 mph NE2.1 kmh NE 3.4 mph5.5 kmh 30.03 in1016.9 mb 0.00 in0.0 mm 0.00 in0.0 mm 0.00 in0.0 mm
10:32 AM 82.0°F27.8°C 68.6°F20.3°C 64% 5.6 mph ESE9.0 kmh ESE 6.9 mph11.1 kmh 30.03 in1016.9 mb 0.00 in0.0 mm 0.00 in0.0 mm 0.00 in0.0 mm
10:31 AM 82.0°F27.8°C 68.1°F20.1°C 63% 10.3 mph ESE16.6 kmh ESE 11.4 mph18.3 kmh 30.02 in1016.6 mb 0.00 in0.0 mm 0.00 in0.0 mm 0.00 in0.0 mm
10:30 AM 82.0°F27.8°C 68.6°F20.3°C 64% 6.0 mph E9.7 kmh E 9.2 mph14.8 kmh 30.03 in1016.9 mb 0.00 in0.0 mm 0.00 in0.0 mm 0.00 in0.0 mm
10:29 AM 82.2°F27.9°C 69.2°F20.7°C 65% 6.3 mph ESE10.1 kmh ESE 6.9 mph11.1 kmh 30.03 in1016.9 mb 0.00 in0.0 mm 0.00 in0.0 mm 0.00 in0.0 mm
10:28 AM 82.2°F27.9°C 69.2°F20.7°C 65% 4.5 mph SE7.2 kmh SE 5.8 mph9.3 kmh 30.03 in1016.9 mb 0.00 in0.0 mm 0.00 in0.0 mm 0.00 in0.0 mm
10:27 AM 82.2°F27.9°C 68.8°F20.4°C 64% 7.8 mph ESE12.6 kmh ESE 10.3 mph16.6 kmh 30.03 in1016.9 mb 0.00 in0.0 mm 0.00 in0.0 mm 0.00 in0.0 mm
10:26 AM 82.2°F27.9°C 69.2°F20.7°C 65% 6.3 mph E10.1 kmh E 8.1 mph13.0 kmh 30.03 in1016.9 mb 0.00 in0.0 mm 0.00 in0.0 mm 0.00 in0.0 mm
10:25 AM 82.2°F27.9°C 69.7°F20.9°C 66% 3.4 mph E5.5 kmh E 4.5 mph7.2 kmh 30.02 in1016.6 mb 0.00 in0.0 mm 0.00 in0.0 mm 0.00 in0.0 mm
10:24 AM 82.2°F27.9°C 69.7°F20.9°C 66% 2.7 mph E4.3 kmh E 4.5 mph7.2 kmh 30.02 in1016.6 mb 0.00 in0.0 mm 0.00 in0.0 mm 0.00 in0.0 mm
10:23 AM 82.2°F27.9°C 69.2°F20.7°C 65% 9.4 mph E15.1 kmh E 11.4 mph18.3 kmh 30.03 in1016.9 mb 0.00 in0.0 mm 0.00 in0.0 mm 0.00 in0.0 mm
10:22 AM 82.2°F27.9°C 69.2°F20.7°C 65% 6.3 mph E10.1 kmh E 8.1 mph13.0 kmh 30.03 in1016.9 mb 0.00 in0.0 mm 0.00 in0.0 mm 0.00 in0.0 mm
10:21 AM 82.4°F28.0°C 69.4°F20.8°C 65% 5.4 mph E8.7 kmh E 6.9 mph11.1 kmh 30.03 in1016.9 mb 0.00 in0.0 mm 0.00 in0.0 mm 0.00 in0.0 mm
10:20 AM 82.4°F28.0°C 69.9°F21.1°C 66% 3.8 mph E6.1 kmh E 5.8 mph9.3 kmh 30.02 in1016.6 mb 0.00 in0.0 mm 0.00 in0.0 mm 0.00 in0.0 mm
10:19 AM 82.2°F27.9°C 69.7°F20.9°C 66% 4.9 mph E7.9 kmh E 6.9 mph11.1 kmh 30.02 in1016.6 mb 0.00 in0.0 mm 0.00 in0.0 mm 0.00 in0.0 mm
10:18 AM 82.2°F27.9°C 69.7°F20.9°C 66% 3.4 mph SE5.5 kmh SE 4.5 mph7.2 kmh 30.02 in1016.6 mb 0.00 in0.0 mm 0.00 in0.0 mm 0.00 in0.0 mm
10:17 AM 82.0°F27.8°C 69.5°F20.8°C 66% 7.2 mph ESE11.6 kmh ESE 8.1 mph13.0 kmh 30.02 in1016.6 mb 0.00 in0.0 mm 0.00 in0.0 mm 0.00 in0.0 mm
10:16 AM 81.9°F27.7°C 69.0°F20.6°C 65% 6.7 mph E10.8 kmh E 9.2 mph14.8 kmh 30.03 in1016.9 mb 0.00 in0.0 mm 0.00 in0.0 mm 0.00 in0.0 mm
10:15 AM 81.9°F27.7°C 69.4°F20.8°C 66% 2.2 mph NE3.5 kmh NE 4.5 mph7.2 kmh 30.03 in1016.9 mb 0.00 in0.0 mm 0.00 in0.0 mm 0.00 in0.0 mm
10:14 AM 81.9°F27.7°C 69.0°F20.6°C 65% 8.5 mph E13.7 kmh E 9.2 mph14.8 kmh 30.03 in1016.9 mb 0.00 in0.0 mm 0.00 in0.0 mm 0.00 in0.0 mm
10:13 AM 81.9°F27.7°C 69.0°F20.6°C 65% 7.4 mph E11.9 kmh E 10.3 mph16.6 kmh 30.02 in1016.6 mb 0.00 in0.0 mm 0.00 in0.0 mm 0.00 in0.0 mm
10:12 AM 82.0°F27.8°C 69.5°F20.8°C 66% 8.9 mph E14.3 kmh E 10.3 mph16.6 kmh 30.03 in1016.9 mb 0.00 in0.0 mm 0.00 in0.0 mm 0.00 in0.0 mm
10:11 AM 82.2°F27.9°C 69.7°F20.9°C 66% 6.9 mph ESE11.1 kmh ESE 8.1 mph13.0 kmh 30.02 in1016.6 mb 0.00 in0.0 mm 0.00 in0.0 mm 0.00 in0.0 mm
10:10 AM 82.2°F27.9°C 69.2°F20.7°C 65% 8.3 mph E13.4 kmh E 11.4 mph18.3 kmh 30.03 in1016.9 mb 0.00 in0.0 mm 0.00 in0.0 mm 0.00 in0.0 mm
10:09 AM 82.4°F28.0°C 69.4°F20.8°C 65% 9.6 mph E15.4 kmh E 11.4 mph18.3 kmh 30.03 in1016.9 mb 0.00 in0.0 mm 0.00 in0.0 mm 0.00 in0.0 mm
10:08 AM 82.4°F28.0°C 69.4°F20.8°C 65% 10.1 mph SE16.3 kmh SE 11.4 mph18.3 kmh 30.02 in1016.6 mb 0.00 in0.0 mm 0.00 in0.0 mm 0.00 in0.0 mm
10:07 AM 82.6°F28.1°C 69.2°F20.7°C 64% 4.0 mph E6.4 kmh E 8.1 mph13.0 kmh 30.03 in1016.9 mb 0.00 in0.0 mm 0.00 in0.0 mm 0.00 in0.0 mm
10:06 AM 82.6°F28.1°C 68.7°F20.4°C 63% 9.6 mph ENE15.4 kmh ENE 10.3 mph16.6 kmh 30.03 in1016.9 mb 0.00 in0.0 mm 0.00 in0.0 mm 0.00 in0.0 mm
10:05 AM 82.8°F28.2°C 69.4°F20.8°C 64% 7.2 mph E11.6 kmh E 10.3 mph16.6 kmh 30.02 in1016.6 mb 0.00 in0.0 mm 0.00 in0.0 mm 0.00 in0.0 mm
10:04 AM 82.8°F28.2°C 68.9°F20.5°C 63% 8.7 mph E14.0 kmh E 10.3 mph16.6 kmh 30.02 in1016.6 mb 0.00 in0.0 mm 0.00 in0.0 mm 0.00 in0.0 mm
10:03 AM 82.8°F28.2°C 69.4°F20.8°C 64% 2.2 mph SE3.5 kmh SE 4.5 mph7.2 kmh 30.02 in1016.6 mb 0.00 in0.0 mm 0.00 in0.0 mm 0.00 in0.0 mm
10:02 AM 82.8°F28.2°C 69.4°F20.8°C 64% 4.9 mph SSE7.9 kmh SSE 8.1 mph13.0 kmh 30.02 in1016.6 mb 0.00 in0.0 mm 0.00 in0.0 mm 0.00 in0.0 mm
10:01 AM 82.6°F28.1°C 69.6°F20.9°C 65% 4.5 mph ESE7.2 kmh ESE 5.8 mph9.3 kmh 30.02 in1016.6 mb 0.00 in0.0 mm 0.00 in0.0 mm 0.00 in0.0 mm
10:00 AM 82.4°F28.0°C 69.4°F20.8°C 65% 6.5 mph E10.5 kmh E 8.1 mph13.0 kmh 30.02 in1016.6 mb 0.00 in0.0 mm 0.00 in0.0 mm 0.00 in0.0 mm
09:59 AM 82.4°F28.0°C 69.9°F21.1°C 66% 5.4 mph E8.7 kmh E 8.1 mph13.0 kmh 30.02 in1016.6 mb 0.00 in0.0 mm 0.00 in0.0 mm 0.00 in0.0 mm
09:58 AM 82.4°F28.0°C 69.9°F21.1°C 66% 4.0 mph NE6.4 kmh NE 5.8 mph9.3 kmh 30.02 in1016.6 mb 0.00 in0.0 mm 0.00 in0.0 mm 0.00 in0.0 mm
09:57 AM 82.4°F28.0°C 69.4°F20.8°C 65% 8.5 mph E13.7 kmh E 11.4 mph18.3 kmh 30.02 in1016.6 mb 0.00 in0.0 mm 0.00 in0.0 mm 0.00 in0.0 mm
09:56 AM 82.4°F28.0°C 69.9°F21.1°C 66% 9.8 mph E15.8 kmh E 11.4 mph18.3 kmh 30.02 in1016.6 mb 0.00 in0.0 mm 0.00 in0.0 mm 0.00 in0.0 mm
09:55 AM 82.4°F28.0°C 69.4°F20.8°C 65% 8.9 mph ESE14.3 kmh ESE 9.2 mph14.8 kmh 30.02 in1016.6 mb 0.00 in0.0 mm 0.00 in0.0 mm 0.00 in0.0 mm
09:54 AM 82.4°F28.0°C 69.4°F20.8°C 65% 5.4 mph E8.7 kmh E 9.2 mph14.8 kmh 30.02 in1016.6 mb 0.00 in0.0 mm 0.00 in0.0 mm 0.00 in0.0 mm
09:53 AM 82.0°F27.8°C 69.5°F20.8°C 66% 0.9 mph ESE1.4 kmh ESE 1.1 mph1.8 kmh 30.02 in1016.6 mb 0.00 in0.0 mm 0.00 in0.0 mm 0.00 in0.0 mm
09:52 AM 81.9°F27.7°C 69.4°F20.8°C 66% 7.6 mph ESE12.2 kmh ESE 9.2 mph14.8 kmh 30.02 in1016.6 mb 0.00 in0.0 mm 0.00 in0.0 mm 0.00 in0.0 mm
09:51 AM 81.7°F27.6°C 69.7°F20.9°C 67% 4.7 mph SE7.6 kmh SE 8.1 mph13.0 kmh 30.02 in1016.6 mb 0.00 in0.0 mm 0.00 in0.0 mm 0.00 in0.0 mm
09:50 AM 81.5°F27.5°C 69.5°F20.8°C 67% Calm Calm -- 30.02 in1016.6 mb 0.00 in0.0 mm 0.00 in0.0 mm 0.00 in0.0 mm
09:49 AM 81.5°F27.5°C 69.5°F20.8°C 67% 4.0 mph SE6.4 kmh SE 6.9 mph11.1 kmh 30.02 in1016.6 mb 0.00 in0.0 mm 0.00 in0.0 mm 0.00 in0.0 mm
09:48 AM 81.7°F27.6°C 69.7°F20.9°C 67% 6.9 mph E11.1 kmh E 8.1 mph13.0 kmh 30.02 in1016.6 mb 0.00 in0.0 mm 0.00 in0.0 mm 0.00 in0.0 mm
09:47 AM 81.9°F27.7°C 69.4°F20.8°C 66% 5.6 mph E9.0 kmh E 8.1 mph13.0 kmh 30.02 in1016.6 mb 0.00 in0.0 mm 0.00 in0.0 mm 0.00 in0.0 mm
09:46 AM 82.0°F27.8°C 69.5°F20.8°C 66% 5.6 mph SE9.0 kmh SE 5.8 mph9.3 kmh 30.02 in1016.6 mb 0.00 in0.0 mm 0.00 in0.0 mm 0.00 in0.0 mm
09:45 AM 82.2°F27.9°C 69.7°F20.9°C 66% 4.5 mph SE7.2 kmh SE 6.9 mph11.1 kmh 30.02 in1016.6 mb 0.00 in0.0 mm 0.00 in0.0 mm 0.00 in0.0 mm
09:44 AM 82.2°F27.9°C 70.1°F21.2°C 67% 6.5 mph SE10.5 kmh SE 6.9 mph11.1 kmh 30.02 in1016.6 mb 0.00 in0.0 mm 0.00 in0.0 mm 0.00 in0.0 mm
09:43 AM 82.2°F27.9°C 69.7°F20.9°C 66% 9.8 mph E15.8 kmh E 11.4 mph18.3 kmh 30.02 in1016.6 mb 0.00 in0.0 mm 0.00 in0.0 mm 0.00 in0.0 mm
09:42 AM 82.2°F27.9°C 70.1°F21.2°C 67% 2.9 mph NE4.7 kmh NE 4.5 mph7.2 kmh 30.02 in1016.6 mb 0.00 in0.0 mm 0.00 in0.0 mm 0.00 in0.0 mm
09:41 AM 82.2°F27.9°C 70.1°F21.2°C 67% 6.0 mph ESE9.7 kmh ESE 6.9 mph11.1 kmh 30.02 in1016.6 mb 0.00 in0.0 mm 0.00 in0.0 mm 0.00 in0.0 mm
09:40 AM 82.2°F27.9°C 70.1°F21.2°C 67% 2.9 mph E4.7 kmh E 4.5 mph7.2 kmh 30.02 in1016.6 mb 0.00 in0.0 mm 0.00 in0.0 mm 0.00 in0.0 mm
09:39 AM 82.0°F27.8°C 69.5°F20.8°C 66% 6.9 mph E11.1 kmh E 8.1 mph13.0 kmh 30.02 in1016.6 mb 0.00 in0.0 mm 0.00 in0.0 mm 0.00 in0.0 mm
09:38 AM 81.9°F27.7°C 69.4°F20.8°C 66% 2.5 mph E4.0 kmh E 5.8 mph9.3 kmh 30.02 in1016.6 mb 0.00 in0.0 mm 0.00 in0.0 mm 0.00 in0.0 mm
09:37 AM 81.9°F27.7°C 69.8°F21.0°C 67% 4.9 mph E7.9 kmh E 8.1 mph13.0 kmh 30.02 in1016.6 mb 0.00 in0.0 mm 0.00 in0.0 mm 0.00 in0.0 mm
09:36 AM 81.7°F27.6°C 69.7°F20.9°C 67% 5.6 mph SE9.0 kmh SE 6.9 mph11.1 kmh 30.02 in1016.6 mb 0.00 in0.0 mm 0.00 in0.0 mm 0.00 in0.0 mm
09:35 AM 81.5°F27.5°C 69.5°F20.8°C 67% 4.3 mph E6.9 kmh E 6.9 mph11.1 kmh 30.02 in1016.6 mb 0.00 in0.0 mm 0.00 in0.0 mm 0.00 in0.0 mm
09:34 AM 81.5°F27.5°C 69.5°F20.8°C 67% 10.1 mph E16.3 kmh E 14.8 mph23.8 kmh 30.02 in1016.6 mb 0.00 in0.0 mm 0.00 in0.0 mm 0.00 in0.0 mm
09:33 AM 81.5°F27.5°C 69.5°F20.8°C 67% 8.9 mph ESE14.3 kmh ESE 10.3 mph16.6 kmh 30.02 in1016.6 mb 0.00 in0.0 mm 0.00 in0.0 mm 0.00 in0.0 mm
09:32 AM 81.3°F27.4°C 69.3°F20.7°C 67% 7.6 mph ESE12.2 kmh ESE 10.3 mph16.6 kmh 30.02 in1016.6 mb 0.00 in0.0 mm 0.00 in0.0 mm 0.00 in0.0 mm
09:31 AM 81.3°F27.4°C 69.3°F20.7°C 67% 6.9 mph E11.1 kmh E 8.1 mph13.0 kmh 30.02 in1016.6 mb 0.00 in0.0 mm 0.00 in0.0 mm 0.00 in0.0 mm
09:30 AM 81.3°F27.4°C 69.3°F20.7°C 67% 7.4 mph E11.9 kmh E 10.3 mph16.6 kmh 30.02 in1016.6 mb 0.00 in0.0 mm 0.00 in0.0 mm 0.00 in0.0 mm
09:29 AM 81.1°F27.3°C 69.1°F20.6°C 67% 6.9 mph E11.1 kmh E 8.1 mph13.0 kmh 30.01 in1016.3 mb 0.00 in0.0 mm 0.00 in0.0 mm 0.00 in0.0 mm
09:28 AM 81.0°F27.2°C 69.0°F20.6°C 67% 7.4 mph E11.9 kmh E 8.1 mph13.0 kmh 30.02 in1016.6 mb 0.00 in0.0 mm 0.00 in0.0 mm 0.00 in0.0 mm
09:27 AM 81.0°F27.2°C 69.4°F20.8°C 68% 2.7 mph ESE4.3 kmh ESE 3.4 mph5.5 kmh 30.01 in1016.3 mb 0.00 in0.0 mm 0.00 in0.0 mm 0.00 in0.0 mm
09:26 AM 81.0°F27.2°C 69.8°F21.0°C 69% 3.6 mph E5.8 kmh E 4.5 mph7.2 kmh 30.02 in1016.6 mb 0.00 in0.0 mm 0.00 in0.0 mm 0.00 in0.0 mm
09:25 AM 81.0°F27.2°C 69.4°F20.8°C 68% 5.6 mph E9.0 kmh E 6.9 mph11.1 kmh 30.02 in1016.6 mb 0.00 in0.0 mm 0.00 in0.0 mm 0.00 in0.0 mm
09:24 AM 81.1°F27.3°C 69.5°F20.8°C 68% 4.0 mph ESE6.4 kmh ESE 5.8 mph9.3 kmh 30.01 in1016.3 mb 0.00 in0.0 mm 0.00 in0.0 mm 0.00 in0.0 mm
09:23 AM 81.1°F27.3°C 69.5°F20.8°C 68% 7.4 mph E11.9 kmh E 8.1 mph13.0 kmh 30.02 in1016.6 mb 0.00 in0.0 mm 0.00 in0.0 mm 0.00 in0.0 mm
09:22 AM 81.3°F27.4°C 69.7°F20.9°C 68% 5.8 mph E9.3 kmh E 6.9 mph11.1 kmh 30.01 in1016.3 mb 0.00 in0.0 mm 0.00 in0.0 mm 0.00 in0.0 mm
09:21 AM 81.5°F27.5°C 69.9°F21.1°C 68% 7.6 mph E12.2 kmh E 9.2 mph14.8 kmh 30.01 in1016.3 mb 0.00 in0.0 mm 0.00 in0.0 mm 0.00 in0.0 mm
09:20 AM 81.9°F27.7°C 70.3°F21.3°C 68% 4.5 mph ESE7.2 kmh ESE 5.8 mph9.3 kmh 30.02 in1016.6 mb 0.00 in0.0 mm 0.00 in0.0 mm 0.00 in0.0 mm
09:19 AM 82.0°F27.8°C 69.9°F21.1°C 67% 5.4 mph E8.7 kmh E 6.9 mph11.1 kmh 30.01 in1016.3 mb 0.00 in0.0 mm 0.00 in0.0 mm 0.00 in0.0 mm
09:18 AM 82.2°F27.9°C 69.7°F20.9°C 66% 3.1 mph E5.0 kmh E 3.4 mph5.5 kmh 30.01 in1016.3 mb 0.00 in0.0 mm 0.00 in0.0 mm 0.00 in0.0 mm
09:17 AM 82.4°F28.0°C 69.9°F21.1°C 66% 3.8 mph E6.1 kmh E 5.8 mph9.3 kmh 30.01 in1016.3 mb 0.00 in0.0 mm 0.00 in0.0 mm 0.00 in0.0 mm
09:16 AM 82.4°F28.0°C 69.9°F21.1°C 66% 2.2 mph NE3.5 kmh NE 3.4 mph5.5 kmh 30.01 in1016.3 mb 0.00 in0.0 mm 0.00 in0.0 mm 0.00 in0.0 mm
09:15 AM 82.4°F28.0°C 69.9°F21.1°C 66% 3.4 mph E5.5 kmh E 5.8 mph9.3 kmh 30.02 in1016.6 mb 0.00 in0.0 mm 0.00 in0.0 mm 0.00 in0.0 mm
09:14 AM 82.4°F28.0°C 69.9°F21.1°C 66% 3.4 mph E5.5 kmh E 5.8 mph9.3 kmh 30.02 in1016.6 mb 0.00 in0.0 mm 0.00 in0.0 mm 0.00 in0.0 mm
09:13 AM 82.4°F28.0°C 69.9°F21.1°C 66% 8.5 mph E13.7 kmh E 10.3 mph16.6 kmh 30.01 in1016.3 mb 0.00 in0.0 mm 0.00 in0.0 mm 0.00 in0.0 mm
09:12 AM 82.2°F27.9°C 69.7°F20.9°C 66% 3.6 mph ENE5.8 kmh ENE 5.8 mph9.3 kmh 30.01 in1016.3 mb 0.00 in0.0 mm 0.00 in0.0 mm 0.00 in0.0 mm
09:11 AM 82.2°F27.9°C 69.7°F20.9°C 66% 2.2 mph ESE3.5 kmh ESE 2.2 mph3.5 kmh 30.01 in1016.3 mb 0.00 in0.0 mm 0.00 in0.0 mm 0.00 in0.0 mm
09:10 AM 82.2°F27.9°C 70.1°F21.2°C 67% 3.4 mph SSW5.5 kmh SSW 4.5 mph7.2 kmh 30.01 in1016.3 mb 0.00 in0.0 mm 0.00 in0.0 mm 0.00 in0.0 mm
09:09 AM 82.2°F27.9°C 70.1°F21.2°C 67% 5.6 mph E9.0 kmh E 10.3 mph16.6 kmh 30.02 in1016.6 mb 0.00 in0.0 mm 0.00 in0.0 mm 0.00 in0.0 mm
09:08 AM 82.2°F27.9°C 70.1°F21.2°C 67% 6.9 mph E11.1 kmh E 8.1 mph13.0 kmh 30.02 in1016.6 mb 0.00 in0.0 mm 0.00 in0.0 mm 0.00 in0.0 mm
09:07 AM 82.0°F27.8°C 69.9°F21.1°C 67% 2.9 mph ENE4.7 kmh ENE 5.8 mph9.3 kmh 30.01 in1016.3 mb 0.00 in0.0 mm 0.00 in0.0 mm 0.00 in0.0 mm
09:06 AM 81.7°F27.6°C 70.1°F21.2°C 68% 2.5 mph ENE4.0 kmh ENE 4.5 mph7.2 kmh 30.02 in1016.6 mb 0.00 in0.0 mm 0.00 in0.0 mm 0.00 in0.0 mm
09:05 AM 81.5°F27.5°C 69.9°F21.1°C 68% 2.7 mph E4.3 kmh E 3.4 mph5.5 kmh 30.01 in1016.3 mb 0.00 in0.0 mm 0.00 in0.0 mm 0.00 in0.0 mm
09:04 AM 81.1°F27.3°C 69.9°F21.1°C 69% 0.7 mph NE1.1 kmh NE 1.1 mph1.8 kmh 30.02 in1016.6 mb 0.00 in0.0 mm 0.00 in0.0 mm 0.00 in0.0 mm
09:03 AM 81.0°F27.2°C 69.4°F20.8°C 68% 2.9 mph ESE4.7 kmh ESE 3.4 mph5.5 kmh 30.02 in1016.6 mb 0.00 in0.0 mm 0.00 in0.0 mm 0.00 in0.0 mm
09:02 AM 81.0°F27.2°C 69.8°F21.0°C 69% 1.3 mph ENE2.1 kmh ENE 2.2 mph3.5 kmh 30.01 in1016.3 mb 0.00 in0.0 mm 0.00 in0.0 mm 0.00 in0.0 mm
09:01 AM 81.0°F27.2°C 69.8°F21.0°C 69% 5.8 mph E9.3 kmh E 5.8 mph9.3 kmh 30.02 in1016.6 mb 0.00 in0.0 mm 0.00 in0.0 mm 0.00 in0.0 mm
09:00 AM 81.0°F27.2°C 69.8°F21.0°C 69% 0.2 mph ENE0.3 kmh ENE 1.1 mph1.8 kmh 30.01 in1016.3 mb 0.00 in0.0 mm 0.00 in0.0 mm 0.00 in0.0 mm
08:59 AM 81.0°F27.2°C 69.8°F21.0°C 69% 0.7 mph ENE1.1 kmh ENE 1.1 mph1.8 kmh 30.01 in1016.3 mb 0.00 in0.0 mm 0.00 in0.0 mm 0.00 in0.0 mm
08:58 AM 81.0°F27.2°C 69.8°F21.0°C 69% 3.4 mph E5.5 kmh E 3.4 mph5.5 kmh 30.01 in1016.3 mb 0.00 in0.0 mm 0.00 in0.0 mm 0.00 in0.0 mm
08:57 AM 81.0°F27.2°C 69.8°F21.0°C 69% 0.9 mph ENE1.4 kmh ENE 2.2 mph3.5 kmh 30.01 in1016.3 mb 0.00 in0.0 mm 0.00 in0.0 mm 0.00 in0.0 mm
08:56 AM 81.1°F27.3°C 69.9°F21.1°C 69% 5.4 mph E8.7 kmh E 5.8 mph9.3 kmh 30.02 in1016.6 mb 0.00 in0.0 mm 0.00 in0.0 mm 0.00 in0.0 mm
08:55 AM 81.3°F27.4°C 69.7°F20.9°C 68% 3.1 mph E5.0 kmh E 3.4 mph5.5 kmh 30.02 in1016.6 mb 0.00 in0.0 mm 0.00 in0.0 mm 0.00 in0.0 mm
08:54 AM 81.5°F27.5°C 69.9°F21.1°C 68% 6.9 mph E11.1 kmh E 8.1 mph13.0 kmh 30.01 in1016.3 mb 0.00 in0.0 mm 0.00 in0.0 mm 0.00 in0.0 mm
08:53 AM 81.9°F27.7°C 70.3°F21.3°C 68% 5.1 mph E8.2 kmh E 5.8 mph9.3 kmh 30.02 in1016.6 mb 0.00 in0.0 mm 0.00 in0.0 mm 0.00 in0.0 mm
08:52 AM 82.0°F27.8°C 70.4°F21.3°C 68% 0.7 mph E1.1 kmh E 3.4 mph5.5 kmh 30.02 in1016.6 mb 0.00 in0.0 mm 0.00 in0.0 mm 0.00 in0.0 mm
08:51 AM 82.0°F27.8°C 69.9°F21.1°C 67% 4.3 mph E6.9 kmh E 8.1 mph13.0 kmh 30.02 in1016.6 mb 0.00 in0.0 mm 0.00 in0.0 mm 0.00 in0.0 mm
08:50 AM 82.0°F27.8°C 69.9°F21.1°C 67% 0.9 mph NE1.4 kmh NE 3.4 mph5.5 kmh 30.02 in1016.6 mb 0.00 in0.0 mm 0.00 in0.0 mm 0.00 in0.0 mm
08:49 AM 82.0°F27.8°C 69.9°F21.1°C 67% 2.7 mph E4.3 kmh E 3.4 mph5.5 kmh 30.01 in1016.3 mb 0.00 in0.0 mm 0.00 in0.0 mm 0.00 in0.0 mm
08:48 AM 81.9°F27.7°C 69.8°F21.0°C 67% 1.8 mph ENE2.9 kmh ENE 3.4 mph5.5 kmh 30.01 in1016.3 mb 0.00 in0.0 mm 0.00 in0.0 mm 0.00 in0.0 mm
08:47 AM 81.5°F27.5°C 69.5°F20.8°C 67% 3.4 mph NE5.5 kmh NE 4.5 mph7.2 kmh 30.01 in1016.3 mb 0.00 in0.0 mm 0.00 in0.0 mm 0.00 in0.0 mm
08:46 AM 81.3°F27.4°C 69.3°F20.7°C 67% 0.9 mph ENE1.4 kmh ENE 1.1 mph1.8 kmh 30.01 in1016.3 mb 0.00 in0.0 mm 0.00 in0.0 mm 0.00 in0.0 mm
08:45 AM 81.1°F27.3°C 69.1°F20.6°C 67% 1.8 mph E2.9 kmh E 2.2 mph3.5 kmh 30.01 in1016.3 mb 0.00 in0.0 mm 0.00 in0.0 mm 0.00 in0.0 mm
08:44 AM 81.1°F27.3°C 69.1°F20.6°C 67% 2.7 mph E4.3 kmh E 3.4 mph5.5 kmh 30.01 in1016.3 mb 0.00 in0.0 mm 0.00 in0.0 mm 0.00 in0.0 mm
08:43 AM 81.1°F27.3°C 69.1°F20.6°C 67% 3.4 mph ESE5.5 kmh ESE 5.8 mph9.3 kmh 30.02 in1016.6 mb 0.00 in0.0 mm 0.00 in0.0 mm 0.00 in0.0 mm
08:42 AM 81.1°F27.3°C 69.1°F20.6°C 67% 4.5 mph E7.2 kmh E 5.8 mph9.3 kmh 30.01 in1016.3 mb 0.00 in0.0 mm 0.00 in0.0 mm 0.00 in0.0 mm
08:41 AM 81.1°F27.3°C 69.1°F20.6°C 67% 3.4 mph SE5.5 kmh SE 4.5 mph7.2 kmh 30.01 in1016.3 mb 0.00 in0.0 mm 0.00 in0.0 mm 0.00 in0.0 mm
08:40 AM 81.1°F27.3°C 69.1°F20.6°C 67% 1.3 mph E2.1 kmh E 2.2 mph3.5 kmh 30.01 in1016.3 mb 0.00 in0.0 mm 0.00 in0.0 mm 0.00 in0.0 mm
08:39 AM 81.1°F27.3°C 69.5°F20.8°C 68% 2.2 mph SSW3.5 kmh SSW 3.4 mph5.5 kmh 30.02 in1016.6 mb 0.00 in0.0 mm 0.00 in0.0 mm 0.00 in0.0 mm
08:38 AM 81.1°F27.3°C 69.5°F20.8°C 68% 5.8 mph SE9.3 kmh SE 9.2 mph14.8 kmh 30.01 in1016.3 mb 0.00 in0.0 mm 0.00 in0.0 mm 0.00 in0.0 mm
08:37 AM 81.1°F27.3°C 69.5°F20.8°C 68% 5.4 mph E8.7 kmh E 8.1 mph13.0 kmh 30.01 in1016.3 mb 0.00 in0.0 mm 0.00 in0.0 mm 0.00 in0.0 mm
08:36 AM 81.1°F27.3°C 69.5°F20.8°C 68% 5.6 mph E9.0 kmh E 6.9 mph11.1 kmh 30.02 in1016.6 mb 0.00 in0.0 mm 0.00 in0.0 mm 0.00 in0.0 mm
08:35 AM 81.1°F27.3°C 69.5°F20.8°C 68% 2.9 mph ESE4.7 kmh ESE 4.5 mph7.2 kmh 30.02 in1016.6 mb 0.00 in0.0 mm 0.00 in0.0 mm 0.00 in0.0 mm
08:34 AM 81.1°F27.3°C 69.5°F20.8°C 68% 6.5 mph ESE10.5 kmh ESE 6.9 mph11.1 kmh 30.01 in1016.3 mb 0.00 in0.0 mm 0.00 in0.0 mm 0.00 in0.0 mm
08:33 AM 81.0°F27.2°C 69.4°F20.8°C 68% 4.0 mph ESE6.4 kmh ESE 5.8 mph9.3 kmh 30.01 in1016.3 mb 0.00 in0.0 mm 0.00 in0.0 mm 0.00 in0.0 mm
08:32 AM 81.0°F27.2°C 69.4°F20.8°C 68% 7.4 mph E11.9 kmh E 8.1 mph13.0 kmh 30.02 in1016.6 mb 0.00 in0.0 mm 0.00 in0.0 mm 0.00 in0.0 mm
08:31 AM 81.0°F27.2°C 69.4°F20.8°C 68% 4.5 mph ESE7.2 kmh ESE 5.8 mph9.3 kmh 30.01 in1016.3 mb 0.00 in0.0 mm 0.00 in0.0 mm 0.00 in0.0 mm
08:30 AM 81.0°F27.2°C 69.4°F20.8°C 68% 3.8 mph ESE6.1 kmh ESE 4.5 mph7.2 kmh 30.01 in1016.3 mb 0.00 in0.0 mm 0.00 in0.0 mm 0.00 in0.0 mm
08:29 AM 81.0°F27.2°C 69.4°F20.8°C 68% 2.5 mph E4.0 kmh E 3.4 mph5.5 kmh 30.01 in1016.3 mb 0.00 in0.0 mm 0.00 in0.0 mm 0.00 in0.0 mm
08:28 AM 81.0°F27.2°C 69.4°F20.8°C 68% 4.0 mph ESE6.4 kmh ESE 4.5 mph7.2 kmh 30.01 in1016.3 mb 0.00 in0.0 mm 0.00 in0.0 mm 0.00 in0.0 mm
08:27 AM 81.1°F27.3°C 69.5°F20.8°C 68% 4.9 mph ESE7.9 kmh ESE 5.8 mph9.3 kmh 30.01 in1016.3 mb 0.00 in0.0 mm 0.00 in0.0 mm 0.00 in0.0 mm
08:26 AM 81.1°F27.3°C 69.5°F20.8°C 68% 5.8 mph E9.3 kmh E 6.9 mph11.1 kmh 30.01 in1016.3 mb 0.00 in0.0 mm 0.00 in0.0 mm 0.00 in0.0 mm
08:25 AM 81.3°F27.4°C 69.7°F20.9°C 68% 4.5 mph E7.2 kmh E 5.8 mph9.3 kmh 30.01 in1016.3 mb 0.00 in0.0 mm 0.00 in0.0 mm 0.00 in0.0 mm
08:24 AM 81.5°F27.5°C 69.9°F21.1°C 68% 6.5 mph E10.5 kmh E 8.1 mph13.0 kmh 30.01 in1016.3 mb 0.00 in0.0 mm 0.00 in0.0 mm 0.00 in0.0 mm
08:23 AM 81.5°F27.5°C 70.3°F21.3°C 69% 1.8 mph E2.9 kmh E 3.4 mph5.5 kmh 30.01 in1016.3 mb 0.00 in0.0 mm 0.00 in0.0 mm 0.00 in0.0 mm
08:22 AM 81.5°F27.5°C 70.3°F21.3°C 69% 1.8 mph ESE2.9 kmh ESE 3.4 mph5.5 kmh 30.00 in1015.9 mb 0.00 in0.0 mm 0.00 in0.0 mm 0.00 in0.0 mm
08:21 AM 81.3°F27.4°C 70.1°F21.2°C 69% 4.5 mph E7.2 kmh E 5.8 mph9.3 kmh 30.01 in1016.3 mb 0.00 in0.0 mm 0.00 in0.0 mm 0.00 in0.0 mm
08:20 AM 81.3°F27.4°C 70.1°F21.2°C 69% 3.4 mph SSE5.5 kmh SSE 4.5 mph7.2 kmh 30.01 in1016.3 mb 0.00 in0.0 mm 0.00 in0.0 mm 0.00 in0.0 mm
08:19 AM 81.1°F27.3°C 69.9°F21.1°C 69% 0.2 mph ESE0.3 kmh ESE 1.1 mph1.8 kmh 30.00 in1015.9 mb 0.00 in0.0 mm 0.00 in0.0 mm 0.00 in0.0 mm
08:18 AM 81.0°F27.2°C 69.8°F21.0°C 69% 1.8 mph E2.9 kmh E 2.2 mph3.5 kmh 30.00 in1015.9 mb 0.00 in0.0 mm 0.00 in0.0 mm 0.00 in0.0 mm
08:17 AM 80.8°F27.1°C 69.7°F20.9°C 69% 2.9 mph ESE4.7 kmh ESE 3.4 mph5.5 kmh 30.00 in1015.9 mb 0.00 in0.0 mm 0.00 in0.0 mm 0.00 in0.0 mm
08:16 AM 80.8°F27.1°C 69.7°F20.9°C 69% 3.4 mph SE5.5 kmh SE 3.4 mph5.5 kmh 30.01 in1016.3 mb 0.00 in0.0 mm 0.00 in0.0 mm 0.00 in0.0 mm
08:15 AM 80.8°F27.1°C 69.7°F20.9°C 69% 3.6 mph ESE5.8 kmh ESE 4.5 mph7.2 kmh 30.01 in1016.3 mb 0.00 in0.0 mm 0.00 in0.0 mm 0.00 in0.0 mm
08:14 AM 80.6°F27.0°C 69.5°F20.8°C 69% 0.4 mph SSE0.6 kmh SSE 2.2 mph3.5 kmh 30.00 in1015.9 mb 0.00 in0.0 mm 0.00 in0.0 mm 0.00 in0.0 mm
08:13 AM 80.6°F27.0°C 69.5°F20.8°C 69% 3.4 mph E5.5 kmh E 3.4 mph5.5 kmh 30.00 in1015.9 mb 0.00 in0.0 mm 0.00 in0.0 mm 0.00 in0.0 mm
08:12 AM 80.6°F27.0°C 69.5°F20.8°C 69% 3.4 mph E5.5 kmh E 4.5 mph7.2 kmh 30.01 in1016.3 mb 0.00 in0.0 mm 0.00 in0.0 mm 0.00 in0.0 mm
08:11 AM 80.6°F27.0°C 69.5°F20.8°C 69% 5.8 mph E9.3 kmh E 6.9 mph11.1 kmh 30.01 in1016.3 mb 0.00 in0.0 mm 0.00 in0.0 mm 0.00 in0.0 mm
08:10 AM 80.6°F27.0°C 69.5°F20.8°C 69% 2.9 mph E4.7 kmh E 4.5 mph7.2 kmh 30.00 in1015.9 mb 0.00 in0.0 mm 0.00 in0.0 mm 0.00 in0.0 mm
08:09 AM 80.8°F27.1°C 69.7°F20.9°C 69% 4.9 mph E7.9 kmh E 6.9 mph11.1 kmh 30.00 in1015.9 mb 0.00 in0.0 mm 0.00 in0.0 mm 0.00 in0.0 mm
08:08 AM 80.8°F27.1°C 69.7°F20.9°C 69% 4.5 mph E7.2 kmh E 5.8 mph9.3 kmh 30.01 in1016.3 mb 0.00 in0.0 mm 0.00 in0.0 mm 0.00 in0.0 mm
08:07 AM 80.8°F27.1°C 69.7°F20.9°C 69% 6.0 mph E9.7 kmh E 6.9 mph11.1 kmh 30.01 in1016.3 mb 0.00 in0.0 mm 0.00 in0.0 mm 0.00 in0.0 mm
08:06 AM 80.6°F27.0°C 69.0°F20.6°C 68% 5.4 mph E8.7 kmh E 5.8 mph9.3 kmh 30.01 in1016.3 mb 0.00 in0.0 mm 0.00 in0.0 mm 0.00 in0.0 mm
08:05 AM 80.6°F27.0°C 69.5°F20.8°C 69% 3.4 mph E5.5 kmh E 4.5 mph7.2 kmh 30.01 in1016.3 mb 0.00 in0.0 mm 0.00 in0.0 mm 0.00 in0.0 mm
08:04 AM 80.6°F27.0°C 69.5°F20.8°C 69% 2.0 mph E3.2 kmh E 2.2 mph3.5 kmh 30.01 in1016.3 mb 0.00 in0.0 mm 0.00 in0.0 mm 0.00 in0.0 mm
08:03 AM 80.6°F27.0°C 69.5°F20.8°C 69% 2.5 mph SE4.0 kmh SE 3.4 mph5.5 kmh 30.01 in1016.3 mb 0.00 in0.0 mm 0.00 in0.0 mm 0.00 in0.0 mm
08:02 AM 80.6°F27.0°C 69.5°F20.8°C 69% 2.5 mph SSE4.0 kmh SSE 4.5 mph7.2 kmh 30.00 in1015.9 mb 0.00 in0.0 mm 0.00 in0.0 mm 0.00 in0.0 mm
08:01 AM 80.6°F27.0°C 69.5°F20.8°C 69% 3.8 mph ESE6.1 kmh ESE 5.8 mph9.3 kmh 30.00 in1015.9 mb 0.00 in0.0 mm 0.00 in0.0 mm 0.00 in0.0 mm
08:00 AM 80.8°F27.1°C 69.7°F20.9°C 69% 2.5 mph E4.0 kmh E 3.4 mph5.5 kmh 30.00 in1015.9 mb 0.00 in0.0 mm 0.00 in0.0 mm 0.00 in0.0 mm
07:59 AM 80.8°F27.1°C 69.7°F20.9°C 69% 2.5 mph E4.0 kmh E 3.4 mph5.5 kmh 30.01 in1016.3 mb 0.00 in0.0 mm 0.00 in0.0 mm 0.00 in0.0 mm
07:58 AM 80.6°F27.0°C 69.5°F20.8°C 69% 2.2 mph ESE3.5 kmh ESE 2.2 mph3.5 kmh 30.00 in1015.9 mb 0.00 in0.0 mm 0.00 in0.0 mm 0.00 in0.0 mm
07:57 AM 80.6°F27.0°C 69.5°F20.8°C 69% 0.9 mph SE1.4 kmh SE 1.1 mph1.8 kmh 30.00 in1015.9 mb 0.00 in0.0 mm 0.00 in0.0 mm 0.00 in0.0 mm
07:56 AM 80.6°F27.0°C 69.5°F20.8°C 69% 1.1 mph E1.8 kmh E 2.2 mph3.5 kmh 30.01 in1016.3 mb 0.00 in0.0 mm 0.00 in0.0 mm 0.00 in0.0 mm
07:55 AM 80.6°F27.0°C 69.5°F20.8°C 69% 2.5 mph ESE4.0 kmh ESE 3.4 mph5.5 kmh 30.00 in1015.9 mb 0.00 in0.0 mm 0.00 in0.0 mm 0.00 in0.0 mm
07:54 AM 80.6°F27.0°C 69.5°F20.8°C 69% 1.3 mph E2.1 kmh E 2.2 mph3.5 kmh 30.00 in1015.9 mb 0.00 in0.0 mm 0.00 in0.0 mm 0.00 in0.0 mm
07:53 AM 80.6°F27.0°C 69.5°F20.8°C 69% 6.3 mph ESE10.1 kmh ESE 8.1 mph13.0 kmh 30.00 in1015.9 mb 0.00 in0.0 mm 0.00 in0.0 mm 0.00 in0.0 mm
07:52 AM 80.4°F26.9°C 69.3°F20.7°C 69% 1.8 mph E2.9 kmh E 3.4 mph5.5 kmh 30.00 in1015.9 mb 0.00 in0.0 mm 0.00 in0.0 mm 0.00 in0.0 mm
07:51 AM 80.4°F26.9°C 69.3°F20.7°C 69% Calm Calm -- 30.00 in1015.9 mb 0.00 in0.0 mm 0.00 in0.0 mm 0.00 in0.0 mm
07:50 AM 80.4°F26.9°C 69.3°F20.7°C 69% Calm Calm -- 30.00 in1015.9 mb 0.00 in0.0 mm 0.00 in0.0 mm 0.00 in0.0 mm
07:49 AM 80.2°F26.8°C 69.1°F20.6°C 69% 3.4 mph SE5.5 kmh SE 3.4 mph5.5 kmh 30.00 in1015.9 mb 0.00 in0.0 mm 0.00 in0.0 mm 0.00 in0.0 mm
07:48 AM 80.2°F26.8°C 69.1°F20.6°C 69% 3.4 mph E5.5 kmh E 4.5 mph7.2 kmh 30.00 in1015.9 mb 0.00 in0.0 mm 0.00 in0.0 mm 0.00 in0.0 mm
07:47 AM 80.1°F26.7°C 69.0°F20.6°C 69% 4.5 mph SE7.2 kmh SE 4.5 mph7.2 kmh 29.99 in1015.6 mb 0.00 in0.0 mm 0.00 in0.0 mm 0.00 in0.0 mm
07:46 AM 80.1°F26.7°C 69.4°F20.8°C 70% 4.0 mph E6.4 kmh E 4.5 mph7.2 kmh 30.00 in1015.9 mb 0.00 in0.0 mm 0.00 in0.0 mm 0.00 in0.0 mm
07:45 AM 79.9°F26.6°C 69.2°F20.7°C 70% 3.1 mph SE5.0 kmh SE 3.4 mph5.5 kmh 30.00 in1015.9 mb 0.00 in0.0 mm 0.00 in0.0 mm 0.00 in0.0 mm
07:44 AM 79.9°F26.6°C 69.2°F20.7°C 70% 0.4 mph ENE0.6 kmh ENE 1.1 mph1.8 kmh 30.00 in1015.9 mb 0.00 in0.0 mm 0.00 in0.0 mm 0.00 in0.0 mm
07:43 AM 79.7°F26.5°C 69.0°F20.6°C 70% 2.9 mph ENE4.7 kmh ENE 4.5 mph7.2 kmh 30.00 in1015.9 mb 0.00 in0.0 mm 0.00 in0.0 mm 0.00 in0.0 mm
07:42 AM 79.5°F26.4°C 69.3°F20.7°C 71% 1.1 mph E1.8 kmh E 1.1 mph1.8 kmh 30.00 in1015.9 mb 0.00 in0.0 mm 0.00 in0.0 mm 0.00 in0.0 mm
07:41 AM 79.5°F26.4°C 69.3°F20.7°C 71% 4.0 mph E6.4 kmh E 4.5 mph7.2 kmh 29.99 in1015.6 mb 0.00 in0.0 mm 0.00 in0.0 mm 0.00 in0.0 mm
07:40 AM 79.3°F26.3°C 69.1°F20.6°C 71% 2.0 mph ESE3.2 kmh ESE 3.4 mph5.5 kmh 29.99 in1015.6 mb 0.00 in0.0 mm 0.00 in0.0 mm 0.00 in0.0 mm
07:39 AM 79.2°F26.2°C 69.0°F20.6°C 71% 2.7 mph ESE4.3 kmh ESE 4.5 mph7.2 kmh 29.99 in1015.6 mb 0.00 in0.0 mm 0.00 in0.0 mm 0.00 in0.0 mm
07:38 AM 79.2°F26.2°C 69.4°F20.8°C 72% 3.4 mph E5.5 kmh E 4.5 mph7.2 kmh 30.00 in1015.9 mb 0.00 in0.0 mm 0.00 in0.0 mm 0.00 in0.0 mm
07:37 AM 79.0°F26.1°C 69.2°F20.7°C 72% 2.7 mph ESE4.3 kmh ESE 3.4 mph5.5 kmh 30.00 in1015.9 mb 0.00 in0.0 mm 0.00 in0.0 mm 0.00 in0.0 mm
07:36 AM 78.8°F26.0°C 69.0°F20.6°C 72% 1.8 mph E2.9 kmh E 2.2 mph3.5 kmh 30.00 in1015.9 mb 0.00 in0.0 mm 0.00 in0.0 mm 0.00 in0.0 mm
07:35 AM 78.6°F25.9°C 69.2°F20.7°C 73% Calm Calm -- 30.00 in1015.9 mb 0.00 in0.0 mm 0.00 in0.0 mm 0.00 in0.0 mm
07:34 AM 78.6°F25.9°C 69.2°F20.7°C 73% 2.0 mph E3.2 kmh E 2.2 mph3.5 kmh 29.99 in1015.6 mb 0.00 in0.0 mm 0.00 in0.0 mm 0.00 in0.0 mm
07:33 AM 78.4°F25.8°C 69.0°F20.6°C 73% 2.5 mph E4.0 kmh E 3.4 mph5.5 kmh 29.99 in1015.6 mb 0.00 in0.0 mm 0.00 in0.0 mm 0.00 in0.0 mm
07:32 AM 78.4°F25.8°C 69.0°F20.6°C 73% 4.3 mph E6.9 kmh E 5.8 mph9.3 kmh 29.99 in1015.6 mb 0.00 in0.0 mm 0.00 in0.0 mm 0.00 in0.0 mm
07:31 AM 78.4°F25.8°C 69.0°F20.6°C 73% 2.5 mph E4.0 kmh E 3.4 mph5.5 kmh 29.99 in1015.6 mb 0.00 in0.0 mm 0.00 in0.0 mm 0.00 in0.0 mm
07:30 AM 78.4°F25.8°C 69.4°F20.8°C 74% 2.5 mph E4.0 kmh E 3.4 mph5.5 kmh 30.00 in1015.9 mb 0.00 in0.0 mm 0.00 in0.0 mm 0.00 in0.0 mm
07:29 AM 78.4°F25.8°C 69.4°F20.8°C 74% Calm Calm -- 30.00 in1015.9 mb 0.00 in0.0 mm 0.00 in0.0 mm 0.00 in0.0 mm
07:28 AM 78.4°F25.8°C 69.4°F20.8°C 74% Calm Calm -- 29.99 in1015.6 mb 0.00 in0.0 mm 0.00 in0.0 mm 0.00 in0.0 mm
07:27 AM 78.3°F25.7°C 69.3°F20.7°C 74% Calm Calm -- 29.99 in1015.6 mb 0.00 in0.0 mm 0.00 in0.0 mm 0.00 in0.0 mm
07:26 AM 78.3°F25.7°C 69.3°F20.7°C 74% 0.7 mph E1.1 kmh E 2.2 mph3.5 kmh 29.99 in1015.6 mb 0.00 in0.0 mm 0.00 in0.0 mm 0.00 in0.0 mm
07:25 AM 78.3°F25.7°C 69.3°F20.7°C 74% 2.2 mph E3.5 kmh E 3.4 mph5.5 kmh 29.99 in1015.6 mb 0.00 in0.0 mm 0.00 in0.0 mm 0.00 in0.0 mm
07:24 AM 78.3°F25.7°C 69.3°F20.7°C 74% 1.8 mph E2.9 kmh E 2.2 mph3.5 kmh 29.99 in1015.6 mb 0.00 in0.0 mm 0.00 in0.0 mm 0.00 in0.0 mm
07:23 AM 78.1°F25.6°C 69.1°F20.6°C 74% 0.7 mph E1.1 kmh E 1.1 mph1.8 kmh 30.00 in1015.9 mb 0.00 in0.0 mm 0.00 in0.0 mm 0.00 in0.0 mm
07:22 AM 78.1°F25.6°C 69.1°F20.6°C 74% 1.8 mph ESE2.9 kmh ESE 2.2 mph3.5 kmh 29.99 in1015.6 mb 0.00 in0.0 mm 0.00 in0.0 mm 0.00 in0.0 mm
07:21 AM 78.1°F25.6°C 69.1°F20.6°C 74% Calm Calm -- 29.99 in1015.6 mb 0.00 in0.0 mm 0.00 in0.0 mm 0.00 in0.0 mm
07:20 AM 78.1°F25.6°C 69.1°F20.6°C 74% 2.5 mph E4.0 kmh E 3.4 mph5.5 kmh 29.99 in1015.6 mb 0.00 in0.0 mm 0.00 in0.0 mm 0.00 in0.0 mm
07:19 AM 77.9°F25.5°C 69.3°F20.7°C 75% 2.2 mph E3.5 kmh E 2.2 mph3.5 kmh 29.99 in1015.6 mb 0.00 in0.0 mm 0.00 in0.0 mm 0.00 in0.0 mm
07:18 AM 77.9°F25.5°C 69.3°F20.7°C 75% 0.2 mph E0.3 kmh E 1.1 mph1.8 kmh 29.99 in1015.6 mb 0.00 in0.0 mm 0.00 in0.0 mm 0.00 in0.0 mm
07:17 AM 77.7°F25.4°C 69.1°F20.6°C 75% 2.5 mph E4.0 kmh E 3.4 mph5.5 kmh 29.99 in1015.6 mb 0.00 in0.0 mm 0.00 in0.0 mm 0.00 in0.0 mm
07:16 AM 77.7°F25.4°C 69.1°F20.6°C 75% Calm Calm -- 30.00 in1015.9 mb 0.00 in0.0 mm 0.00 in0.0 mm 0.00 in0.0 mm
07:15 AM 77.5°F25.3°C 68.9°F20.5°C 75% Calm Calm -- 29.99 in1015.6 mb 0.00 in0.0 mm 0.00 in0.0 mm 0.00 in0.0 mm
07:14 AM 77.5°F25.3°C 68.9°F20.5°C 75% Calm Calm -- 29.99 in1015.6 mb 0.00 in0.0 mm 0.00 in0.0 mm 0.00 in0.0 mm
07:13 AM 77.4°F25.2°C 68.8°F20.4°C 75% Calm Calm -- 30.00 in1015.9 mb 0.00 in0.0 mm 0.00 in0.0 mm 0.00 in0.0 mm
07:12 AM 77.4°F25.2°C 69.2°F20.7°C 76% Calm Calm -- 30.00 in1015.9 mb 0.00 in0.0 mm 0.00 in0.0 mm 0.00 in0.0 mm
07:11 AM 77.2°F25.1°C 69.0°F20.6°C 76% Calm Calm -- 29.99 in1015.6 mb 0.00 in0.0 mm 0.00 in0.0 mm 0.00 in0.0 mm
07:10 AM 77.2°F25.1°C 69.0°F20.6°C 76% Calm Calm -- 29.99 in1015.6 mb 0.00 in0.0 mm 0.00 in0.0 mm 0.00 in0.0 mm
07:09 AM 77.2°F25.1°C 69.0°F20.6°C 76% Calm Calm -- 30.00 in1015.9 mb 0.00 in0.0 mm 0.00 in0.0 mm 0.00 in0.0 mm
07:08 AM 77.0°F25.0°C 68.8°F20.4°C 76% Calm Calm -- 30.00 in1015.9 mb 0.00 in0.0 mm 0.00 in0.0 mm 0.00 in0.0 mm
07:07 AM 76.8°F24.9°C 68.6°F20.3°C 76% Calm Calm -- 30.00 in1015.9 mb 0.00 in0.0 mm 0.00 in0.0 mm 0.00 in0.0 mm
07:06 AM 76.8°F24.9°C 68.6°F20.3°C 76% Calm Calm -- 30.00 in1015.9 mb 0.00 in0.0 mm 0.00 in0.0 mm 0.00 in0.0 mm
07:05 AM 76.6°F24.8°C 68.5°F20.3°C 76% Calm Calm -- 29.99 in1015.6 mb 0.00 in0.0 mm 0.00 in0.0 mm 0.00 in0.0 mm
07:04 AM 76.3°F24.6°C 68.2°F20.1°C 76% Calm Calm -- 29.99 in1015.6 mb 0.00 in0.0 mm 0.00 in0.0 mm 0.00 in0.0 mm
07:03 AM 76.1°F24.5°C 68.0°F20.0°C 76% Calm Calm -- 30.00 in1015.9 mb 0.00 in0.0 mm 0.00 in0.0 mm 0.00 in0.0 mm
07:02 AM 75.9°F24.4°C 67.8°F19.9°C 76% Calm Calm -- 30.00 in1015.9 mb 0.00 in0.0 mm 0.00 in0.0 mm 0.00 in0.0 mm
07:01 AM 75.7°F24.3°C 68.0°F20.0°C 77% Calm Calm -- 30.00 in1015.9 mb 0.00 in0.0 mm 0.00 in0.0 mm 0.00 in0.0 mm
07:00 AM 75.6°F24.2°C 67.5°F19.7°C 76% Calm Calm -- 29.99 in1015.6 mb 0.00 in0.0 mm 0.00 in0.0 mm 0.00 in0.0 mm
06:59 AM 75.6°F24.2°C 67.5°F19.7°C 76% Calm Calm -- 30.00 in1015.9 mb 0.00 in0.0 mm 0.00 in0.0 mm 0.00 in0.0 mm
06:58 AM 75.4°F24.1°C 67.3°F19.6°C 76% Calm Calm -- 30.00 in1015.9 mb 0.00 in0.0 mm 0.00 in0.0 mm 0.00 in0.0 mm
06:57 AM 75.6°F24.2°C 67.5°F19.7°C 76% Calm Calm -- 29.99 in1015.6 mb 0.00 in0.0 mm 0.00 in0.0 mm 0.00 in0.0 mm
06:56 AM 75.6°F24.2°C 67.5°F19.7°C 76% Calm Calm -- 29.99 in1015.6 mb 0.00 in0.0 mm 0.00 in0.0 mm 0.00 in0.0 mm
06:55 AM 75.7°F24.3°C 67.6°F19.8°C 76% Calm Calm -- 29.99 in1015.6 mb 0.00 in0.0 mm 0.00 in0.0 mm 0.00 in0.0 mm
06:54 AM 75.7°F24.3°C 67.6°F19.8°C 76% Calm Calm -- 29.99 in1015.6 mb 0.00 in0.0 mm 0.00 in0.0 mm 0.00 in0.0 mm
06:53 AM 75.9°F24.4°C 67.8°F19.9°C 76% Calm Calm -- 29.99 in1015.6 mb 0.00 in0.0 mm 0.00 in0.0 mm 0.00 in0.0 mm
06:52 AM 75.9°F24.4°C 67.8°F19.9°C 76% Calm Calm -- 29.99 in1015.6 mb 0.00 in0.0 mm 0.00 in0.0 mm 0.00 in0.0 mm
06:51 AM 75.9°F24.4°C 67.8°F19.9°C 76% Calm Calm -- 29.99 in1015.6 mb 0.00 in0.0 mm 0.00 in0.0 mm 0.00 in0.0 mm
06:50 AM 75.9°F24.4°C 67.8°F19.9°C 76% Calm Calm -- 29.99 in1015.6 mb 0.00 in0.0 mm 0.00 in0.0 mm 0.00 in0.0 mm
06:49 AM 75.9°F24.4°C 67.8°F19.9°C 76% Calm Calm -- 29.99 in1015.6 mb 0.00 in0.0 mm 0.00 in0.0 mm 0.00 in0.0 mm
06:48 AM 75.7°F24.3°C 67.6°F19.8°C 76% Calm Calm -- 29.99 in1015.6 mb 0.00 in0.0 mm 0.00 in0.0 mm 0.00 in0.0 mm
06:47 AM 75.7°F24.3°C 67.6°F19.8°C 76% Calm Calm -- 29.99 in1015.6 mb 0.00 in0.0 mm 0.00 in0.0 mm 0.00 in0.0 mm
06:46 AM 75.7°F24.3°C 67.6°F19.8°C 76% Calm Calm -- 30.00 in1015.9 mb 0.00 in0.0 mm 0.00 in0.0 mm 0.00 in0.0 mm
06:45 AM 75.7°F24.3°C 67.6°F19.8°C 76% Calm Calm -- 30.00 in1015.9 mb 0.00 in0.0 mm 0.00 in0.0 mm 0.00 in0.0 mm
06:44 AM 75.7°F24.3°C 67.2°F19.6°C 75% Calm Calm -- 29.99 in1015.6 mb 0.00 in0.0 mm 0.00 in0.0 mm 0.00 in0.0 mm
06:43 AM 75.9°F24.4°C 67.4°F19.7°C 75% Calm Calm -- 29.99 in1015.6 mb 0.00 in0.0 mm 0.00 in0.0 mm 0.00 in0.0 mm
06:42 AM 75.9°F24.4°C 67.4°F19.7°C 75% Calm Calm -- 29.99 in1015.6 mb 0.00 in0.0 mm 0.00 in0.0 mm 0.00 in0.0 mm
06:41 AM 75.9°F24.4°C 67.4°F19.7°C 75% Calm Calm -- 30.00 in1015.9 mb 0.00 in0.0 mm 0.00 in0.0 mm 0.00 in0.0 mm
06:40 AM 76.1°F24.5°C 67.6°F19.8°C 75% Calm Calm -- 29.99 in1015.6 mb 0.00 in0.0 mm 0.00 in0.0 mm 0.00 in0.0 mm
06:39 AM 76.1°F24.5°C 67.6°F19.8°C 75% Calm Calm -- 29.99 in1015.6 mb 0.00 in0.0 mm 0.00 in0.0 mm 0.00 in0.0 mm
06:38 AM 76.3°F24.6°C 67.8°F19.9°C 75% Calm Calm -- 30.00 in1015.9 mb 0.00 in0.0 mm 0.00 in0.0 mm 0.00 in0.0 mm
06:37 AM 76.3°F24.6°C 67.8°F19.9°C 75% Calm Calm -- 29.99 in1015.6 mb 0.00 in0.0 mm 0.00 in0.0 mm 0.00 in0.0 mm
06:36 AM 76.3°F24.6°C 67.4°F19.7°C 74% Calm Calm -- 30.00 in1015.9 mb 0.00 in0.0 mm 0.00 in0.0 mm 0.00 in0.0 mm
06:35 AM 76.5°F24.7°C 67.6°F19.8°C 74% Calm Calm -- 29.99 in1015.6 mb 0.00 in0.0 mm 0.00 in0.0 mm 0.00 in0.0 mm
06:34 AM 76.5°F24.7°C 67.6°F19.8°C 74% Calm Calm -- 30.00 in1015.9 mb 0.00 in0.0 mm 0.00 in0.0 mm 0.00 in0.0 mm
06:33 AM 76.6°F24.8°C 67.7°F19.8°C 74% Calm Calm -- 29.99 in1015.6 mb 0.00 in0.0 mm 0.00 in0.0 mm 0.00 in0.0 mm
06:32 AM 76.6°F24.8°C 67.7°F19.8°C 74% Calm Calm -- 29.99 in1015.6 mb 0.00 in0.0 mm 0.00 in0.0 mm 0.00 in0.0 mm
06:31 AM 76.8°F24.9°C 67.9°F19.9°C 74% Calm Calm -- 29.99 in1015.6 mb 0.00 in0.0 mm 0.00 in0.0 mm 0.00 in0.0 mm
06:30 AM 76.8°F24.9°C 67.9°F19.9°C 74% Calm Calm -- 29.99 in1015.6 mb 0.00 in0.0 mm 0.00 in0.0 mm 0.00 in0.0 mm
06:29 AM 76.8°F24.9°C 67.9°F19.9°C 74% Calm Calm -- 29.99 in1015.6 mb 0.00 in0.0 mm 0.00 in0.0 mm 0.00 in0.0 mm
06:28 AM 77.0°F25.0°C 68.1°F20.1°C 74% Calm Calm -- 29.99 in1015.6 mb 0.00 in0.0 mm 0.00 in0.0 mm 0.00 in0.0 mm
06:27 AM 77.0°F25.0°C 68.1°F20.1°C 74% Calm Calm -- 29.99 in1015.6 mb 0.00 in0.0 mm 0.00 in0.0 mm 0.00 in0.0 mm
06:26 AM 77.0°F25.0°C 68.1°F20.1°C 74% Calm Calm -- 29.99 in1015.6 mb 0.00 in0.0 mm 0.00 in0.0 mm 0.00 in0.0 mm
06:25 AM 77.0°F25.0°C 68.1°F20.1°C 74% Calm Calm -- 29.99 in1015.6 mb 0.00 in0.0 mm 0.00 in0.0 mm 0.00 in0.0 mm
06:24 AM 77.0°F25.0°C 68.1°F20.1°C 74% Calm Calm -- 29.99 in1015.6 mb 0.00 in0.0 mm 0.00 in0.0 mm 0.00 in0.0 mm
06:23 AM 77.0°F25.0°C 68.1°F20.1°C 74% Calm Calm -- 29.99 in1015.6 mb 0.00 in0.0 mm 0.00 in0.0 mm 0.00 in0.0 mm
06:22 AM 76.8°F24.9°C 67.9°F19.9°C 74% Calm Calm -- 29.99 in1015.6 mb 0.00 in0.0 mm 0.00 in0.0 mm 0.00 in0.0 mm
06:21 AM 76.8°F24.9°C 67.9°F19.9°C 74% Calm Calm -- 29.99 in1015.6 mb 0.00 in0.0 mm 0.00 in0.0 mm 0.00 in0.0 mm
06:20 AM 76.8°F24.9°C 67.9°F19.9°C 74% Calm Calm -- 29.99 in1015.6 mb 0.00 in0.0 mm 0.00 in0.0 mm 0.00 in0.0 mm
06:19 AM 76.8°F24.9°C 67.9°F19.9°C 74% Calm Calm -- 29.99 in1015.6 mb 0.00 in0.0 mm 0.00 in0.0 mm 0.00 in0.0 mm
06:18 AM 76.8°F24.9°C 67.9°F19.9°C 74% Calm Calm -- 29.99 in1015.6 mb 0.00 in0.0 mm 0.00 in0.0 mm 0.00 in0.0 mm
06:17 AM 76.6°F24.8°C 67.7°F19.8°C 74% Calm Calm -- 29.99 in1015.6 mb 0.00 in0.0 mm 0.00 in0.0 mm 0.00 in0.0 mm
06:16 AM 76.6°F24.8°C 67.7°F19.8°C 74% Calm Calm -- 29.99 in1015.6 mb 0.00 in0.0 mm 0.00 in0.0 mm 0.00 in0.0 mm
06:15 AM 76.6°F24.8°C 68.1°F20.1°C 75% Calm Calm -- 29.99 in1015.6 mb 0.00 in0.0 mm 0.00 in0.0 mm 0.00 in0.0 mm
06:14 AM 76.6°F24.8°C 68.1°F20.1°C 75% Calm Calm -- 29.99 in1015.6 mb 0.00 in0.0 mm 0.00 in0.0 mm 0.00 in0.0 mm
06:13 AM 76.6°F24.8°C 68.1°F20.1°C 75% Calm Calm -- 29.99 in1015.6 mb 0.00 in0.0 mm 0.00 in0.0 mm 0.00 in0.0 mm
06:12 AM 76.6°F24.8°C 68.1°F20.1°C 75% Calm Calm -- 29.99 in1015.6 mb 0.00 in0.0 mm 0.00 in0.0 mm 0.00 in0.0 mm
06:11 AM 76.8°F24.9°C 68.3°F20.2°C 75% Calm Calm -- 29.99 in1015.6 mb 0.00 in0.0 mm 0.00 in0.0 mm 0.00 in0.0 mm
06:10 AM 76.8°F24.9°C 68.3°F20.2°C 75% Calm Calm -- 29.99 in1015.6 mb 0.00 in0.0 mm 0.00 in0.0 mm 0.00 in0.0 mm
06:09 AM 76.8°F24.9°C 68.3°F20.2°C 75% Calm Calm -- 29.99 in1015.6 mb 0.00 in0.0 mm 0.00 in0.0 mm 0.00 in0.0 mm
06:08 AM 76.8°F24.9°C 68.3°F20.2°C 75% Calm Calm -- 29.99 in1015.6 mb 0.00 in0.0 mm 0.00 in0.0 mm 0.00 in0.0 mm
06:07 AM 76.8°F24.9°C 68.3°F20.2°C 75% Calm Calm -- 29.99 in1015.6 mb 0.00 in0.0 mm 0.00 in0.0 mm 0.00 in0.0 mm
06:06 AM 76.6°F24.8°C 68.1°F20.1°C 75% Calm Calm -- 29.99 in1015.6 mb 0.00 in0.0 mm 0.00 in0.0 mm 0.00 in0.0 mm
06:05 AM 76.6°F24.8°C 68.5°F20.3°C 76% Calm Calm -- 29.99 in1015.6 mb 0.00 in0.0 mm 0.00 in0.0 mm 0.00 in0.0 mm
06:04 AM 76.5°F24.7°C 68.0°F20.0°C 75% Calm Calm -- 29.99 in1015.6 mb 0.00 in0.0 mm 0.00 in0.0 mm 0.00 in0.0 mm
06:03 AM 76.5°F24.7°C 68.0°F20.0°C 75% Calm Calm -- 29.99 in1015.6 mb 0.00 in0.0 mm 0.00 in0.0 mm 0.00 in0.0 mm
06:02 AM 76.5°F24.7°C 68.0°F20.0°C 75% Calm Calm -- 29.99 in1015.6 mb 0.00 in0.0 mm 0.00 in0.0 mm 0.00 in0.0 mm
06:01 AM 76.3°F24.6°C 67.8°F19.9°C 75% Calm Calm -- 29.99 in1015.6 mb 0.00 in0.0 mm 0.00 in0.0 mm 0.00 in0.0 mm
06:00 AM 76.3°F24.6°C 68.2°F20.1°C 76% Calm Calm -- 29.98 in1015.2 mb 0.00 in0.0 mm 0.00 in0.0 mm 0.00 in0.0 mm
05:59 AM 76.3°F24.6°C 67.8°F19.9°C 75% Calm Calm -- 29.99 in1015.6 mb 0.00 in0.0 mm 0.00 in0.0 mm 0.00 in0.0 mm
05:58 AM 76.3°F24.6°C 68.2°F20.1°C 76% Calm Calm -- 29.99 in1015.6 mb 0.00 in0.0 mm 0.00 in0.0 mm 0.00 in0.0 mm
05:57 AM 76.3°F24.6°C 68.2°F20.1°C 76% 0.9 mph ESE1.4 kmh ESE 1.1 mph1.8 kmh 30.00 in1015.9 mb 0.00 in0.0 mm 0.00 in0.0 mm 0.00 in0.0 mm
05:56 AM 76.1°F24.5°C 68.0°F20.0°C 76% 0.2 mph E0.3 kmh E 1.1 mph1.8 kmh 29.99 in1015.6 mb 0.00 in0.0 mm 0.00 in0.0 mm 0.00 in0.0 mm
05:55 AM 76.1°F24.5°C 68.0°F20.0°C 76% Calm Calm -- 29.99 in1015.6 mb 0.00 in0.0 mm 0.00 in0.0 mm 0.00 in0.0 mm
05:54 AM 76.1°F24.5°C 68.0°F20.0°C 76% Calm Calm -- 29.99 in1015.6 mb 0.00 in0.0 mm 0.00 in0.0 mm 0.00 in0.0 mm
05:53 AM 76.1°F24.5°C 68.0°F20.0°C 76% 0.2 mph E0.3 kmh E 1.1 mph1.8 kmh 29.99 in1015.6 mb 0.00 in0.0 mm 0.00 in0.0 mm 0.00 in0.0 mm
05:52 AM 76.1°F24.5°C 68.0°F20.0°C 76% Calm Calm -- 29.99 in1015.6 mb 0.00 in0.0 mm 0.00 in0.0 mm 0.00 in0.0 mm
05:51 AM 75.9°F24.4°C 67.8°F19.9°C 76% Calm Calm -- 29.99 in1015.6 mb 0.00 in0.0 mm 0.00 in0.0 mm 0.00 in0.0 mm
05:50 AM 75.9°F24.4°C 67.8°F19.9°C 76% Calm Calm -- 29.99 in1015.6 mb 0.00 in0.0 mm 0.00 in0.0 mm 0.00 in0.0 mm
05:49 AM 75.9°F24.4°C 67.8°F19.9°C 76% Calm Calm -- 29.99 in1015.6 mb 0.00 in0.0 mm 0.00 in0.0 mm 0.00 in0.0 mm
05:48 AM 75.7°F24.3°C 67.6°F19.8°C 76% Calm Calm -- 29.99 in1015.6 mb 0.00 in0.0 mm 0.00 in0.0 mm 0.00 in0.0 mm
05:47 AM 75.7°F24.3°C 68.0°F20.0°C 77% Calm Calm -- 29.99 in1015.6 mb 0.00 in0.0 mm 0.00 in0.0 mm 0.00 in0.0 mm
05:46 AM 75.7°F24.3°C 68.0°F20.0°C 77% Calm Calm -- 29.99 in1015.6 mb 0.00 in0.0 mm 0.00 in0.0 mm 0.00 in0.0 mm
05:45 AM 75.7°F24.3°C 68.0°F20.0°C 77% Calm Calm -- 29.99 in1015.6 mb 0.00 in0.0 mm 0.00 in0.0 mm 0.00 in0.0 mm
05:44 AM 75.6°F24.2°C 67.9°F19.9°C 77% Calm Calm -- 29.99 in1015.6 mb 0.00 in0.0 mm 0.00 in0.0 mm 0.00 in0.0 mm
05:43 AM 75.6°F24.2°C 67.9°F19.9°C 77% Calm Calm -- 29.99 in1015.6 mb 0.00 in0.0 mm 0.00 in0.0 mm 0.00 in0.0 mm
05:42 AM 75.6°F24.2°C 67.9°F19.9°C 77% Calm Calm -- 29.99 in1015.6 mb 0.00 in0.0 mm 0.00 in0.0 mm 0.00 in0.0 mm
05:41 AM 75.6°F24.2°C 67.9°F19.9°C 77% Calm Calm -- 29.99 in1015.6 mb 0.00 in0.0 mm 0.00 in0.0 mm 0.00 in0.0 mm
05:40 AM 75.6°F24.2°C 67.9°F19.9°C 77% Calm Calm -- 29.99 in1015.6 mb 0.00 in0.0 mm 0.00 in0.0 mm 0.00 in0.0 mm
05:39 AM 75.6°F24.2°C 67.9°F19.9°C 77% Calm Calm -- 29.99 in1015.6 mb 0.00 in0.0 mm 0.00 in0.0 mm 0.00 in0.0 mm
05:38 AM 75.7°F24.3°C 68.0°F20.0°C 77% Calm Calm -- 29.99 in1015.6 mb 0.00 in0.0 mm 0.00 in0.0 mm 0.00 in0.0 mm
05:37 AM 75.7°F24.3°C 68.0°F20.0°C 77% Calm Calm -- 29.99 in1015.6 mb 0.00 in0.0 mm 0.00 in0.0 mm 0.00 in0.0 mm
05:36 AM 75.7°F24.3°C 68.0°F20.0°C 77% Calm Calm -- 29.99 in1015.6 mb 0.00 in0.0 mm 0.00 in0.0 mm 0.00 in0.0 mm
05:35 AM 75.7°F24.3°C 68.0°F20.0°C 77% Calm Calm -- 29.99 in1015.6 mb 0.00 in0.0 mm 0.00 in0.0 mm 0.00 in0.0 mm
05:34 AM 75.9°F24.4°C 68.2°F20.1°C 77% Calm Calm -- 29.98 in1015.2 mb 0.00 in0.0 mm 0.00 in0.0 mm 0.00 in0.0 mm
05:33 AM 75.9°F24.4°C 68.2°F20.1°C 77% Calm Calm -- 29.99 in1015.6 mb 0.00 in0.0 mm 0.00 in0.0 mm 0.00 in0.0 mm
05:32 AM 75.9°F24.4°C 68.2°F20.1°C 77% Calm Calm -- 29.99 in1015.6 mb 0.00 in0.0 mm 0.00 in0.0 mm 0.00 in0.0 mm
05:31 AM 75.9°F24.4°C 68.2°F20.1°C 77% Calm Calm -- 29.99 in1015.6 mb 0.00 in0.0 mm 0.00 in0.0 mm 0.00 in0.0 mm
05:30 AM 75.9°F24.4°C 68.5°F20.3°C 78% Calm Calm -- 29.99 in1015.6 mb 0.00 in0.0 mm 0.00 in0.0 mm 0.00 in0.0 mm
05:29 AM 75.7°F24.3°C 68.3°F20.2°C 78% Calm Calm -- 29.99 in1015.6 mb 0.00 in0.0 mm 0.00 in0.0 mm 0.00 in0.0 mm
05:28 AM 75.6°F24.2°C 68.2°F20.1°C 78% Calm Calm -- 29.98 in1015.2 mb 0.00 in0.0 mm 0.00 in0.0 mm 0.00 in0.0 mm
05:27 AM 75.6°F24.2°C 68.2°F20.1°C 78% Calm Calm -- 29.99 in1015.6 mb 0.00 in0.0 mm 0.00 in0.0 mm 0.00 in0.0 mm
05:26 AM 75.4°F24.1°C 68.0°F20.0°C 78% Calm Calm -- 29.99 in1015.6 mb 0.00 in0.0 mm 0.00 in0.0 mm 0.00 in0.0 mm
05:25 AM 75.4°F24.1°C 68.0°F20.0°C 78% Calm Calm -- 29.99 in1015.6 mb 0.00 in0.0 mm 0.00 in0.0 mm 0.00 in0.0 mm
05:24 AM 75.2°F24.0°C 67.9°F19.9°C 78% Calm Calm -- 29.99 in1015.6 mb 0.00 in0.0 mm 0.00 in0.0 mm 0.00 in0.0 mm
05:23 AM 75.2°F24.0°C 67.9°F19.9°C 78% Calm Calm -- 29.99 in1015.6 mb 0.00 in0.0 mm 0.00 in0.0 mm 0.00 in0.0 mm
05:22 AM 75.2°F24.0°C 67.9°F19.9°C 78% Calm Calm -- 29.99 in1015.6 mb 0.00 in0.0 mm 0.00 in0.0 mm 0.00 in0.0 mm
05:21 AM 75.2°F24.0°C 67.5°F19.7°C 77% Calm Calm -- 29.99 in1015.6 mb 0.00 in0.0 mm 0.00 in0.0 mm 0.00 in0.0 mm
05:20 AM 75.2°F24.0°C 67.5°F19.7°C 77% Calm Calm -- 29.98 in1015.2 mb 0.00 in0.0 mm 0.00 in0.0 mm 0.00 in0.0 mm
05:19 AM 75.2°F24.0°C 67.5°F19.7°C 77% Calm Calm -- 29.98 in1015.2 mb 0.00 in0.0 mm 0.00 in0.0 mm 0.00 in0.0 mm
05:18 AM 75.2°F24.0°C 67.9°F19.9°C 78% Calm Calm -- 29.99 in1015.6 mb 0.00 in0.0 mm 0.00 in0.0 mm 0.00 in0.0 mm
05:17 AM 75.2°F24.0°C 67.5°F19.7°C 77% Calm Calm -- 29.99 in1015.6 mb 0.00 in0.0 mm 0.00 in0.0 mm 0.00 in0.0 mm
05:16 AM 75.2°F24.0°C 67.5°F19.7°C 77% Calm Calm -- 29.99 in1015.6 mb 0.00 in0.0 mm 0.00 in0.0 mm 0.00 in0.0 mm
05:15 AM 75.2°F24.0°C 67.5°F19.7°C 77% Calm Calm -- 29.99 in1015.6 mb 0.00 in0.0 mm 0.00 in0.0 mm 0.00 in0.0 mm
05:14 AM 75.4°F24.1°C 67.7°F19.8°C 77% Calm Calm -- 29.99 in1015.6 mb 0.00 in0.0 mm 0.00 in0.0 mm 0.00 in0.0 mm
05:13 AM 75.4°F24.1°C 67.7°F19.8°C 77% Calm Calm -- 29.99 in1015.6 mb 0.00 in0.0 mm 0.00 in0.0 mm 0.00 in0.0 mm
05:12 AM 75.4°F24.1°C 67.7°F19.8°C 77% Calm Calm -- 29.99 in1015.6 mb 0.00 in0.0 mm 0.00 in0.0 mm 0.00 in0.0 mm
05:11 AM 75.6°F24.2°C 67.9°F19.9°C 77% Calm Calm -- 29.98 in1015.2 mb 0.00 in0.0 mm 0.00 in0.0 mm 0.00 in0.0 mm
05:10 AM 75.6°F24.2°C 67.9°F19.9°C 77% Calm Calm -- 29.99 in1015.6 mb 0.00 in0.0 mm 0.00 in0.0 mm 0.00 in0.0 mm
05:09 AM 75.6°F24.2°C 67.9°F19.9°C 77% Calm Calm -- 29.98 in1015.2 mb 0.00 in0.0 mm 0.00 in0.0 mm 0.00 in0.0 mm
05:08 AM 75.6°F24.2°C 67.9°F19.9°C 77% Calm Calm -- 29.99 in1015.6 mb 0.00 in0.0 mm 0.00 in0.0 mm 0.00 in0.0 mm
05:07 AM 75.7°F24.3°C 68.0°F20.0°C 77% Calm Calm -- 29.99 in1015.6 mb 0.00 in0.0 mm 0.00 in0.0 mm 0.00 in0.0 mm
05:06 AM 75.7°F24.3°C 68.0°F20.0°C 77% Calm Calm -- 29.99 in1015.6 mb 0.00 in0.0 mm 0.00 in0.0 mm 0.00 in0.0 mm
05:05 AM 75.7°F24.3°C 68.0°F20.0°C 77% Calm Calm -- 29.99 in1015.6 mb 0.00 in0.0 mm 0.00 in0.0 mm 0.00 in0.0 mm
05:04 AM 75.7°F24.3°C 68.0°F20.0°C 77% Calm Calm -- 29.98 in1015.2 mb 0.00 in0.0 mm 0.00 in0.0 mm 0.00 in0.0 mm
05:03 AM 75.7°F24.3°C 68.0°F20.0°C 77% Calm Calm -- 29.99 in1015.6 mb 0.00 in0.0 mm 0.00 in0.0 mm 0.00 in0.0 mm
05:02 AM 75.7°F24.3°C 68.0°F20.0°C 77% Calm Calm -- 29.99 in1015.6 mb 0.00 in0.0 mm 0.00 in0.0 mm 0.00 in0.0 mm
05:01 AM 75.7°F24.3°C 68.0°F20.0°C 77% Calm Calm -- 29.99 in1015.6 mb 0.00 in0.0 mm 0.00 in0.0 mm 0.00 in0.0 mm
05:00 AM 75.7°F24.3°C 68.0°F20.0°C 77% Calm Calm -- 29.99 in1015.6 mb 0.00 in0.0 mm 0.00 in0.0 mm 0.00 in0.0 mm
04:59 AM 75.7°F24.3°C 68.0°F20.0°C 77% Calm Calm -- 29.99 in1015.6 mb 0.00 in0.0 mm 0.00 in0.0 mm 0.00 in0.0 mm
04:58 AM 75.7°F24.3°C 68.0°F20.0°C 77% Calm Calm -- 29.99 in1015.6 mb 0.00 in0.0 mm 0.00 in0.0 mm 0.00 in0.0 mm
04:57 AM 75.6°F24.2°C 67.5°F19.7°C 76% Calm Calm -- 29.99 in1015.6 mb 0.00 in0.0 mm 0.00 in0.0 mm 0.00 in0.0 mm
04:56 AM 75.6°F24.2°C 67.5°F19.7°C 76% Calm Calm -- 29.99 in1015.6 mb 0.00 in0.0 mm 0.00 in0.0 mm 0.00 in0.0 mm
04:55 AM 75.6°F24.2°C 67.5°F19.7°C 76% Calm Calm -- 29.99 in1015.6 mb 0.00 in0.0 mm 0.00 in0.0 mm 0.00 in0.0 mm
04:54 AM 75.6°F24.2°C 67.5°F19.7°C 76% Calm Calm -- 29.99 in1015.6 mb 0.00 in0.0 mm 0.00 in0.0 mm 0.00 in0.0 mm
04:53 AM 75.7°F24.3°C 67.6°F19.8°C 76% Calm Calm -- 29.99 in1015.6 mb 0.00 in0.0 mm 0.00 in0.0 mm 0.00 in0.0 mm
04:52 AM 75.7°F24.3°C 67.6°F19.8°C 76% Calm Calm -- 29.99 in1015.6 mb 0.00 in0.0 mm 0.00 in0.0 mm 0.00 in0.0 mm
04:51 AM 75.7°F24.3°C 67.6°F19.8°C 76% Calm Calm -- 29.99 in1015.6 mb 0.00 in0.0 mm 0.00 in0.0 mm 0.00 in0.0 mm
04:50 AM 75.9°F24.4°C 67.8°F19.9°C 76% Calm Calm -- 29.99 in1015.6 mb 0.00 in0.0 mm 0.00 in0.0 mm 0.00 in0.0 mm
04:49 AM 75.9°F24.4°C 67.8°F19.9°C 76% Calm Calm -- 29.99 in1015.6 mb 0.00 in0.0 mm 0.00 in0.0 mm 0.00 in0.0 mm
04:48 AM 75.9°F24.4°C 67.8°F19.9°C 76% Calm Calm -- 29.99 in1015.6 mb 0.00 in0.0 mm 0.00 in0.0 mm 0.00 in0.0 mm
04:47 AM 75.7°F24.3°C 67.6°F19.8°C 76% Calm Calm -- 29.99 in1015.6 mb 0.00 in0.0 mm 0.00 in0.0 mm 0.00 in0.0 mm
04:46 AM 75.7°F24.3°C 67.6°F19.8°C 76% Calm Calm -- 29.99 in1015.6 mb 0.00 in0.0 mm 0.00 in0.0 mm 0.00 in0.0 mm
04:45 AM 75.7°F24.3°C 67.6°F19.8°C 76% Calm Calm -- 29.99 in1015.6 mb 0.00 in0.0 mm 0.00 in0.0 mm 0.00 in0.0 mm
04:44 AM 75.7°F24.3°C 67.6°F19.8°C 76% Calm Calm -- 29.99 in1015.6 mb 0.00 in0.0 mm 0.00 in0.0 mm 0.00 in0.0 mm
04:43 AM 75.7°F24.3°C 67.6°F19.8°C 76% Calm Calm -- 29.99 in1015.6 mb 0.00 in0.0 mm 0.00 in0.0 mm 0.00 in0.0 mm
04:42 AM 75.9°F24.4°C 67.8°F19.9°C 76% Calm Calm -- 29.99 in1015.6 mb 0.00 in0.0 mm 0.00 in0.0 mm 0.00 in0.0 mm
04:41 AM 75.9°F24.4°C 67.8°F19.9°C 76% Calm Calm -- 29.99 in1015.6 mb 0.00 in0.0 mm 0.00 in0.0 mm 0.00 in0.0 mm
04:40 AM 76.1°F24.5°C 68.0°F20.0°C 76% Calm Calm -- 29.99 in1015.6 mb 0.00 in0.0 mm 0.00 in0.0 mm 0.00 in0.0 mm
04:39 AM 76.3°F24.6°C 68.2°F20.1°C 76% Calm Calm -- 29.99 in1015.6 mb 0.00 in0.0 mm 0.00 in0.0 mm 0.00 in0.0 mm
04:38 AM 76.5°F24.7°C 68.4°F20.2°C 76% Calm Calm -- 29.99 in1015.6 mb 0.00 in0.0 mm 0.00 in0.0 mm 0.00 in0.0 mm
04:37 AM 76.6°F24.8°C 68.5°F20.3°C 76% Calm Calm -- 30.00 in1015.9 mb 0.00 in0.0 mm 0.00 in0.0 mm 0.00 in0.0 mm
04:36 AM 76.6°F24.8°C 68.5°F20.3°C 76% Calm Calm -- 29.99 in1015.6 mb 0.00 in0.0 mm 0.00 in0.0 mm 0.00 in0.0 mm
04:35 AM 76.6°F24.8°C 68.5°F20.3°C 76% Calm Calm -- 29.99 in1015.6 mb 0.00 in0.0 mm 0.00 in0.0 mm 0.00 in0.0 mm
04:34 AM 76.6°F24.8°C 68.5°F20.3°C 76% Calm Calm -- 29.99 in1015.6 mb 0.00 in0.0 mm 0.00 in0.0 mm 0.00 in0.0 mm
04:33 AM 76.8°F24.9°C 68.6°F20.3°C 76% Calm Calm -- 29.99 in1015.6 mb 0.00 in0.0 mm 0.00 in0.0 mm 0.00 in0.0 mm
04:32 AM 76.8°F24.9°C 68.6°F20.3°C 76% Calm Calm -- 29.99 in1015.6 mb 0.00 in0.0 mm 0.00 in0.0 mm 0.00 in0.0 mm
04:31 AM 76.8°F24.9°C 68.6°F20.3°C 76% Calm Calm -- 29.99 in1015.6 mb 0.00 in0.0 mm 0.00 in0.0 mm 0.00 in0.0 mm
04:30 AM 76.8°F24.9°C 68.3°F20.2°C 75% Calm Calm -- 29.99 in1015.6 mb 0.00 in0.0 mm 0.00 in0.0 mm 0.00 in0.0 mm
04:29 AM 76.8°F24.9°C 68.6°F20.3°C 76% Calm Calm -- 29.99 in1015.6 mb 0.00 in0.0 mm 0.00 in0.0 mm 0.00 in0.0 mm
04:28 AM 76.6°F24.8°C 68.1°F20.1°C 75% Calm Calm -- 29.99 in1015.6 mb 0.00 in0.0 mm 0.00 in0.0 mm 0.00 in0.0 mm
04:27 AM 76.6°F24.8°C 68.1°F20.1°C 75% Calm Calm -- 29.99 in1015.6 mb 0.00 in0.0 mm 0.00 in0.0 mm 0.00 in0.0 mm
04:26 AM 76.6°F24.8°C 68.1°F20.1°C 75% Calm Calm -- 29.99 in1015.6 mb 0.00 in0.0 mm 0.00 in0.0 mm 0.00 in0.0 mm
04:25 AM 76.6°F24.8°C 68.1°F20.1°C 75% Calm Calm -- 29.99 in1015.6 mb 0.00 in0.0 mm 0.00 in0.0 mm 0.00 in0.0 mm
04:24 AM 76.8°F24.9°C 68.3°F20.2°C 75% Calm Calm -- 29.98 in1015.2 mb 0.00 in0.0 mm 0.00 in0.0 mm 0.00 in0.0 mm
04:23 AM 76.8°F24.9°C 68.3°F20.2°C 75% Calm Calm -- 29.99 in1015.6 mb 0.00 in0.0 mm 0.00 in0.0 mm 0.00 in0.0 mm
04:22 AM 76.8°F24.9°C 68.3°F20.2°C 75% Calm Calm -- 29.99 in1015.6 mb 0.00 in0.0 mm 0.00 in0.0 mm 0.00 in0.0 mm
04:21 AM 76.8°F24.9°C 68.3°F20.2°C 75% Calm Calm -- 29.99 in1015.6 mb 0.00 in0.0 mm 0.00 in0.0 mm 0.00 in0.0 mm
04:20 AM 76.8°F24.9°C 67.9°F19.9°C 74% Calm Calm -- 29.99 in1015.6 mb 0.00 in0.0 mm 0.00 in0.0 mm 0.00 in0.0 mm
04:19 AM 77.0°F25.0°C 68.1°F20.1°C 74% Calm Calm -- 29.98 in1015.2 mb 0.00 in0.0 mm 0.00 in0.0 mm 0.00 in0.0 mm
04:18 AM 77.0°F25.0°C 68.1°F20.1°C 74% Calm Calm -- 29.98 in1015.2 mb 0.00 in0.0 mm 0.00 in0.0 mm 0.00 in0.0 mm
04:17 AM 77.2°F25.1°C 68.3°F20.2°C 74% Calm Calm -- 29.99 in1015.6 mb 0.00 in0.0 mm 0.00 in0.0 mm 0.00 in0.0 mm
04:16 AM 77.2°F25.1°C 68.3°F20.2°C 74% Calm Calm -- 29.99 in1015.6 mb 0.00 in0.0 mm 0.00 in0.0 mm 0.00 in0.0 mm
04:15 AM 77.2°F25.1°C 68.3°F20.2°C 74% Calm Calm -- 29.98 in1015.2 mb 0.00 in0.0 mm 0.00 in0.0 mm 0.00 in0.0 mm
04:14 AM 77.2°F25.1°C 68.3°F20.2°C 74% Calm Calm -- 29.99 in1015.6 mb 0.00 in0.0 mm 0.00 in0.0 mm 0.00 in0.0 mm
04:13 AM 77.2°F25.1°C 68.3°F20.2°C 74% Calm Calm -- 29.98 in1015.2 mb 0.00 in0.0 mm 0.00 in0.0 mm 0.00 in0.0 mm
04:12 AM 77.2°F25.1°C 68.3°F20.2°C 74% Calm Calm -- 29.98 in1015.2 mb 0.00 in0.0 mm 0.00 in0.0 mm 0.00 in0.0 mm
04:11 AM 77.2°F25.1°C 67.9°F19.9°C 73% Calm Calm -- 29.98 in1015.2 mb 0.00 in0.0 mm 0.00 in0.0 mm 0.00 in0.0 mm
04:10 AM 77.2°F25.1°C 68.3°F20.2°C 74% Calm Calm -- 29.99 in1015.6 mb 0.00 in0.0 mm 0.00 in0.0 mm 0.00 in0.0 mm
04:09 AM 77.2°F25.1°C 68.3°F20.2°C 74% Calm Calm -- 29.98 in1015.2 mb 0.00 in0.0 mm 0.00 in0.0 mm 0.00 in0.0 mm
04:08 AM 77.2°F25.1°C 67.9°F19.9°C 73% Calm Calm -- 29.98 in1015.2 mb 0.00 in0.0 mm 0.00 in0.0 mm 0.00 in0.0 mm
04:07 AM 77.2°F25.1°C 68.3°F20.2°C 74% Calm Calm -- 29.98 in1015.2 mb 0.00 in0.0 mm 0.00 in0.0 mm 0.00 in0.0 mm
04:06 AM 77.2°F25.1°C 68.3°F20.2°C 74% Calm Calm -- 29.98 in1015.2 mb 0.00 in0.0 mm 0.00 in0.0 mm 0.00 in0.0 mm
04:05 AM 77.2°F25.1°C 68.3°F20.2°C 74% Calm Calm -- 29.98 in1015.2 mb 0.00 in0.0 mm 0.00 in0.0 mm 0.00 in0.0 mm
04:04 AM 77.2°F25.1°C 68.3°F20.2°C 74% Calm Calm -- 29.98 in1015.2 mb 0.00 in0.0 mm 0.00 in0.0 mm 0.00 in0.0 mm
04:03 AM 77.2°F25.1°C 68.3°F20.2°C 74% Calm Calm -- 29.98 in1015.2 mb 0.00 in0.0 mm 0.00 in0.0 mm 0.00 in0.0 mm
04:02 AM 77.2°F25.1°C 68.3°F20.2°C 74% Calm Calm -- 29.98 in1015.2 mb 0.00 in0.0 mm 0.00 in0.0 mm 0.00 in0.0 mm
04:01 AM 77.2°F25.1°C 68.3°F20.2°C 74% Calm Calm -- 29.99 in1015.6 mb 0.00 in0.0 mm 0.00 in0.0 mm 0.00 in0.0 mm
04:00 AM 77.2°F25.1°C 68.3°F20.2°C 74% Calm Calm -- 29.98 in1015.2 mb 0.00 in0.0 mm 0.00 in0.0 mm 0.00 in0.0 mm
03:59 AM 77.0°F25.0°C 68.1°F20.1°C 74% Calm Calm -- 29.98 in1015.2 mb 0.00 in0.0 mm 0.00 in0.0 mm 0.00 in0.0 mm
03:58 AM 77.0°F25.0°C 68.1°F20.1°C 74% Calm Calm -- 29.98 in1015.2 mb 0.00 in0.0 mm 0.00 in0.0 mm 0.00 in0.0 mm
03:57 AM 77.0°F25.0°C 68.1°F20.1°C 74% Calm Calm -- 29.99 in1015.6 mb 0.00 in0.0 mm 0.00 in0.0 mm 0.00 in0.0 mm
03:56 AM 77.0°F25.0°C 68.1°F20.1°C 74% Calm Calm -- 29.99 in1015.6 mb 0.00 in0.0 mm 0.00 in0.0 mm 0.00 in0.0 mm
03:55 AM 77.0°F25.0°C 67.7°F19.8°C 73% Calm Calm -- 29.98 in1015.2 mb 0.00 in0.0 mm 0.00 in0.0 mm 0.00 in0.0 mm
03:54 AM 77.2°F25.1°C 67.9°F19.9°C 73% Calm Calm -- 29.98 in1015.2 mb 0.00 in0.0 mm 0.00 in0.0 mm 0.00 in0.0 mm
03:53 AM 77.2°F25.1°C 67.9°F19.9°C 73% Calm Calm -- 29.98 in1015.2 mb 0.00 in0.0 mm 0.00 in0.0 mm 0.00 in0.0 mm
03:52 AM 77.2°F25.1°C 67.9°F19.9°C 73% 0.9 mph ESE1.4 kmh ESE 1.1 mph1.8 kmh 29.98 in1015.2 mb 0.00 in0.0 mm 0.00 in0.0 mm 0.00 in0.0 mm
03:51 AM 77.2°F25.1°C 67.9°F19.9°C 73% Calm Calm -- 29.98 in1015.2 mb 0.00 in0.0 mm 0.00 in0.0 mm 0.00 in0.0 mm
03:50 AM 77.4°F25.2°C 68.0°F20.0°C 73% Calm Calm -- 29.99 in1015.6 mb 0.00 in0.0 mm 0.00 in0.0 mm 0.00 in0.0 mm
03:49 AM 77.4°F25.2°C 68.0°F20.0°C 73% Calm Calm -- 29.98 in1015.2 mb 0.00 in0.0 mm 0.00 in0.0 mm 0.00 in0.0 mm
03:48 AM 77.4°F25.2°C 68.4°F20.2°C 74% Calm Calm -- 29.98 in1015.2 mb 0.00 in0.0 mm 0.00 in0.0 mm 0.00 in0.0 mm
03:47 AM 77.4°F25.2°C 68.4°F20.2°C 74% Calm Calm -- 29.98 in1015.2 mb 0.00 in0.0 mm 0.00 in0.0 mm 0.00 in0.0 mm
03:46 AM 77.4°F25.2°C 68.0°F20.0°C 73% Calm Calm -- 29.98 in1015.2 mb 0.00 in0.0 mm 0.00 in0.0 mm 0.00 in0.0 mm
03:45 AM 77.4°F25.2°C 68.4°F20.2°C 74% Calm Calm -- 29.99 in1015.6 mb 0.00 in0.0 mm 0.00 in0.0 mm 0.00 in0.0 mm
03:44 AM 77.4°F25.2°C 68.0°F20.0°C 73% Calm Calm -- 29.98 in1015.2 mb 0.00 in0.0 mm 0.00 in0.0 mm 0.00 in0.0 mm
03:43 AM 77.4°F25.2°C 68.0°F20.0°C 73% Calm Calm -- 29.98 in1015.2 mb 0.00 in0.0 mm 0.00 in0.0 mm 0.00 in0.0 mm
03:42 AM 77.4°F25.2°C 68.4°F20.2°C 74% Calm Calm -- 29.98 in1015.2 mb 0.00 in0.0 mm 0.00 in0.0 mm 0.00 in0.0 mm
03:41 AM 77.4°F25.2°C 68.0°F20.0°C 73% Calm Calm -- 29.98 in1015.2 mb 0.00 in0.0 mm 0.00 in0.0 mm 0.00 in0.0 mm
03:40 AM 77.4°F25.2°C 68.0°F20.0°C 73% Calm Calm -- 29.98 in1015.2 mb 0.00 in0.0 mm 0.00 in0.0 mm 0.00 in0.0 mm
03:39 AM 77.4°F25.2°C 68.0°F20.0°C 73% Calm Calm -- 29.99 in1015.6 mb 0.00 in0.0 mm 0.00 in0.0 mm 0.00 in0.0 mm
03:38 AM 77.4°F25.2°C 68.0°F20.0°C 73% Calm Calm -- 29.98 in1015.2 mb 0.00 in0.0 mm 0.00 in0.0 mm 0.00 in0.0 mm
03:37 AM 77.4°F25.2°C 68.0°F20.0°C 73% Calm Calm -- 29.98 in1015.2 mb 0.00 in0.0 mm 0.00 in0.0 mm 0.00 in0.0 mm
03:36 AM 77.4°F25.2°C 68.0°F20.0°C 73% Calm Calm -- 29.98 in1015.2 mb 0.00 in0.0 mm 0.00 in0.0 mm 0.00 in0.0 mm
03:35 AM 77.4°F25.2°C 68.0°F20.0°C 73% Calm Calm -- 29.98 in1015.2 mb 0.00 in0.0 mm 0.00 in0.0 mm 0.00 in0.0 mm
03:34 AM 77.4°F25.2°C 68.0°F20.0°C 73% Calm Calm -- 29.98 in1015.2 mb 0.00 in0.0 mm 0.00 in0.0 mm 0.00 in0.0 mm
03:33 AM 77.4°F25.2°C 68.0°F20.0°C 73% Calm Calm -- 29.98 in1015.2 mb 0.00 in0.0 mm 0.00 in0.0 mm 0.00 in0.0 mm
03:32 AM 77.4°F25.2°C 68.0°F20.0°C 73% Calm Calm -- 29.98 in1015.2 mb 0.00 in0.0 mm 0.00 in0.0 mm 0.00 in0.0 mm
03:31 AM 77.4°F25.2°C 68.0°F20.0°C 73% Calm Calm -- 29.98 in1015.2 mb 0.00 in0.0 mm 0.00 in0.0 mm 0.00 in0.0 mm
03:30 AM 77.4°F25.2°C 68.0°F20.0°C 73% 0.2 mph SE0.3 kmh SE 1.1 mph1.8 kmh 29.98 in1015.2 mb 0.00 in0.0 mm 0.00 in0.0 mm 0.00 in0.0 mm
03:29 AM 77.4°F25.2°C 68.0°F20.0°C 73% 0.9 mph SE1.4 kmh SE 1.1 mph1.8 kmh 29.97 in1014.9 mb 0.00 in0.0 mm 0.00 in0.0 mm 0.00 in0.0 mm
03:28 AM 77.2°F25.1°C 67.9°F19.9°C 73% 1.1 mph ENE1.8 kmh ENE 2.2 mph3.5 kmh 29.98 in1015.2 mb 0.00 in0.0 mm 0.00 in0.0 mm